<?xml version="1.0" encoding="UTF-8" standalone="no" ?>
<gpx xmlns="http://www.topografix.com/GPX/1/1" xmlns:xsi="http://www.w3.org/2001/XMLSchema-instance" xsi:schemaLocation="http://www.topografix.com/GPX/1/1 http://www.topografix.com/GPX/1/1/gpx.xsd" version="1.1" creator="VisuGPX - https://www.visugpx.com">
  <metadata>
    <name>06/07/2015 : Rocher de Scaramus</name>
    <desc><![CDATA[06/07/2015 : Rocher de Scaramus]]></desc>
  </metadata>
  <wpt lat="42.76643" lon="1.8508">
    <ele>1368</ele>
    <name><![CDATA[Pause à 06/07/2015 à 9:12]]></name>
    <desc><![CDATA[Pause de 3min 30s]]></desc>
  </wpt>
  <wpt lat="42.76773" lon="1.84909">
    <ele>1379</ele>
    <name><![CDATA[Pause à 06/07/2015 à 9:19]]></name>
    <desc><![CDATA[Pause de 5min 29s]]></desc>
  </wpt>
  <wpt lat="42.77018" lon="1.84879">
    <ele>1434</ele>
    <name><![CDATA[Pause à 06/07/2015 à 9:34]]></name>
    <desc><![CDATA[Pause de 4min 22s]]></desc>
  </wpt>
  <wpt lat="42.77234" lon="1.8467">
    <ele>1470</ele>
    <name><![CDATA[Pause à 06/07/2015 à 9:48]]></name>
    <desc><![CDATA[Pause de 7min 3s]]></desc>
  </wpt>
  <wpt lat="42.77489" lon="1.84376">
    <ele>1495</ele>
    <name><![CDATA[Pause à 06/07/2015 à 10:03]]></name>
    <desc><![CDATA[Pause de 3min 46s]]></desc>
  </wpt>
  <wpt lat="42.77679" lon="1.84447">
    <ele>1501</ele>
    <name><![CDATA[Pause à 06/07/2015 à 10:10]]></name>
    <desc><![CDATA[Pause de 2min 11s]]></desc>
  </wpt>
  <wpt lat="42.78029" lon="1.84469">
    <ele>1536</ele>
    <name><![CDATA[Pause à 06/07/2015 à 10:20]]></name>
    <desc><![CDATA[Pause de 11min 20s]]></desc>
  </wpt>
  <wpt lat="42.78471" lon="1.84476">
    <ele>1650</ele>
    <name><![CDATA[Pause à 06/07/2015 à 10:46]]></name>
    <desc><![CDATA[Pause de 16min 50s]]></desc>
  </wpt>
  <wpt lat="42.7856" lon="1.84426">
    <ele>1667</ele>
    <name><![CDATA[Pause à 06/07/2015 à 11:05]]></name>
    <desc><![CDATA[Pause de 11min 29s]]></desc>
  </wpt>
  <wpt lat="42.7885" lon="1.84241">
    <ele>1709</ele>
    <name><![CDATA[Pause à 06/07/2015 à 11:27]]></name>
    <desc><![CDATA[Pause de 6min 38s]]></desc>
  </wpt>
  <wpt lat="42.78905" lon="1.83959">
    <ele>1755</ele>
    <name><![CDATA[Pause à 06/07/2015 à 11:40]]></name>
    <desc><![CDATA[Pause de 3min 54s]]></desc>
  </wpt>
  <wpt lat="42.7894" lon="1.83848">
    <ele>1789</ele>
    <name><![CDATA[Pause à 06/07/2015 à 11:48]]></name>
    <desc><![CDATA[Pause de 2min 29s]]></desc>
  </wpt>
  <wpt lat="42.78859" lon="1.83668">
    <ele>1843</ele>
    <name><![CDATA[Pause à 06/07/2015 à 11:58]]></name>
    <desc><![CDATA[Pause de 9min 21s]]></desc>
  </wpt>
  <wpt lat="42.78835" lon="1.83681">
    <ele>1862</ele>
    <name><![CDATA[Pause à 06/07/2015 à 12:08]]></name>
    <desc><![CDATA[Pause de 3min 5s]]></desc>
  </wpt>
  <wpt lat="42.78959" lon="1.84323">
    <ele>1700</ele>
    <name><![CDATA[Pause à 06/07/2015 à 12:28]]></name>
    <desc><![CDATA[Pause de 7min 25s]]></desc>
  </wpt>
  <wpt lat="42.7891" lon="1.84448">
    <ele>1689</ele>
    <name><![CDATA[Pause à 06/07/2015 à 12:39]]></name>
    <desc><![CDATA[Pause de 2min 18s]]></desc>
  </wpt>
  <wpt lat="42.79124" lon="1.85077">
    <ele>1641</ele>
    <name><![CDATA[Pause à 06/07/2015 à 12:53]]></name>
    <desc><![CDATA[Pause de 4min 14s]]></desc>
  </wpt>
  <wpt lat="42.79126" lon="1.85111">
    <ele>1637</ele>
    <name><![CDATA[Pause à 06/07/2015 à 12:58]]></name>
    <desc><![CDATA[Pause de 1h 04min]]></desc>
  </wpt>
  <wpt lat="42.78894" lon="1.85474">
    <ele>1635</ele>
    <name><![CDATA[Pause à 06/07/2015 à 14:09]]></name>
    <desc><![CDATA[Pause de 3min 5s]]></desc>
  </wpt>
  <wpt lat="42.78751" lon="1.85534">
    <ele>1642</ele>
    <name><![CDATA[Pause à 06/07/2015 à 14:14]]></name>
    <desc><![CDATA[Pause de 5min 28s]]></desc>
  </wpt>
  <wpt lat="42.78728" lon="1.85559">
    <ele>1646</ele>
    <name><![CDATA[Pause à 06/07/2015 à 14:20]]></name>
    <desc><![CDATA[Pause de 2min 30s]]></desc>
  </wpt>
  <wpt lat="42.78077" lon="1.85645">
    <ele>1601</ele>
    <name><![CDATA[Pause à 06/07/2015 à 14:37]]></name>
    <desc><![CDATA[Pause de 19min 48s]]></desc>
  </wpt>
  <wpt lat="42.77785" lon="1.85333">
    <ele>1554</ele>
    <name><![CDATA[Pause à 06/07/2015 à 15:07]]></name>
    <desc><![CDATA[Pause de 3min 54s]]></desc>
  </wpt>
  <wpt lat="42.77663" lon="1.85377">
    <ele>1532</ele>
    <name><![CDATA[Pause à 06/07/2015 à 15:13]]></name>
    <desc><![CDATA[Pause de 2min 15s]]></desc>
  </wpt>
  <wpt lat="42.77523" lon="1.85364">
    <ele>1496</ele>
    <name><![CDATA[Pause à 06/07/2015 à 15:18]]></name>
    <desc><![CDATA[Pause de 2min 29s]]></desc>
  </wpt>
  <wpt lat="42.77272" lon="1.85419">
    <ele>1462</ele>
    <name><![CDATA[Pause à 06/07/2015 à 15:26]]></name>
    <desc><![CDATA[Pause de 7min 56s]]></desc>
  </wpt>
  <wpt lat="42.76884" lon="1.84848">
    <ele>1442</ele>
    <name><![CDATA[Pause à 06/07/2015 à 15:47]]></name>
    <desc><![CDATA[Pause de 3min 54s]]></desc>
  </wpt>
  <trk>
    <name><![CDATA[06/07/2015 : Rocher de Scaramus_1]]></name>
    <trkseg>
      <trkpt lat="42.76643" lon="1.8508">
        <ele>1368</ele>
        <time>2015-07-06T07:09:59Z</time>
      </trkpt>
      <trkpt lat="42.76642" lon="1.85076">
        <ele>1372</ele>
        <time>2015-07-06T07:10:21Z</time>
      </trkpt>
      <trkpt lat="42.76642" lon="1.85076">
        <ele>1372</ele>
        <time>2015-07-06T07:10:43Z</time>
      </trkpt>
      <trkpt lat="42.76643" lon="1.85074">
        <ele>1366</ele>
        <time>2015-07-06T07:10:49Z</time>
      </trkpt>
      <trkpt lat="42.76644" lon="1.85075">
        <ele>1365</ele>
        <time>2015-07-06T07:11:00Z</time>
      </trkpt>
      <trkpt lat="42.76644" lon="1.85075">
        <ele>1365</ele>
        <time>2015-07-06T07:11:27Z</time>
      </trkpt>
      <trkpt lat="42.76644" lon="1.85075">
        <ele>1365</ele>
        <time>2015-07-06T07:11:50Z</time>
      </trkpt>
      <trkpt lat="42.76646" lon="1.85043">
        <ele>1367</ele>
        <time>2015-07-06T07:13:29Z</time>
      </trkpt>
      <trkpt lat="42.76648" lon="1.85032">
        <ele>1367</ele>
        <time>2015-07-06T07:13:40Z</time>
      </trkpt>
      <trkpt lat="42.7665" lon="1.85026">
        <ele>1367</ele>
        <time>2015-07-06T07:13:46Z</time>
      </trkpt>
      <trkpt lat="42.76651" lon="1.85019">
        <ele>1366</ele>
        <time>2015-07-06T07:13:58Z</time>
      </trkpt>
      <trkpt lat="42.76654" lon="1.85011">
        <ele>1366</ele>
        <time>2015-07-06T07:14:08Z</time>
      </trkpt>
      <trkpt lat="42.7666" lon="1.85003">
        <ele>1366</ele>
        <time>2015-07-06T07:14:20Z</time>
      </trkpt>
      <trkpt lat="42.76665" lon="1.85">
        <ele>1366</ele>
        <time>2015-07-06T07:14:26Z</time>
      </trkpt>
      <trkpt lat="42.76673" lon="1.84998">
        <ele>1366</ele>
        <time>2015-07-06T07:14:32Z</time>
      </trkpt>
      <trkpt lat="42.76679" lon="1.84997">
        <ele>1367</ele>
        <time>2015-07-06T07:14:37Z</time>
      </trkpt>
      <trkpt lat="42.76685" lon="1.84996">
        <ele>1367</ele>
        <time>2015-07-06T07:14:43Z</time>
      </trkpt>
      <trkpt lat="42.76689" lon="1.84995">
        <ele>1367</ele>
        <time>2015-07-06T07:14:48Z</time>
      </trkpt>
      <trkpt lat="42.76696" lon="1.84995">
        <ele>1367</ele>
        <time>2015-07-06T07:14:59Z</time>
      </trkpt>
      <trkpt lat="42.76702" lon="1.84991">
        <ele>1367</ele>
        <time>2015-07-06T07:15:10Z</time>
      </trkpt>
      <trkpt lat="42.76709" lon="1.84989">
        <ele>1368</ele>
        <time>2015-07-06T07:15:16Z</time>
      </trkpt>
      <trkpt lat="42.76714" lon="1.84986">
        <ele>1369</ele>
        <time>2015-07-06T07:15:22Z</time>
      </trkpt>
      <trkpt lat="42.76719" lon="1.8498">
        <ele>1370</ele>
        <time>2015-07-06T07:15:33Z</time>
      </trkpt>
      <trkpt lat="42.76727" lon="1.84972">
        <ele>1371</ele>
        <time>2015-07-06T07:15:44Z</time>
      </trkpt>
      <trkpt lat="42.76732" lon="1.84969">
        <ele>1371</ele>
        <time>2015-07-06T07:15:50Z</time>
      </trkpt>
      <trkpt lat="42.76734" lon="1.84963">
        <ele>1372</ele>
        <time>2015-07-06T07:15:56Z</time>
      </trkpt>
      <trkpt lat="42.76737" lon="1.84954">
        <ele>1372</ele>
        <time>2015-07-06T07:16:02Z</time>
      </trkpt>
      <trkpt lat="42.7674" lon="1.84948">
        <ele>1373</ele>
        <time>2015-07-06T07:16:08Z</time>
      </trkpt>
      <trkpt lat="42.76741" lon="1.84941">
        <ele>1373</ele>
        <time>2015-07-06T07:16:14Z</time>
      </trkpt>
      <trkpt lat="42.76745" lon="1.84936">
        <ele>1375</ele>
        <time>2015-07-06T07:16:20Z</time>
      </trkpt>
      <trkpt lat="42.7675" lon="1.84929">
        <ele>1375</ele>
        <time>2015-07-06T07:16:31Z</time>
      </trkpt>
      <trkpt lat="42.76754" lon="1.84924">
        <ele>1376</ele>
        <time>2015-07-06T07:16:37Z</time>
      </trkpt>
      <trkpt lat="42.76757" lon="1.84919">
        <ele>1377</ele>
        <time>2015-07-06T07:16:43Z</time>
      </trkpt>
      <trkpt lat="42.76762" lon="1.84914">
        <ele>1378</ele>
        <time>2015-07-06T07:16:55Z</time>
      </trkpt>
      <trkpt lat="42.76767" lon="1.84912">
        <ele>1379</ele>
        <time>2015-07-06T07:17:00Z</time>
      </trkpt>
      <trkpt lat="42.76774" lon="1.84909">
        <ele>1379</ele>
        <time>2015-07-06T07:17:06Z</time>
      </trkpt>
      <trkpt lat="42.7678" lon="1.84904">
        <ele>1380</ele>
        <time>2015-07-06T07:17:12Z</time>
      </trkpt>
      <trkpt lat="42.76782" lon="1.84897">
        <ele>1380</ele>
        <time>2015-07-06T07:17:18Z</time>
      </trkpt>
      <trkpt lat="42.76784" lon="1.84892">
        <ele>1380</ele>
        <time>2015-07-06T07:17:36Z</time>
      </trkpt>
      <trkpt lat="42.76784" lon="1.84892">
        <ele>1380</ele>
        <time>2015-07-06T07:18:00Z</time>
      </trkpt>
      <trkpt lat="42.76784" lon="1.84892">
        <ele>1380</ele>
        <time>2015-07-06T07:18:18Z</time>
      </trkpt>
      <trkpt lat="42.76784" lon="1.84892">
        <ele>1380</ele>
        <time>2015-07-06T07:18:42Z</time>
      </trkpt>
      <trkpt lat="42.76793" lon="1.84891">
        <ele>1385</ele>
        <time>2015-07-06T07:22:35Z</time>
      </trkpt>
      <trkpt lat="42.76793" lon="1.84891">
        <ele>1385</ele>
        <time>2015-07-06T07:22:56Z</time>
      </trkpt>
      <trkpt lat="42.76786" lon="1.84883">
        <ele>1385</ele>
        <time>2015-07-06T07:23:02Z</time>
      </trkpt>
      <trkpt lat="42.76786" lon="1.84883">
        <ele>1385</ele>
        <time>2015-07-06T07:23:19Z</time>
      </trkpt>
      <trkpt lat="42.76786" lon="1.84883">
        <ele>1385</ele>
        <time>2015-07-06T07:23:42Z</time>
      </trkpt>
      <trkpt lat="42.7679" lon="1.84879">
        <ele>1384</ele>
        <time>2015-07-06T07:24:09Z</time>
      </trkpt>
      <trkpt lat="42.76795" lon="1.84878">
        <ele>1384</ele>
        <time>2015-07-06T07:24:15Z</time>
      </trkpt>
      <trkpt lat="42.76803" lon="1.84875">
        <ele>1384</ele>
        <time>2015-07-06T07:24:26Z</time>
      </trkpt>
      <trkpt lat="42.76811" lon="1.84876">
        <ele>1384</ele>
        <time>2015-07-06T07:24:32Z</time>
      </trkpt>
      <trkpt lat="42.76818" lon="1.84875">
        <ele>1384</ele>
        <time>2015-07-06T07:24:38Z</time>
      </trkpt>
      <trkpt lat="42.76825" lon="1.84873">
        <ele>1385</ele>
        <time>2015-07-06T07:24:44Z</time>
      </trkpt>
      <trkpt lat="42.76832" lon="1.84874">
        <ele>1385</ele>
        <time>2015-07-06T07:24:50Z</time>
      </trkpt>
      <trkpt lat="42.76839" lon="1.84874">
        <ele>1385</ele>
        <time>2015-07-06T07:24:56Z</time>
      </trkpt>
      <trkpt lat="42.76845" lon="1.84871">
        <ele>1384</ele>
        <time>2015-07-06T07:25:02Z</time>
      </trkpt>
      <trkpt lat="42.76854" lon="1.84866">
        <ele>1385</ele>
        <time>2015-07-06T07:25:14Z</time>
      </trkpt>
      <trkpt lat="42.7686" lon="1.84864">
        <ele>1385</ele>
        <time>2015-07-06T07:25:20Z</time>
      </trkpt>
      <trkpt lat="42.76865" lon="1.84863">
        <ele>1385</ele>
        <time>2015-07-06T07:25:25Z</time>
      </trkpt>
      <trkpt lat="42.76872" lon="1.84862">
        <ele>1386</ele>
        <time>2015-07-06T07:25:31Z</time>
      </trkpt>
      <trkpt lat="42.76878" lon="1.84858">
        <ele>1386</ele>
        <time>2015-07-06T07:25:37Z</time>
      </trkpt>
      <trkpt lat="42.76883" lon="1.84853">
        <ele>1386</ele>
        <time>2015-07-06T07:25:43Z</time>
      </trkpt>
      <trkpt lat="42.76886" lon="1.84848">
        <ele>1386</ele>
        <time>2015-07-06T07:25:49Z</time>
      </trkpt>
      <trkpt lat="42.76888" lon="1.84841">
        <ele>1386</ele>
        <time>2015-07-06T07:25:55Z</time>
      </trkpt>
      <trkpt lat="42.76886" lon="1.84835">
        <ele>1387</ele>
        <time>2015-07-06T07:26:00Z</time>
      </trkpt>
      <trkpt lat="42.76885" lon="1.84828">
        <ele>1387</ele>
        <time>2015-07-06T07:26:05Z</time>
      </trkpt>
      <trkpt lat="42.76883" lon="1.84817">
        <ele>1388</ele>
        <time>2015-07-06T07:26:11Z</time>
      </trkpt>
      <trkpt lat="42.7688" lon="1.84809">
        <ele>1389</ele>
        <time>2015-07-06T07:26:16Z</time>
      </trkpt>
      <trkpt lat="42.76878" lon="1.84801">
        <ele>1389</ele>
        <time>2015-07-06T07:26:22Z</time>
      </trkpt>
      <trkpt lat="42.76876" lon="1.84794">
        <ele>1390</ele>
        <time>2015-07-06T07:26:28Z</time>
      </trkpt>
      <trkpt lat="42.76872" lon="1.84789">
        <ele>1390</ele>
        <time>2015-07-06T07:26:34Z</time>
      </trkpt>
      <trkpt lat="42.76868" lon="1.84784">
        <ele>1391</ele>
        <time>2015-07-06T07:26:40Z</time>
      </trkpt>
      <trkpt lat="42.76865" lon="1.84779">
        <ele>1391</ele>
        <time>2015-07-06T07:26:46Z</time>
      </trkpt>
      <trkpt lat="42.76862" lon="1.84775">
        <ele>1392</ele>
        <time>2015-07-06T07:26:52Z</time>
      </trkpt>
      <trkpt lat="42.76857" lon="1.84771">
        <ele>1393</ele>
        <time>2015-07-06T07:26:58Z</time>
      </trkpt>
      <trkpt lat="42.76856" lon="1.84765">
        <ele>1394</ele>
        <time>2015-07-06T07:27:03Z</time>
      </trkpt>
      <trkpt lat="42.76854" lon="1.84755">
        <ele>1395</ele>
        <time>2015-07-06T07:27:14Z</time>
      </trkpt>
      <trkpt lat="42.76853" lon="1.84748">
        <ele>1395</ele>
        <time>2015-07-06T07:27:20Z</time>
      </trkpt>
      <trkpt lat="42.76852" lon="1.84737">
        <ele>1396</ele>
        <time>2015-07-06T07:27:32Z</time>
      </trkpt>
      <trkpt lat="42.76851" lon="1.84726">
        <ele>1398</ele>
        <time>2015-07-06T07:27:44Z</time>
      </trkpt>
      <trkpt lat="42.76856" lon="1.84731">
        <ele>1399</ele>
        <time>2015-07-06T07:27:56Z</time>
      </trkpt>
      <trkpt lat="42.76856" lon="1.84737">
        <ele>1400</ele>
        <time>2015-07-06T07:28:02Z</time>
      </trkpt>
      <trkpt lat="42.76858" lon="1.84743">
        <ele>1401</ele>
        <time>2015-07-06T07:28:08Z</time>
      </trkpt>
      <trkpt lat="42.76863" lon="1.84752">
        <ele>1402</ele>
        <time>2015-07-06T07:28:20Z</time>
      </trkpt>
      <trkpt lat="42.7687" lon="1.84759">
        <ele>1403</ele>
        <time>2015-07-06T07:28:31Z</time>
      </trkpt>
      <trkpt lat="42.76879" lon="1.84764">
        <ele>1404</ele>
        <time>2015-07-06T07:28:43Z</time>
      </trkpt>
      <trkpt lat="42.76885" lon="1.84767">
        <ele>1405</ele>
        <time>2015-07-06T07:28:54Z</time>
      </trkpt>
      <trkpt lat="42.76889" lon="1.84768">
        <ele>1406</ele>
        <time>2015-07-06T07:29:00Z</time>
      </trkpt>
      <trkpt lat="42.76897" lon="1.84772">
        <ele>1407</ele>
        <time>2015-07-06T07:29:11Z</time>
      </trkpt>
      <trkpt lat="42.76906" lon="1.84777">
        <ele>1408</ele>
        <time>2015-07-06T07:29:22Z</time>
      </trkpt>
      <trkpt lat="42.76912" lon="1.84782">
        <ele>1409</ele>
        <time>2015-07-06T07:29:34Z</time>
      </trkpt>
      <trkpt lat="42.76917" lon="1.84784">
        <ele>1410</ele>
        <time>2015-07-06T07:29:40Z</time>
      </trkpt>
      <trkpt lat="42.7692" lon="1.84789">
        <ele>1410</ele>
        <time>2015-07-06T07:29:46Z</time>
      </trkpt>
      <trkpt lat="42.76925" lon="1.84799">
        <ele>1412</ele>
        <time>2015-07-06T07:29:58Z</time>
      </trkpt>
      <trkpt lat="42.76929" lon="1.84804">
        <ele>1413</ele>
        <time>2015-07-06T07:30:04Z</time>
      </trkpt>
      <trkpt lat="42.76933" lon="1.84809">
        <ele>1414</ele>
        <time>2015-07-06T07:30:10Z</time>
      </trkpt>
      <trkpt lat="42.76935" lon="1.84814">
        <ele>1415</ele>
        <time>2015-07-06T07:30:16Z</time>
      </trkpt>
      <trkpt lat="42.76939" lon="1.84824">
        <ele>1417</ele>
        <time>2015-07-06T07:30:28Z</time>
      </trkpt>
      <trkpt lat="42.76945" lon="1.84832">
        <ele>1418</ele>
        <time>2015-07-06T07:30:40Z</time>
      </trkpt>
      <trkpt lat="42.76949" lon="1.84835">
        <ele>1419</ele>
        <time>2015-07-06T07:30:46Z</time>
      </trkpt>
      <trkpt lat="42.76954" lon="1.84839">
        <ele>1420</ele>
        <time>2015-07-06T07:30:52Z</time>
      </trkpt>
      <trkpt lat="42.76958" lon="1.84843">
        <ele>1421</ele>
        <time>2015-07-06T07:30:58Z</time>
      </trkpt>
      <trkpt lat="42.76967" lon="1.84847">
        <ele>1422</ele>
        <time>2015-07-06T07:31:10Z</time>
      </trkpt>
      <trkpt lat="42.76972" lon="1.8485">
        <ele>1423</ele>
        <time>2015-07-06T07:31:16Z</time>
      </trkpt>
      <trkpt lat="42.76976" lon="1.8485">
        <ele>1424</ele>
        <time>2015-07-06T07:31:22Z</time>
      </trkpt>
      <trkpt lat="42.76979" lon="1.84855">
        <ele>1425</ele>
        <time>2015-07-06T07:31:28Z</time>
      </trkpt>
      <trkpt lat="42.76986" lon="1.8486">
        <ele>1426</ele>
        <time>2015-07-06T07:31:40Z</time>
      </trkpt>
      <trkpt lat="42.76988" lon="1.84865">
        <ele>1428</ele>
        <time>2015-07-06T07:31:52Z</time>
      </trkpt>
      <trkpt lat="42.76992" lon="1.84869">
        <ele>1430</ele>
        <time>2015-07-06T07:32:04Z</time>
      </trkpt>
      <trkpt lat="42.76997" lon="1.8487">
        <ele>1430</ele>
        <time>2015-07-06T07:32:10Z</time>
      </trkpt>
      <trkpt lat="42.77002" lon="1.84872">
        <ele>1431</ele>
        <time>2015-07-06T07:32:20Z</time>
      </trkpt>
      <trkpt lat="42.77018" lon="1.84879">
        <ele>1434</ele>
        <time>2015-07-06T07:32:32Z</time>
      </trkpt>
      <trkpt lat="42.77018" lon="1.84879">
        <ele>1434</ele>
        <time>2015-07-06T07:32:50Z</time>
      </trkpt>
      <trkpt lat="42.77018" lon="1.84879">
        <ele>1434</ele>
        <time>2015-07-06T07:33:07Z</time>
      </trkpt>
      <trkpt lat="42.77018" lon="1.84879">
        <ele>1434</ele>
        <time>2015-07-06T07:33:30Z</time>
      </trkpt>
      <trkpt lat="42.77023" lon="1.84871">
        <ele>1441</ele>
        <time>2015-07-06T07:33:48Z</time>
      </trkpt>
      <trkpt lat="42.77023" lon="1.84871">
        <ele>1441</ele>
        <time>2015-07-06T07:34:16Z</time>
      </trkpt>
      <trkpt lat="42.77041" lon="1.84872">
        <ele>1451</ele>
        <time>2015-07-06T07:36:54Z</time>
      </trkpt>
      <trkpt lat="42.7705" lon="1.84872">
        <ele>1451</ele>
        <time>2015-07-06T07:37:06Z</time>
      </trkpt>
      <trkpt lat="42.77056" lon="1.84873">
        <ele>1451</ele>
        <time>2015-07-06T07:37:11Z</time>
      </trkpt>
      <trkpt lat="42.77063" lon="1.84876">
        <ele>1451</ele>
        <time>2015-07-06T07:37:16Z</time>
      </trkpt>
      <trkpt lat="42.77063" lon="1.84876">
        <ele>1451</ele>
        <time>2015-07-06T07:37:44Z</time>
      </trkpt>
      <trkpt lat="42.77063" lon="1.84876">
        <ele>1451</ele>
        <time>2015-07-06T07:38:12Z</time>
      </trkpt>
      <trkpt lat="42.77066" lon="1.84872">
        <ele>1443</ele>
        <time>2015-07-06T07:38:35Z</time>
      </trkpt>
      <trkpt lat="42.77069" lon="1.84872">
        <ele>1443</ele>
        <time>2015-07-06T07:38:40Z</time>
      </trkpt>
      <trkpt lat="42.77074" lon="1.84872">
        <ele>1443</ele>
        <time>2015-07-06T07:38:46Z</time>
      </trkpt>
      <trkpt lat="42.7708" lon="1.84872">
        <ele>1443</ele>
        <time>2015-07-06T07:38:52Z</time>
      </trkpt>
      <trkpt lat="42.77086" lon="1.84872">
        <ele>1443</ele>
        <time>2015-07-06T07:38:58Z</time>
      </trkpt>
      <trkpt lat="42.77091" lon="1.84871">
        <ele>1442</ele>
        <time>2015-07-06T07:39:04Z</time>
      </trkpt>
      <trkpt lat="42.77097" lon="1.84869">
        <ele>1442</ele>
        <time>2015-07-06T07:39:10Z</time>
      </trkpt>
      <trkpt lat="42.77103" lon="1.8487">
        <ele>1442</ele>
        <time>2015-07-06T07:39:16Z</time>
      </trkpt>
      <trkpt lat="42.77108" lon="1.8487">
        <ele>1443</ele>
        <time>2015-07-06T07:39:22Z</time>
      </trkpt>
      <trkpt lat="42.77113" lon="1.84868">
        <ele>1443</ele>
        <time>2015-07-06T07:39:28Z</time>
      </trkpt>
      <trkpt lat="42.77122" lon="1.84868">
        <ele>1444</ele>
        <time>2015-07-06T07:39:40Z</time>
      </trkpt>
      <trkpt lat="42.77128" lon="1.8487">
        <ele>1444</ele>
        <time>2015-07-06T07:39:46Z</time>
      </trkpt>
      <trkpt lat="42.77134" lon="1.8487">
        <ele>1445</ele>
        <time>2015-07-06T07:39:52Z</time>
      </trkpt>
      <trkpt lat="42.77141" lon="1.8487">
        <ele>1445</ele>
        <time>2015-07-06T07:39:58Z</time>
      </trkpt>
      <trkpt lat="42.77147" lon="1.84868">
        <ele>1445</ele>
        <time>2015-07-06T07:40:04Z</time>
      </trkpt>
      <trkpt lat="42.77154" lon="1.84867">
        <ele>1446</ele>
        <time>2015-07-06T07:40:10Z</time>
      </trkpt>
      <trkpt lat="42.7716" lon="1.84865">
        <ele>1446</ele>
        <time>2015-07-06T07:40:16Z</time>
      </trkpt>
      <trkpt lat="42.77168" lon="1.84866">
        <ele>1445</ele>
        <time>2015-07-06T07:40:33Z</time>
      </trkpt>
      <trkpt lat="42.77171" lon="1.84867">
        <ele>1446</ele>
        <time>2015-07-06T07:40:56Z</time>
      </trkpt>
      <trkpt lat="42.77171" lon="1.84867">
        <ele>1446</ele>
        <time>2015-07-06T07:41:19Z</time>
      </trkpt>
      <trkpt lat="42.77171" lon="1.84867">
        <ele>1446</ele>
        <time>2015-07-06T07:41:31Z</time>
      </trkpt>
      <trkpt lat="42.77174" lon="1.84875">
        <ele>1446</ele>
        <time>2015-07-06T07:41:41Z</time>
      </trkpt>
      <trkpt lat="42.77184" lon="1.84872">
        <ele>1446</ele>
        <time>2015-07-06T07:41:52Z</time>
      </trkpt>
      <trkpt lat="42.77188" lon="1.84866">
        <ele>1445</ele>
        <time>2015-07-06T07:41:58Z</time>
      </trkpt>
      <trkpt lat="42.77193" lon="1.84857">
        <ele>1445</ele>
        <time>2015-07-06T07:42:08Z</time>
      </trkpt>
      <trkpt lat="42.77195" lon="1.84845">
        <ele>1446</ele>
        <time>2015-07-06T07:42:20Z</time>
      </trkpt>
      <trkpt lat="42.77198" lon="1.84837">
        <ele>1447</ele>
        <time>2015-07-06T07:42:32Z</time>
      </trkpt>
      <trkpt lat="42.77203" lon="1.84829">
        <ele>1447</ele>
        <time>2015-07-06T07:42:49Z</time>
      </trkpt>
      <trkpt lat="42.77205" lon="1.84818">
        <ele>1447</ele>
        <time>2015-07-06T07:43:00Z</time>
      </trkpt>
      <trkpt lat="42.77206" lon="1.84808">
        <ele>1448</ele>
        <time>2015-07-06T07:43:12Z</time>
      </trkpt>
      <trkpt lat="42.7721" lon="1.84797">
        <ele>1448</ele>
        <time>2015-07-06T07:43:24Z</time>
      </trkpt>
      <trkpt lat="42.77213" lon="1.8479">
        <ele>1449</ele>
        <time>2015-07-06T07:43:31Z</time>
      </trkpt>
      <trkpt lat="42.77215" lon="1.8478">
        <ele>1451</ele>
        <time>2015-07-06T07:43:43Z</time>
      </trkpt>
      <trkpt lat="42.77215" lon="1.84773">
        <ele>1451</ele>
        <time>2015-07-06T07:43:49Z</time>
      </trkpt>
      <trkpt lat="42.77218" lon="1.84764">
        <ele>1452</ele>
        <time>2015-07-06T07:44:00Z</time>
      </trkpt>
      <trkpt lat="42.77217" lon="1.84756">
        <ele>1454</ele>
        <time>2015-07-06T07:44:12Z</time>
      </trkpt>
      <trkpt lat="42.77215" lon="1.84746">
        <ele>1456</ele>
        <time>2015-07-06T07:44:24Z</time>
      </trkpt>
      <trkpt lat="42.7721" lon="1.84737">
        <ele>1457</ele>
        <time>2015-07-06T07:44:36Z</time>
      </trkpt>
      <trkpt lat="42.77207" lon="1.84731">
        <ele>1458</ele>
        <time>2015-07-06T07:44:46Z</time>
      </trkpt>
      <trkpt lat="42.77204" lon="1.84722">
        <ele>1460</ele>
        <time>2015-07-06T07:45:10Z</time>
      </trkpt>
      <trkpt lat="42.772" lon="1.84717">
        <ele>1461</ele>
        <time>2015-07-06T07:45:16Z</time>
      </trkpt>
      <trkpt lat="42.77197" lon="1.84709">
        <ele>1461</ele>
        <time>2015-07-06T07:45:28Z</time>
      </trkpt>
      <trkpt lat="42.772" lon="1.84699">
        <ele>1462</ele>
        <time>2015-07-06T07:45:40Z</time>
      </trkpt>
      <trkpt lat="42.77202" lon="1.84688">
        <ele>1464</ele>
        <time>2015-07-06T07:45:52Z</time>
      </trkpt>
      <trkpt lat="42.77204" lon="1.84683">
        <ele>1464</ele>
        <time>2015-07-06T07:45:58Z</time>
      </trkpt>
      <trkpt lat="42.7721" lon="1.84676">
        <ele>1465</ele>
        <time>2015-07-06T07:46:10Z</time>
      </trkpt>
      <trkpt lat="42.77218" lon="1.84677">
        <ele>1466</ele>
        <time>2015-07-06T07:46:22Z</time>
      </trkpt>
      <trkpt lat="42.77226" lon="1.84676">
        <ele>1468</ele>
        <time>2015-07-06T07:46:33Z</time>
      </trkpt>
      <trkpt lat="42.77234" lon="1.8467">
        <ele>1470</ele>
        <time>2015-07-06T07:46:45Z</time>
      </trkpt>
      <trkpt lat="42.77237" lon="1.84668">
        <ele>1471</ele>
        <time>2015-07-06T07:47:02Z</time>
      </trkpt>
      <trkpt lat="42.77237" lon="1.84668">
        <ele>1471</ele>
        <time>2015-07-06T07:47:26Z</time>
      </trkpt>
      <trkpt lat="42.77237" lon="1.84668">
        <ele>1471</ele>
        <time>2015-07-06T07:47:50Z</time>
      </trkpt>
      <trkpt lat="42.77237" lon="1.84668">
        <ele>1471</ele>
        <time>2015-07-06T07:48:14Z</time>
      </trkpt>
      <trkpt lat="42.77237" lon="1.84668">
        <ele>1471</ele>
        <time>2015-07-06T07:48:31Z</time>
      </trkpt>
      <trkpt lat="42.7726" lon="1.84663">
        <ele>1480</ele>
        <time>2015-07-06T07:53:48Z</time>
      </trkpt>
      <trkpt lat="42.77264" lon="1.84661">
        <ele>1479</ele>
        <time>2015-07-06T07:54:05Z</time>
      </trkpt>
      <trkpt lat="42.77266" lon="1.84655">
        <ele>1479</ele>
        <time>2015-07-06T07:54:10Z</time>
      </trkpt>
      <trkpt lat="42.77266" lon="1.84652">
        <ele>1478</ele>
        <time>2015-07-06T07:54:22Z</time>
      </trkpt>
      <trkpt lat="42.77266" lon="1.84652">
        <ele>1478</ele>
        <time>2015-07-06T07:54:46Z</time>
      </trkpt>
      <trkpt lat="42.77271" lon="1.84648">
        <ele>1476</ele>
        <time>2015-07-06T07:54:58Z</time>
      </trkpt>
      <trkpt lat="42.77274" lon="1.84642">
        <ele>1476</ele>
        <time>2015-07-06T07:55:04Z</time>
      </trkpt>
      <trkpt lat="42.7728" lon="1.84638">
        <ele>1476</ele>
        <time>2015-07-06T07:55:10Z</time>
      </trkpt>
      <trkpt lat="42.77283" lon="1.84632">
        <ele>1475</ele>
        <time>2015-07-06T07:55:16Z</time>
      </trkpt>
      <trkpt lat="42.77287" lon="1.84627">
        <ele>1475</ele>
        <time>2015-07-06T07:55:22Z</time>
      </trkpt>
      <trkpt lat="42.77288" lon="1.8462">
        <ele>1475</ele>
        <time>2015-07-06T07:55:28Z</time>
      </trkpt>
      <trkpt lat="42.77293" lon="1.84611">
        <ele>1475</ele>
        <time>2015-07-06T07:55:40Z</time>
      </trkpt>
      <trkpt lat="42.77299" lon="1.84604">
        <ele>1476</ele>
        <time>2015-07-06T07:55:52Z</time>
      </trkpt>
      <trkpt lat="42.77304" lon="1.84606">
        <ele>1476</ele>
        <time>2015-07-06T07:55:58Z</time>
      </trkpt>
      <trkpt lat="42.77313" lon="1.84606">
        <ele>1476</ele>
        <time>2015-07-06T07:56:10Z</time>
      </trkpt>
      <trkpt lat="42.7732" lon="1.84602">
        <ele>1476</ele>
        <time>2015-07-06T07:56:22Z</time>
      </trkpt>
      <trkpt lat="42.77322" lon="1.84595">
        <ele>1476</ele>
        <time>2015-07-06T07:56:28Z</time>
      </trkpt>
      <trkpt lat="42.77329" lon="1.8459">
        <ele>1476</ele>
        <time>2015-07-06T07:56:34Z</time>
      </trkpt>
      <trkpt lat="42.77333" lon="1.84584">
        <ele>1476</ele>
        <time>2015-07-06T07:56:40Z</time>
      </trkpt>
      <trkpt lat="42.77337" lon="1.84577">
        <ele>1476</ele>
        <time>2015-07-06T07:56:46Z</time>
      </trkpt>
      <trkpt lat="42.77339" lon="1.8457">
        <ele>1476</ele>
        <time>2015-07-06T07:56:51Z</time>
      </trkpt>
      <trkpt lat="42.77341" lon="1.84562">
        <ele>1475</ele>
        <time>2015-07-06T07:56:57Z</time>
      </trkpt>
      <trkpt lat="42.77342" lon="1.84554">
        <ele>1475</ele>
        <time>2015-07-06T07:57:03Z</time>
      </trkpt>
      <trkpt lat="42.77345" lon="1.84546">
        <ele>1475</ele>
        <time>2015-07-06T07:57:09Z</time>
      </trkpt>
      <trkpt lat="42.77346" lon="1.84537">
        <ele>1474</ele>
        <time>2015-07-06T07:57:15Z</time>
      </trkpt>
      <trkpt lat="42.77349" lon="1.84531">
        <ele>1474</ele>
        <time>2015-07-06T07:57:21Z</time>
      </trkpt>
      <trkpt lat="42.77356" lon="1.84522">
        <ele>1474</ele>
        <time>2015-07-06T07:57:33Z</time>
      </trkpt>
      <trkpt lat="42.77363" lon="1.84513">
        <ele>1474</ele>
        <time>2015-07-06T07:57:44Z</time>
      </trkpt>
      <trkpt lat="42.77366" lon="1.84507">
        <ele>1474</ele>
        <time>2015-07-06T07:57:50Z</time>
      </trkpt>
      <trkpt lat="42.77368" lon="1.84501">
        <ele>1475</ele>
        <time>2015-07-06T07:57:56Z</time>
      </trkpt>
      <trkpt lat="42.77371" lon="1.84495">
        <ele>1475</ele>
        <time>2015-07-06T07:58:02Z</time>
      </trkpt>
      <trkpt lat="42.77374" lon="1.84489">
        <ele>1475</ele>
        <time>2015-07-06T07:58:08Z</time>
      </trkpt>
      <trkpt lat="42.77377" lon="1.84478">
        <ele>1475</ele>
        <time>2015-07-06T07:58:20Z</time>
      </trkpt>
      <trkpt lat="42.77374" lon="1.84469">
        <ele>1476</ele>
        <time>2015-07-06T07:58:31Z</time>
      </trkpt>
      <trkpt lat="42.77375" lon="1.84457">
        <ele>1476</ele>
        <time>2015-07-06T07:58:42Z</time>
      </trkpt>
      <trkpt lat="42.77377" lon="1.84451">
        <ele>1477</ele>
        <time>2015-07-06T07:58:48Z</time>
      </trkpt>
      <trkpt lat="42.77378" lon="1.84443">
        <ele>1477</ele>
        <time>2015-07-06T07:58:54Z</time>
      </trkpt>
      <trkpt lat="42.77387" lon="1.84436">
        <ele>1478</ele>
        <time>2015-07-06T07:59:06Z</time>
      </trkpt>
      <trkpt lat="42.7739" lon="1.84427">
        <ele>1479</ele>
        <time>2015-07-06T07:59:18Z</time>
      </trkpt>
      <trkpt lat="42.77395" lon="1.84417">
        <ele>1480</ele>
        <time>2015-07-06T07:59:30Z</time>
      </trkpt>
      <trkpt lat="42.77399" lon="1.84414">
        <ele>1481</ele>
        <time>2015-07-06T07:59:36Z</time>
      </trkpt>
      <trkpt lat="42.77404" lon="1.8441">
        <ele>1482</ele>
        <time>2015-07-06T07:59:42Z</time>
      </trkpt>
      <trkpt lat="42.7741" lon="1.84407">
        <ele>1483</ele>
        <time>2015-07-06T07:59:53Z</time>
      </trkpt>
      <trkpt lat="42.77414" lon="1.844">
        <ele>1484</ele>
        <time>2015-07-06T08:00:03Z</time>
      </trkpt>
      <trkpt lat="42.7742" lon="1.84396">
        <ele>1485</ele>
        <time>2015-07-06T08:00:09Z</time>
      </trkpt>
      <trkpt lat="42.77424" lon="1.84392">
        <ele>1485</ele>
        <time>2015-07-06T08:00:14Z</time>
      </trkpt>
      <trkpt lat="42.77429" lon="1.8439">
        <ele>1486</ele>
        <time>2015-07-06T08:00:19Z</time>
      </trkpt>
      <trkpt lat="42.77434" lon="1.84389">
        <ele>1487</ele>
        <time>2015-07-06T08:00:25Z</time>
      </trkpt>
      <trkpt lat="42.7744" lon="1.8438">
        <ele>1487</ele>
        <time>2015-07-06T08:00:31Z</time>
      </trkpt>
      <trkpt lat="42.77448" lon="1.84378">
        <ele>1487</ele>
        <time>2015-07-06T08:00:37Z</time>
      </trkpt>
      <trkpt lat="42.77455" lon="1.84379">
        <ele>1488</ele>
        <time>2015-07-06T08:00:43Z</time>
      </trkpt>
      <trkpt lat="42.77461" lon="1.84377">
        <ele>1488</ele>
        <time>2015-07-06T08:00:48Z</time>
      </trkpt>
      <trkpt lat="42.77465" lon="1.84374">
        <ele>1489</ele>
        <time>2015-07-06T08:00:54Z</time>
      </trkpt>
      <trkpt lat="42.77471" lon="1.84372">
        <ele>1491</ele>
        <time>2015-07-06T08:01:06Z</time>
      </trkpt>
      <trkpt lat="42.77477" lon="1.84372">
        <ele>1491</ele>
        <time>2015-07-06T08:01:12Z</time>
      </trkpt>
      <trkpt lat="42.77483" lon="1.84376">
        <ele>1493</ele>
        <time>2015-07-06T08:01:24Z</time>
      </trkpt>
      <trkpt lat="42.77489" lon="1.84376">
        <ele>1495</ele>
        <time>2015-07-06T08:01:36Z</time>
      </trkpt>
      <trkpt lat="42.77493" lon="1.84382">
        <ele>1497</ele>
        <time>2015-07-06T08:01:53Z</time>
      </trkpt>
      <trkpt lat="42.77497" lon="1.84384">
        <ele>1497</ele>
        <time>2015-07-06T08:02:29Z</time>
      </trkpt>
      <trkpt lat="42.77497" lon="1.84384">
        <ele>1497</ele>
        <time>2015-07-06T08:02:52Z</time>
      </trkpt>
      <trkpt lat="42.77498" lon="1.84385">
        <ele>1500</ele>
        <time>2015-07-06T08:03:04Z</time>
      </trkpt>
      <trkpt lat="42.7751" lon="1.84389">
        <ele>1502</ele>
        <time>2015-07-06T08:05:22Z</time>
      </trkpt>
      <trkpt lat="42.77515" lon="1.84391">
        <ele>1502</ele>
        <time>2015-07-06T08:05:28Z</time>
      </trkpt>
      <trkpt lat="42.7752" lon="1.84391">
        <ele>1501</ele>
        <time>2015-07-06T08:05:34Z</time>
      </trkpt>
      <trkpt lat="42.77526" lon="1.84392">
        <ele>1501</ele>
        <time>2015-07-06T08:05:40Z</time>
      </trkpt>
      <trkpt lat="42.77533" lon="1.84392">
        <ele>1500</ele>
        <time>2015-07-06T08:05:46Z</time>
      </trkpt>
      <trkpt lat="42.77539" lon="1.84393">
        <ele>1499</ele>
        <time>2015-07-06T08:05:52Z</time>
      </trkpt>
      <trkpt lat="42.77545" lon="1.84396">
        <ele>1498</ele>
        <time>2015-07-06T08:05:58Z</time>
      </trkpt>
      <trkpt lat="42.77551" lon="1.84394">
        <ele>1497</ele>
        <time>2015-07-06T08:06:04Z</time>
      </trkpt>
      <trkpt lat="42.77556" lon="1.84395">
        <ele>1496</ele>
        <time>2015-07-06T08:06:10Z</time>
      </trkpt>
      <trkpt lat="42.77562" lon="1.84397">
        <ele>1495</ele>
        <time>2015-07-06T08:06:16Z</time>
      </trkpt>
      <trkpt lat="42.77565" lon="1.84402">
        <ele>1494</ele>
        <time>2015-07-06T08:06:22Z</time>
      </trkpt>
      <trkpt lat="42.7757" lon="1.84403">
        <ele>1493</ele>
        <time>2015-07-06T08:06:28Z</time>
      </trkpt>
      <trkpt lat="42.77575" lon="1.84405">
        <ele>1493</ele>
        <time>2015-07-06T08:06:34Z</time>
      </trkpt>
      <trkpt lat="42.77579" lon="1.84407">
        <ele>1493</ele>
        <time>2015-07-06T08:06:40Z</time>
      </trkpt>
      <trkpt lat="42.77585" lon="1.84409">
        <ele>1492</ele>
        <time>2015-07-06T08:06:46Z</time>
      </trkpt>
      <trkpt lat="42.77589" lon="1.84411">
        <ele>1492</ele>
        <time>2015-07-06T08:06:52Z</time>
      </trkpt>
      <trkpt lat="42.77594" lon="1.84411">
        <ele>1492</ele>
        <time>2015-07-06T08:06:58Z</time>
      </trkpt>
      <trkpt lat="42.77599" lon="1.84413">
        <ele>1491</ele>
        <time>2015-07-06T08:07:04Z</time>
      </trkpt>
      <trkpt lat="42.77604" lon="1.84412">
        <ele>1491</ele>
        <time>2015-07-06T08:07:10Z</time>
      </trkpt>
      <trkpt lat="42.77609" lon="1.84414">
        <ele>1491</ele>
        <time>2015-07-06T08:07:16Z</time>
      </trkpt>
      <trkpt lat="42.77613" lon="1.84418">
        <ele>1492</ele>
        <time>2015-07-06T08:07:22Z</time>
      </trkpt>
      <trkpt lat="42.77617" lon="1.84423">
        <ele>1493</ele>
        <time>2015-07-06T08:07:28Z</time>
      </trkpt>
      <trkpt lat="42.77622" lon="1.84424">
        <ele>1493</ele>
        <time>2015-07-06T08:07:34Z</time>
      </trkpt>
      <trkpt lat="42.77626" lon="1.84426">
        <ele>1493</ele>
        <time>2015-07-06T08:07:40Z</time>
      </trkpt>
      <trkpt lat="42.77632" lon="1.84426">
        <ele>1494</ele>
        <time>2015-07-06T08:07:46Z</time>
      </trkpt>
      <trkpt lat="42.77638" lon="1.84428">
        <ele>1494</ele>
        <time>2015-07-06T08:07:52Z</time>
      </trkpt>
      <trkpt lat="42.77643" lon="1.84429">
        <ele>1495</ele>
        <time>2015-07-06T08:07:58Z</time>
      </trkpt>
      <trkpt lat="42.77647" lon="1.84431">
        <ele>1495</ele>
        <time>2015-07-06T08:08:04Z</time>
      </trkpt>
      <trkpt lat="42.77656" lon="1.84434">
        <ele>1496</ele>
        <time>2015-07-06T08:08:16Z</time>
      </trkpt>
      <trkpt lat="42.77662" lon="1.84438">
        <ele>1498</ele>
        <time>2015-07-06T08:08:28Z</time>
      </trkpt>
      <trkpt lat="42.7767" lon="1.84442">
        <ele>1499</ele>
        <time>2015-07-06T08:08:40Z</time>
      </trkpt>
      <trkpt lat="42.77674" lon="1.84445">
        <ele>1501</ele>
        <time>2015-07-06T08:08:46Z</time>
      </trkpt>
      <trkpt lat="42.77679" lon="1.84447">
        <ele>1501</ele>
        <time>2015-07-06T08:08:52Z</time>
      </trkpt>
      <trkpt lat="42.77681" lon="1.84451">
        <ele>1503</ele>
        <time>2015-07-06T08:09:03Z</time>
      </trkpt>
      <trkpt lat="42.77682" lon="1.84456">
        <ele>1504</ele>
        <time>2015-07-06T08:09:09Z</time>
      </trkpt>
      <trkpt lat="42.77682" lon="1.84457">
        <ele>1504</ele>
        <time>2015-07-06T08:09:31Z</time>
      </trkpt>
      <trkpt lat="42.77682" lon="1.84457">
        <ele>1504</ele>
        <time>2015-07-06T08:09:55Z</time>
      </trkpt>
      <trkpt lat="42.77682" lon="1.84457">
        <ele>1504</ele>
        <time>2015-07-06T08:10:18Z</time>
      </trkpt>
      <trkpt lat="42.77688" lon="1.84455">
        <ele>1505</ele>
        <time>2015-07-06T08:10:30Z</time>
      </trkpt>
      <trkpt lat="42.77692" lon="1.84453">
        <ele>1505</ele>
        <time>2015-07-06T08:10:35Z</time>
      </trkpt>
      <trkpt lat="42.77708" lon="1.84448">
        <ele>1504</ele>
        <time>2015-07-06T08:11:03Z</time>
      </trkpt>
      <trkpt lat="42.77713" lon="1.84448">
        <ele>1503</ele>
        <time>2015-07-06T08:11:09Z</time>
      </trkpt>
      <trkpt lat="42.7772" lon="1.84448">
        <ele>1503</ele>
        <time>2015-07-06T08:11:15Z</time>
      </trkpt>
      <trkpt lat="42.77726" lon="1.84448">
        <ele>1503</ele>
        <time>2015-07-06T08:11:20Z</time>
      </trkpt>
      <trkpt lat="42.77733" lon="1.84448">
        <ele>1502</ele>
        <time>2015-07-06T08:11:26Z</time>
      </trkpt>
      <trkpt lat="42.77738" lon="1.8445">
        <ele>1501</ele>
        <time>2015-07-06T08:11:32Z</time>
      </trkpt>
      <trkpt lat="42.77742" lon="1.84454">
        <ele>1501</ele>
        <time>2015-07-06T08:11:38Z</time>
      </trkpt>
      <trkpt lat="42.77749" lon="1.84453">
        <ele>1500</ele>
        <time>2015-07-06T08:11:44Z</time>
      </trkpt>
      <trkpt lat="42.77753" lon="1.84455">
        <ele>1500</ele>
        <time>2015-07-06T08:11:50Z</time>
      </trkpt>
      <trkpt lat="42.77758" lon="1.84457">
        <ele>1499</ele>
        <time>2015-07-06T08:11:55Z</time>
      </trkpt>
      <trkpt lat="42.77763" lon="1.84458">
        <ele>1499</ele>
        <time>2015-07-06T08:12:00Z</time>
      </trkpt>
      <trkpt lat="42.77771" lon="1.84462">
        <ele>1499</ele>
        <time>2015-07-06T08:12:12Z</time>
      </trkpt>
      <trkpt lat="42.77779" lon="1.84464">
        <ele>1498</ele>
        <time>2015-07-06T08:12:24Z</time>
      </trkpt>
      <trkpt lat="42.77784" lon="1.84465">
        <ele>1498</ele>
        <time>2015-07-06T08:12:30Z</time>
      </trkpt>
      <trkpt lat="42.7779" lon="1.84466">
        <ele>1498</ele>
        <time>2015-07-06T08:12:36Z</time>
      </trkpt>
      <trkpt lat="42.77797" lon="1.84473">
        <ele>1500</ele>
        <time>2015-07-06T08:12:48Z</time>
      </trkpt>
      <trkpt lat="42.77803" lon="1.84473">
        <ele>1500</ele>
        <time>2015-07-06T08:12:54Z</time>
      </trkpt>
      <trkpt lat="42.77809" lon="1.84471">
        <ele>1500</ele>
        <time>2015-07-06T08:13:00Z</time>
      </trkpt>
      <trkpt lat="42.77814" lon="1.8447">
        <ele>1500</ele>
        <time>2015-07-06T08:13:06Z</time>
      </trkpt>
      <trkpt lat="42.77819" lon="1.84468">
        <ele>1500</ele>
        <time>2015-07-06T08:13:11Z</time>
      </trkpt>
      <trkpt lat="42.77828" lon="1.84466">
        <ele>1501</ele>
        <time>2015-07-06T08:13:22Z</time>
      </trkpt>
      <trkpt lat="42.77834" lon="1.84467">
        <ele>1501</ele>
        <time>2015-07-06T08:13:28Z</time>
      </trkpt>
      <trkpt lat="42.7784" lon="1.84466">
        <ele>1501</ele>
        <time>2015-07-06T08:13:34Z</time>
      </trkpt>
      <trkpt lat="42.77845" lon="1.84465">
        <ele>1502</ele>
        <time>2015-07-06T08:13:40Z</time>
      </trkpt>
      <trkpt lat="42.7785" lon="1.84463">
        <ele>1503</ele>
        <time>2015-07-06T08:13:46Z</time>
      </trkpt>
      <trkpt lat="42.77855" lon="1.8446">
        <ele>1503</ele>
        <time>2015-07-06T08:13:52Z</time>
      </trkpt>
      <trkpt lat="42.77863" lon="1.84457">
        <ele>1505</ele>
        <time>2015-07-06T08:14:04Z</time>
      </trkpt>
      <trkpt lat="42.77869" lon="1.84456">
        <ele>1505</ele>
        <time>2015-07-06T08:14:10Z</time>
      </trkpt>
      <trkpt lat="42.77874" lon="1.84452">
        <ele>1506</ele>
        <time>2015-07-06T08:14:16Z</time>
      </trkpt>
      <trkpt lat="42.77878" lon="1.84451">
        <ele>1507</ele>
        <time>2015-07-06T08:14:22Z</time>
      </trkpt>
      <trkpt lat="42.77885" lon="1.84446">
        <ele>1509</ele>
        <time>2015-07-06T08:14:34Z</time>
      </trkpt>
      <trkpt lat="42.7789" lon="1.84444">
        <ele>1509</ele>
        <time>2015-07-06T08:14:40Z</time>
      </trkpt>
      <trkpt lat="42.779" lon="1.84442">
        <ele>1511</ele>
        <time>2015-07-06T08:14:52Z</time>
      </trkpt>
      <trkpt lat="42.77905" lon="1.8444">
        <ele>1511</ele>
        <time>2015-07-06T08:14:58Z</time>
      </trkpt>
      <trkpt lat="42.77914" lon="1.84438">
        <ele>1513</ele>
        <time>2015-07-06T08:15:10Z</time>
      </trkpt>
      <trkpt lat="42.77919" lon="1.84437">
        <ele>1513</ele>
        <time>2015-07-06T08:15:16Z</time>
      </trkpt>
      <trkpt lat="42.77924" lon="1.84437">
        <ele>1514</ele>
        <time>2015-07-06T08:15:22Z</time>
      </trkpt>
      <trkpt lat="42.77929" lon="1.84437">
        <ele>1515</ele>
        <time>2015-07-06T08:15:28Z</time>
      </trkpt>
      <trkpt lat="42.77937" lon="1.84436">
        <ele>1516</ele>
        <time>2015-07-06T08:15:39Z</time>
      </trkpt>
      <trkpt lat="42.77946" lon="1.84436">
        <ele>1517</ele>
        <time>2015-07-06T08:15:50Z</time>
      </trkpt>
      <trkpt lat="42.77955" lon="1.84435">
        <ele>1520</ele>
        <time>2015-07-06T08:16:02Z</time>
      </trkpt>
      <trkpt lat="42.77962" lon="1.84434">
        <ele>1522</ele>
        <time>2015-07-06T08:16:14Z</time>
      </trkpt>
      <trkpt lat="42.7797" lon="1.84436">
        <ele>1524</ele>
        <time>2015-07-06T08:16:25Z</time>
      </trkpt>
      <trkpt lat="42.77979" lon="1.84436">
        <ele>1525</ele>
        <time>2015-07-06T08:16:36Z</time>
      </trkpt>
      <trkpt lat="42.77987" lon="1.84435">
        <ele>1526</ele>
        <time>2015-07-06T08:16:48Z</time>
      </trkpt>
      <trkpt lat="42.77995" lon="1.84438">
        <ele>1527</ele>
        <time>2015-07-06T08:16:59Z</time>
      </trkpt>
      <trkpt lat="42.78003" lon="1.84438">
        <ele>1529</ele>
        <time>2015-07-06T08:17:10Z</time>
      </trkpt>
      <trkpt lat="42.78011" lon="1.84439">
        <ele>1530</ele>
        <time>2015-07-06T08:17:22Z</time>
      </trkpt>
      <trkpt lat="42.78017" lon="1.84444">
        <ele>1531</ele>
        <time>2015-07-06T08:17:34Z</time>
      </trkpt>
      <trkpt lat="42.78019" lon="1.84455">
        <ele>1533</ele>
        <time>2015-07-06T08:17:46Z</time>
      </trkpt>
      <trkpt lat="42.78022" lon="1.84464">
        <ele>1535</ele>
        <time>2015-07-06T08:17:57Z</time>
      </trkpt>
      <trkpt lat="42.78029" lon="1.84469">
        <ele>1536</ele>
        <time>2015-07-06T08:18:08Z</time>
      </trkpt>
      <trkpt lat="42.78037" lon="1.84475">
        <ele>1537</ele>
        <time>2015-07-06T08:18:20Z</time>
      </trkpt>
      <trkpt lat="42.78041" lon="1.84483">
        <ele>1539</ele>
        <time>2015-07-06T08:18:32Z</time>
      </trkpt>
      <trkpt lat="42.78042" lon="1.84483">
        <ele>1540</ele>
        <time>2015-07-06T08:19:02Z</time>
      </trkpt>
      <trkpt lat="42.78042" lon="1.84483">
        <ele>1540</ele>
        <time>2015-07-06T08:19:26Z</time>
      </trkpt>
      <trkpt lat="42.78042" lon="1.84483">
        <ele>1540</ele>
        <time>2015-07-06T08:19:44Z</time>
      </trkpt>
      <trkpt lat="42.78051" lon="1.84489">
        <ele>1541</ele>
        <time>2015-07-06T08:29:28Z</time>
      </trkpt>
      <trkpt lat="42.78056" lon="1.84492">
        <ele>1541</ele>
        <time>2015-07-06T08:29:40Z</time>
      </trkpt>
      <trkpt lat="42.78064" lon="1.84493">
        <ele>1541</ele>
        <time>2015-07-06T08:29:52Z</time>
      </trkpt>
      <trkpt lat="42.78073" lon="1.84494">
        <ele>1543</ele>
        <time>2015-07-06T08:30:04Z</time>
      </trkpt>
      <trkpt lat="42.78079" lon="1.84491">
        <ele>1544</ele>
        <time>2015-07-06T08:30:14Z</time>
      </trkpt>
      <trkpt lat="42.78088" lon="1.84488">
        <ele>1545</ele>
        <time>2015-07-06T08:30:26Z</time>
      </trkpt>
      <trkpt lat="42.78093" lon="1.84486">
        <ele>1547</ele>
        <time>2015-07-06T08:30:37Z</time>
      </trkpt>
      <trkpt lat="42.78098" lon="1.84484">
        <ele>1548</ele>
        <time>2015-07-06T08:30:48Z</time>
      </trkpt>
      <trkpt lat="42.78104" lon="1.8448">
        <ele>1549</ele>
        <time>2015-07-06T08:30:59Z</time>
      </trkpt>
      <trkpt lat="42.78109" lon="1.84477">
        <ele>1551</ele>
        <time>2015-07-06T08:31:10Z</time>
      </trkpt>
      <trkpt lat="42.78116" lon="1.84474">
        <ele>1552</ele>
        <time>2015-07-06T08:31:22Z</time>
      </trkpt>
      <trkpt lat="42.78123" lon="1.84475">
        <ele>1554</ele>
        <time>2015-07-06T08:31:34Z</time>
      </trkpt>
      <trkpt lat="42.78128" lon="1.84477">
        <ele>1556</ele>
        <time>2015-07-06T08:31:44Z</time>
      </trkpt>
      <trkpt lat="42.78135" lon="1.84478">
        <ele>1557</ele>
        <time>2015-07-06T08:31:56Z</time>
      </trkpt>
      <trkpt lat="42.78141" lon="1.84478">
        <ele>1559</ele>
        <time>2015-07-06T08:32:08Z</time>
      </trkpt>
      <trkpt lat="42.78146" lon="1.8448">
        <ele>1561</ele>
        <time>2015-07-06T08:32:19Z</time>
      </trkpt>
      <trkpt lat="42.7815" lon="1.84478">
        <ele>1563</ele>
        <time>2015-07-06T08:32:31Z</time>
      </trkpt>
      <trkpt lat="42.78156" lon="1.84475">
        <ele>1564</ele>
        <time>2015-07-06T08:32:43Z</time>
      </trkpt>
      <trkpt lat="42.78159" lon="1.84482">
        <ele>1568</ele>
        <time>2015-07-06T08:33:01Z</time>
      </trkpt>
      <trkpt lat="42.78159" lon="1.84482">
        <ele>1568</ele>
        <time>2015-07-06T08:33:12Z</time>
      </trkpt>
      <trkpt lat="42.78164" lon="1.84484">
        <ele>1569</ele>
        <time>2015-07-06T08:33:18Z</time>
      </trkpt>
      <trkpt lat="42.78169" lon="1.8448">
        <ele>1570</ele>
        <time>2015-07-06T08:33:29Z</time>
      </trkpt>
      <trkpt lat="42.78173" lon="1.84475">
        <ele>1571</ele>
        <time>2015-07-06T08:33:40Z</time>
      </trkpt>
      <trkpt lat="42.78178" lon="1.84472">
        <ele>1571</ele>
        <time>2015-07-06T08:33:52Z</time>
      </trkpt>
      <trkpt lat="42.78183" lon="1.84469">
        <ele>1572</ele>
        <time>2015-07-06T08:34:04Z</time>
      </trkpt>
      <trkpt lat="42.78187" lon="1.84476">
        <ele>1574</ele>
        <time>2015-07-06T08:34:16Z</time>
      </trkpt>
      <trkpt lat="42.78192" lon="1.84476">
        <ele>1575</ele>
        <time>2015-07-06T08:34:28Z</time>
      </trkpt>
      <trkpt lat="42.78197" lon="1.84477">
        <ele>1577</ele>
        <time>2015-07-06T08:34:40Z</time>
      </trkpt>
      <trkpt lat="42.78204" lon="1.84477">
        <ele>1578</ele>
        <time>2015-07-06T08:34:52Z</time>
      </trkpt>
      <trkpt lat="42.78208" lon="1.84484">
        <ele>1580</ele>
        <time>2015-07-06T08:35:05Z</time>
      </trkpt>
      <trkpt lat="42.78214" lon="1.84484">
        <ele>1582</ele>
        <time>2015-07-06T08:35:16Z</time>
      </trkpt>
      <trkpt lat="42.78221" lon="1.84486">
        <ele>1584</ele>
        <time>2015-07-06T08:35:34Z</time>
      </trkpt>
      <trkpt lat="42.7823" lon="1.84486">
        <ele>1585</ele>
        <time>2015-07-06T08:35:46Z</time>
      </trkpt>
      <trkpt lat="42.78235" lon="1.84486">
        <ele>1587</ele>
        <time>2015-07-06T08:35:58Z</time>
      </trkpt>
      <trkpt lat="42.78241" lon="1.84489">
        <ele>1588</ele>
        <time>2015-07-06T08:36:10Z</time>
      </trkpt>
      <trkpt lat="42.78247" lon="1.84493">
        <ele>1590</ele>
        <time>2015-07-06T08:36:34Z</time>
      </trkpt>
      <trkpt lat="42.78251" lon="1.84492">
        <ele>1590</ele>
        <time>2015-07-06T08:36:40Z</time>
      </trkpt>
      <trkpt lat="42.7826" lon="1.84491">
        <ele>1591</ele>
        <time>2015-07-06T08:36:52Z</time>
      </trkpt>
      <trkpt lat="42.78266" lon="1.84495">
        <ele>1593</ele>
        <time>2015-07-06T08:37:04Z</time>
      </trkpt>
      <trkpt lat="42.7827" lon="1.84502">
        <ele>1596</ele>
        <time>2015-07-06T08:37:16Z</time>
      </trkpt>
      <trkpt lat="42.78276" lon="1.84505">
        <ele>1598</ele>
        <time>2015-07-06T08:37:28Z</time>
      </trkpt>
      <trkpt lat="42.78281" lon="1.84506">
        <ele>1600</ele>
        <time>2015-07-06T08:37:39Z</time>
      </trkpt>
      <trkpt lat="42.78288" lon="1.84506">
        <ele>1601</ele>
        <time>2015-07-06T08:37:50Z</time>
      </trkpt>
      <trkpt lat="42.78294" lon="1.84506">
        <ele>1604</ele>
        <time>2015-07-06T08:38:02Z</time>
      </trkpt>
      <trkpt lat="42.783" lon="1.84506">
        <ele>1606</ele>
        <time>2015-07-06T08:38:14Z</time>
      </trkpt>
      <trkpt lat="42.78306" lon="1.84506">
        <ele>1609</ele>
        <time>2015-07-06T08:38:26Z</time>
      </trkpt>
      <trkpt lat="42.78311" lon="1.84507">
        <ele>1611</ele>
        <time>2015-07-06T08:38:38Z</time>
      </trkpt>
      <trkpt lat="42.78317" lon="1.84509">
        <ele>1614</ele>
        <time>2015-07-06T08:38:49Z</time>
      </trkpt>
      <trkpt lat="42.78322" lon="1.84513">
        <ele>1617</ele>
        <time>2015-07-06T08:39:01Z</time>
      </trkpt>
      <trkpt lat="42.7833" lon="1.84512">
        <ele>1618</ele>
        <time>2015-07-06T08:39:13Z</time>
      </trkpt>
      <trkpt lat="42.78335" lon="1.84511">
        <ele>1620</ele>
        <time>2015-07-06T08:39:24Z</time>
      </trkpt>
      <trkpt lat="42.78343" lon="1.84507">
        <ele>1622</ele>
        <time>2015-07-06T08:39:42Z</time>
      </trkpt>
      <trkpt lat="42.78348" lon="1.84507">
        <ele>1624</ele>
        <time>2015-07-06T08:39:54Z</time>
      </trkpt>
      <trkpt lat="42.78352" lon="1.84504">
        <ele>1626</ele>
        <time>2015-07-06T08:40:05Z</time>
      </trkpt>
      <trkpt lat="42.78358" lon="1.84504">
        <ele>1628</ele>
        <time>2015-07-06T08:40:16Z</time>
      </trkpt>
      <trkpt lat="42.78362" lon="1.84504">
        <ele>1630</ele>
        <time>2015-07-06T08:40:28Z</time>
      </trkpt>
      <trkpt lat="42.78366" lon="1.84506">
        <ele>1631</ele>
        <time>2015-07-06T08:40:40Z</time>
      </trkpt>
      <trkpt lat="42.7837" lon="1.84506">
        <ele>1632</ele>
        <time>2015-07-06T08:40:52Z</time>
      </trkpt>
      <trkpt lat="42.78374" lon="1.84505">
        <ele>1633</ele>
        <time>2015-07-06T08:41:04Z</time>
      </trkpt>
      <trkpt lat="42.78376" lon="1.84507">
        <ele>1634</ele>
        <time>2015-07-06T08:41:16Z</time>
      </trkpt>
      <trkpt lat="42.7838" lon="1.84508">
        <ele>1635</ele>
        <time>2015-07-06T08:41:28Z</time>
      </trkpt>
      <trkpt lat="42.78386" lon="1.84509">
        <ele>1636</ele>
        <time>2015-07-06T08:41:40Z</time>
      </trkpt>
      <trkpt lat="42.78391" lon="1.84506">
        <ele>1637</ele>
        <time>2015-07-06T08:41:52Z</time>
      </trkpt>
      <trkpt lat="42.78397" lon="1.84506">
        <ele>1638</ele>
        <time>2015-07-06T08:42:04Z</time>
      </trkpt>
      <trkpt lat="42.78399" lon="1.84504">
        <ele>1639</ele>
        <time>2015-07-06T08:42:15Z</time>
      </trkpt>
      <trkpt lat="42.78399" lon="1.84504">
        <ele>1639</ele>
        <time>2015-07-06T08:42:38Z</time>
      </trkpt>
      <trkpt lat="42.78403" lon="1.84506">
        <ele>1642</ele>
        <time>2015-07-06T08:42:43Z</time>
      </trkpt>
      <trkpt lat="42.78407" lon="1.84507">
        <ele>1643</ele>
        <time>2015-07-06T08:42:55Z</time>
      </trkpt>
      <trkpt lat="42.78413" lon="1.84504">
        <ele>1643</ele>
        <time>2015-07-06T08:43:06Z</time>
      </trkpt>
      <trkpt lat="42.7842" lon="1.845">
        <ele>1644</ele>
        <time>2015-07-06T08:43:18Z</time>
      </trkpt>
      <trkpt lat="42.78425" lon="1.84497">
        <ele>1644</ele>
        <time>2015-07-06T08:43:30Z</time>
      </trkpt>
      <trkpt lat="42.7843" lon="1.84491">
        <ele>1644</ele>
        <time>2015-07-06T08:43:46Z</time>
      </trkpt>
      <trkpt lat="42.78434" lon="1.84486">
        <ele>1644</ele>
        <time>2015-07-06T08:43:58Z</time>
      </trkpt>
      <trkpt lat="42.78441" lon="1.8448">
        <ele>1644</ele>
        <time>2015-07-06T08:44:10Z</time>
      </trkpt>
      <trkpt lat="42.78446" lon="1.84476">
        <ele>1644</ele>
        <time>2015-07-06T08:44:15Z</time>
      </trkpt>
      <trkpt lat="42.78451" lon="1.84475">
        <ele>1645</ele>
        <time>2015-07-06T08:44:20Z</time>
      </trkpt>
      <trkpt lat="42.78455" lon="1.84472">
        <ele>1645</ele>
        <time>2015-07-06T08:44:26Z</time>
      </trkpt>
      <trkpt lat="42.78462" lon="1.8447">
        <ele>1645</ele>
        <time>2015-07-06T08:44:32Z</time>
      </trkpt>
      <trkpt lat="42.78469" lon="1.84475">
        <ele>1648</ele>
        <time>2015-07-06T08:44:44Z</time>
      </trkpt>
      <trkpt lat="42.78471" lon="1.84476">
        <ele>1650</ele>
        <time>2015-07-06T08:44:56Z</time>
      </trkpt>
      <trkpt lat="42.78466" lon="1.84487">
        <ele>1657</ele>
        <time>2015-07-06T08:45:14Z</time>
      </trkpt>
      <trkpt lat="42.78474" lon="1.84481">
        <ele>1659</ele>
        <time>2015-07-06T08:45:38Z</time>
      </trkpt>
      <trkpt lat="42.78474" lon="1.84481">
        <ele>1659</ele>
        <time>2015-07-06T08:46:07Z</time>
      </trkpt>
      <trkpt lat="42.78474" lon="1.84481">
        <ele>1659</ele>
        <time>2015-07-06T08:46:30Z</time>
      </trkpt>
      <trkpt lat="42.78496" lon="1.84475">
        <ele>1664</ele>
        <time>2015-07-06T09:01:46Z</time>
      </trkpt>
      <trkpt lat="42.78504" lon="1.84473">
        <ele>1664</ele>
        <time>2015-07-06T09:01:57Z</time>
      </trkpt>
      <trkpt lat="42.7851" lon="1.84472">
        <ele>1664</ele>
        <time>2015-07-06T09:02:04Z</time>
      </trkpt>
      <trkpt lat="42.78516" lon="1.84471">
        <ele>1664</ele>
        <time>2015-07-06T09:02:10Z</time>
      </trkpt>
      <trkpt lat="42.78522" lon="1.8447">
        <ele>1664</ele>
        <time>2015-07-06T09:02:16Z</time>
      </trkpt>
      <trkpt lat="42.78526" lon="1.84467">
        <ele>1664</ele>
        <time>2015-07-06T09:02:21Z</time>
      </trkpt>
      <trkpt lat="42.78533" lon="1.84463">
        <ele>1665</ele>
        <time>2015-07-06T09:02:33Z</time>
      </trkpt>
      <trkpt lat="42.78537" lon="1.84458">
        <ele>1665</ele>
        <time>2015-07-06T09:02:39Z</time>
      </trkpt>
      <trkpt lat="42.7854" lon="1.84453">
        <ele>1665</ele>
        <time>2015-07-06T09:02:45Z</time>
      </trkpt>
      <trkpt lat="42.78543" lon="1.84444">
        <ele>1666</ele>
        <time>2015-07-06T09:02:57Z</time>
      </trkpt>
      <trkpt lat="42.78549" lon="1.84443">
        <ele>1666</ele>
        <time>2015-07-06T09:03:08Z</time>
      </trkpt>
      <trkpt lat="42.78555" lon="1.84438">
        <ele>1666</ele>
        <time>2015-07-06T09:03:20Z</time>
      </trkpt>
      <trkpt lat="42.78558" lon="1.84432">
        <ele>1666</ele>
        <time>2015-07-06T09:03:27Z</time>
      </trkpt>
      <trkpt lat="42.7856" lon="1.84426">
        <ele>1667</ele>
        <time>2015-07-06T09:03:33Z</time>
      </trkpt>
      <trkpt lat="42.78562" lon="1.84423">
        <ele>1667</ele>
        <time>2015-07-06T09:03:44Z</time>
      </trkpt>
      <trkpt lat="42.78562" lon="1.84423">
        <ele>1667</ele>
        <time>2015-07-06T09:04:08Z</time>
      </trkpt>
      <trkpt lat="42.78562" lon="1.84423">
        <ele>1667</ele>
        <time>2015-07-06T09:04:32Z</time>
      </trkpt>
      <trkpt lat="42.78566" lon="1.84422">
        <ele>1667</ele>
        <time>2015-07-06T09:04:38Z</time>
      </trkpt>
      <trkpt lat="42.78566" lon="1.84422">
        <ele>1667</ele>
        <time>2015-07-06T09:04:56Z</time>
      </trkpt>
      <trkpt lat="42.78566" lon="1.84422">
        <ele>1667</ele>
        <time>2015-07-06T09:05:19Z</time>
      </trkpt>
      <trkpt lat="42.78569" lon="1.84394">
        <ele>1669</ele>
        <time>2015-07-06T09:15:02Z</time>
      </trkpt>
      <trkpt lat="42.78573" lon="1.84386">
        <ele>1668</ele>
        <time>2015-07-06T09:15:08Z</time>
      </trkpt>
      <trkpt lat="42.78577" lon="1.84379">
        <ele>1668</ele>
        <time>2015-07-06T09:15:14Z</time>
      </trkpt>
      <trkpt lat="42.78577" lon="1.84372">
        <ele>1668</ele>
        <time>2015-07-06T09:15:19Z</time>
      </trkpt>
      <trkpt lat="42.78579" lon="1.84363">
        <ele>1668</ele>
        <time>2015-07-06T09:15:30Z</time>
      </trkpt>
      <trkpt lat="42.78581" lon="1.84354">
        <ele>1669</ele>
        <time>2015-07-06T09:15:40Z</time>
      </trkpt>
      <trkpt lat="42.78586" lon="1.84348">
        <ele>1668</ele>
        <time>2015-07-06T09:15:52Z</time>
      </trkpt>
      <trkpt lat="42.78588" lon="1.84342">
        <ele>1669</ele>
        <time>2015-07-06T09:15:58Z</time>
      </trkpt>
      <trkpt lat="42.78592" lon="1.84331">
        <ele>1669</ele>
        <time>2015-07-06T09:16:10Z</time>
      </trkpt>
      <trkpt lat="42.78596" lon="1.84321">
        <ele>1669</ele>
        <time>2015-07-06T09:16:20Z</time>
      </trkpt>
      <trkpt lat="42.78602" lon="1.8431">
        <ele>1670</ele>
        <time>2015-07-06T09:16:31Z</time>
      </trkpt>
      <trkpt lat="42.78608" lon="1.843">
        <ele>1670</ele>
        <time>2015-07-06T09:16:42Z</time>
      </trkpt>
      <trkpt lat="42.78612" lon="1.84295">
        <ele>1670</ele>
        <time>2015-07-06T09:16:48Z</time>
      </trkpt>
      <trkpt lat="42.78614" lon="1.84289">
        <ele>1670</ele>
        <time>2015-07-06T09:16:54Z</time>
      </trkpt>
      <trkpt lat="42.78618" lon="1.84284">
        <ele>1670</ele>
        <time>2015-07-06T09:17:00Z</time>
      </trkpt>
      <trkpt lat="42.78624" lon="1.84276">
        <ele>1670</ele>
        <time>2015-07-06T09:17:11Z</time>
      </trkpt>
      <trkpt lat="42.78626" lon="1.84266">
        <ele>1671</ele>
        <time>2015-07-06T09:17:22Z</time>
      </trkpt>
      <trkpt lat="42.78625" lon="1.84256">
        <ele>1671</ele>
        <time>2015-07-06T09:17:33Z</time>
      </trkpt>
      <trkpt lat="42.78627" lon="1.84249">
        <ele>1671</ele>
        <time>2015-07-06T09:17:39Z</time>
      </trkpt>
      <trkpt lat="42.7863" lon="1.84243">
        <ele>1672</ele>
        <time>2015-07-06T09:17:45Z</time>
      </trkpt>
      <trkpt lat="42.78632" lon="1.84238">
        <ele>1672</ele>
        <time>2015-07-06T09:17:51Z</time>
      </trkpt>
      <trkpt lat="42.78635" lon="1.84232">
        <ele>1673</ele>
        <time>2015-07-06T09:17:57Z</time>
      </trkpt>
      <trkpt lat="42.78639" lon="1.84228">
        <ele>1673</ele>
        <time>2015-07-06T09:18:02Z</time>
      </trkpt>
      <trkpt lat="42.78642" lon="1.84222">
        <ele>1673</ele>
        <time>2015-07-06T09:18:09Z</time>
      </trkpt>
      <trkpt lat="42.78645" lon="1.84216">
        <ele>1674</ele>
        <time>2015-07-06T09:18:16Z</time>
      </trkpt>
      <trkpt lat="42.78649" lon="1.84211">
        <ele>1674</ele>
        <time>2015-07-06T09:18:22Z</time>
      </trkpt>
      <trkpt lat="42.78655" lon="1.84201">
        <ele>1675</ele>
        <time>2015-07-06T09:18:33Z</time>
      </trkpt>
      <trkpt lat="42.78659" lon="1.84198">
        <ele>1675</ele>
        <time>2015-07-06T09:18:39Z</time>
      </trkpt>
      <trkpt lat="42.78665" lon="1.84194">
        <ele>1676</ele>
        <time>2015-07-06T09:18:50Z</time>
      </trkpt>
      <trkpt lat="42.7867" lon="1.84193">
        <ele>1676</ele>
        <time>2015-07-06T09:18:56Z</time>
      </trkpt>
      <trkpt lat="42.78676" lon="1.8419">
        <ele>1677</ele>
        <time>2015-07-06T09:19:07Z</time>
      </trkpt>
      <trkpt lat="42.78683" lon="1.84183">
        <ele>1677</ele>
        <time>2015-07-06T09:19:19Z</time>
      </trkpt>
      <trkpt lat="42.78693" lon="1.84176">
        <ele>1678</ele>
        <time>2015-07-06T09:19:31Z</time>
      </trkpt>
      <trkpt lat="42.78698" lon="1.84173">
        <ele>1678</ele>
        <time>2015-07-06T09:19:42Z</time>
      </trkpt>
      <trkpt lat="42.78698" lon="1.84173">
        <ele>1678</ele>
        <time>2015-07-06T09:20:10Z</time>
      </trkpt>
      <trkpt lat="42.78698" lon="1.84173">
        <ele>1678</ele>
        <time>2015-07-06T09:20:32Z</time>
      </trkpt>
      <trkpt lat="42.78703" lon="1.84171">
        <ele>1676</ele>
        <time>2015-07-06T09:20:43Z</time>
      </trkpt>
      <trkpt lat="42.78708" lon="1.84171">
        <ele>1676</ele>
        <time>2015-07-06T09:20:49Z</time>
      </trkpt>
      <trkpt lat="42.78713" lon="1.84172">
        <ele>1676</ele>
        <time>2015-07-06T09:20:55Z</time>
      </trkpt>
      <trkpt lat="42.78717" lon="1.84175">
        <ele>1677</ele>
        <time>2015-07-06T09:21:01Z</time>
      </trkpt>
      <trkpt lat="42.78722" lon="1.84176">
        <ele>1677</ele>
        <time>2015-07-06T09:21:07Z</time>
      </trkpt>
      <trkpt lat="42.78726" lon="1.84178">
        <ele>1677</ele>
        <time>2015-07-06T09:21:13Z</time>
      </trkpt>
      <trkpt lat="42.7873" lon="1.84182">
        <ele>1678</ele>
        <time>2015-07-06T09:21:19Z</time>
      </trkpt>
      <trkpt lat="42.78737" lon="1.84186">
        <ele>1679</ele>
        <time>2015-07-06T09:21:31Z</time>
      </trkpt>
      <trkpt lat="42.78739" lon="1.84192">
        <ele>1680</ele>
        <time>2015-07-06T09:21:42Z</time>
      </trkpt>
      <trkpt lat="42.78743" lon="1.84199">
        <ele>1682</ele>
        <time>2015-07-06T09:21:54Z</time>
      </trkpt>
      <trkpt lat="42.78746" lon="1.84206">
        <ele>1683</ele>
        <time>2015-07-06T09:22:05Z</time>
      </trkpt>
      <trkpt lat="42.78747" lon="1.84214">
        <ele>1685</ele>
        <time>2015-07-06T09:22:16Z</time>
      </trkpt>
      <trkpt lat="42.7875" lon="1.84223">
        <ele>1687</ele>
        <time>2015-07-06T09:22:34Z</time>
      </trkpt>
      <trkpt lat="42.78754" lon="1.84227">
        <ele>1688</ele>
        <time>2015-07-06T09:22:46Z</time>
      </trkpt>
      <trkpt lat="42.78759" lon="1.84231">
        <ele>1691</ele>
        <time>2015-07-06T09:22:58Z</time>
      </trkpt>
      <trkpt lat="42.78767" lon="1.84231">
        <ele>1692</ele>
        <time>2015-07-06T09:23:10Z</time>
      </trkpt>
      <trkpt lat="42.78774" lon="1.84229">
        <ele>1696</ele>
        <time>2015-07-06T09:23:28Z</time>
      </trkpt>
      <trkpt lat="42.78782" lon="1.84228">
        <ele>1698</ele>
        <time>2015-07-06T09:23:40Z</time>
      </trkpt>
      <trkpt lat="42.78788" lon="1.84229">
        <ele>1698</ele>
        <time>2015-07-06T09:23:52Z</time>
      </trkpt>
      <trkpt lat="42.78797" lon="1.84233">
        <ele>1699</ele>
        <time>2015-07-06T09:24:04Z</time>
      </trkpt>
      <trkpt lat="42.78802" lon="1.84233">
        <ele>1700</ele>
        <time>2015-07-06T09:24:10Z</time>
      </trkpt>
      <trkpt lat="42.78807" lon="1.84237">
        <ele>1701</ele>
        <time>2015-07-06T09:24:21Z</time>
      </trkpt>
      <trkpt lat="42.78814" lon="1.84245">
        <ele>1702</ele>
        <time>2015-07-06T09:24:33Z</time>
      </trkpt>
      <trkpt lat="42.78819" lon="1.84248">
        <ele>1703</ele>
        <time>2015-07-06T09:24:44Z</time>
      </trkpt>
      <trkpt lat="42.78826" lon="1.84248">
        <ele>1704</ele>
        <time>2015-07-06T09:24:56Z</time>
      </trkpt>
      <trkpt lat="42.78834" lon="1.84245">
        <ele>1707</ele>
        <time>2015-07-06T09:25:14Z</time>
      </trkpt>
      <trkpt lat="42.78842" lon="1.84245">
        <ele>1707</ele>
        <time>2015-07-06T09:25:26Z</time>
      </trkpt>
      <trkpt lat="42.7885" lon="1.84242">
        <ele>1709</ele>
        <time>2015-07-06T09:25:37Z</time>
      </trkpt>
      <trkpt lat="42.78856" lon="1.84232">
        <ele>1711</ele>
        <time>2015-07-06T09:25:49Z</time>
      </trkpt>
      <trkpt lat="42.78862" lon="1.84227">
        <ele>1712</ele>
        <time>2015-07-06T09:26:00Z</time>
      </trkpt>
      <trkpt lat="42.78867" lon="1.84227">
        <ele>1713</ele>
        <time>2015-07-06T09:26:11Z</time>
      </trkpt>
      <trkpt lat="42.78864" lon="1.84234">
        <ele>1714</ele>
        <time>2015-07-06T09:26:22Z</time>
      </trkpt>
      <trkpt lat="42.78864" lon="1.84234">
        <ele>1714</ele>
        <time>2015-07-06T09:26:37Z</time>
      </trkpt>
      <trkpt lat="42.78864" lon="1.84234">
        <ele>1714</ele>
        <time>2015-07-06T09:27:01Z</time>
      </trkpt>
      <trkpt lat="42.78864" lon="1.84234">
        <ele>1714</ele>
        <time>2015-07-06T09:27:22Z</time>
      </trkpt>
      <trkpt lat="42.78862" lon="1.84205">
        <ele>1719</ele>
        <time>2015-07-06T09:32:15Z</time>
      </trkpt>
      <trkpt lat="42.78864" lon="1.84198">
        <ele>1719</ele>
        <time>2015-07-06T09:32:21Z</time>
      </trkpt>
      <trkpt lat="42.78865" lon="1.84192">
        <ele>1720</ele>
        <time>2015-07-06T09:32:27Z</time>
      </trkpt>
      <trkpt lat="42.78867" lon="1.84178">
        <ele>1720</ele>
        <time>2015-07-06T09:32:39Z</time>
      </trkpt>
      <trkpt lat="42.78864" lon="1.84168">
        <ele>1721</ele>
        <time>2015-07-06T09:32:50Z</time>
      </trkpt>
      <trkpt lat="42.78863" lon="1.84162">
        <ele>1721</ele>
        <time>2015-07-06T09:32:56Z</time>
      </trkpt>
      <trkpt lat="42.78865" lon="1.84156">
        <ele>1721</ele>
        <time>2015-07-06T09:33:02Z</time>
      </trkpt>
      <trkpt lat="42.78868" lon="1.84144">
        <ele>1722</ele>
        <time>2015-07-06T09:33:13Z</time>
      </trkpt>
      <trkpt lat="42.7887" lon="1.84133">
        <ele>1723</ele>
        <time>2015-07-06T09:33:25Z</time>
      </trkpt>
      <trkpt lat="42.78874" lon="1.84125">
        <ele>1725</ele>
        <time>2015-07-06T09:33:37Z</time>
      </trkpt>
      <trkpt lat="42.78877" lon="1.84114">
        <ele>1726</ele>
        <time>2015-07-06T09:33:49Z</time>
      </trkpt>
      <trkpt lat="42.7888" lon="1.84103">
        <ele>1727</ele>
        <time>2015-07-06T09:34:00Z</time>
      </trkpt>
      <trkpt lat="42.78885" lon="1.84093">
        <ele>1728</ele>
        <time>2015-07-06T09:34:12Z</time>
      </trkpt>
      <trkpt lat="42.78885" lon="1.84086">
        <ele>1729</ele>
        <time>2015-07-06T09:34:18Z</time>
      </trkpt>
      <trkpt lat="42.78886" lon="1.84077">
        <ele>1730</ele>
        <time>2015-07-06T09:34:29Z</time>
      </trkpt>
      <trkpt lat="42.78888" lon="1.84068">
        <ele>1731</ele>
        <time>2015-07-06T09:34:40Z</time>
      </trkpt>
      <trkpt lat="42.78893" lon="1.84061">
        <ele>1732</ele>
        <time>2015-07-06T09:34:52Z</time>
      </trkpt>
      <trkpt lat="42.78899" lon="1.84056">
        <ele>1734</ele>
        <time>2015-07-06T09:35:04Z</time>
      </trkpt>
      <trkpt lat="42.78894" lon="1.84049">
        <ele>1735</ele>
        <time>2015-07-06T09:35:28Z</time>
      </trkpt>
      <trkpt lat="42.7889" lon="1.84045">
        <ele>1736</ele>
        <time>2015-07-06T09:35:39Z</time>
      </trkpt>
      <trkpt lat="42.78891" lon="1.84039">
        <ele>1737</ele>
        <time>2015-07-06T09:35:51Z</time>
      </trkpt>
      <trkpt lat="42.78896" lon="1.84031">
        <ele>1740</ele>
        <time>2015-07-06T09:36:08Z</time>
      </trkpt>
      <trkpt lat="42.78893" lon="1.84026">
        <ele>1742</ele>
        <time>2015-07-06T09:36:26Z</time>
      </trkpt>
      <trkpt lat="42.78893" lon="1.84018">
        <ele>1744</ele>
        <time>2015-07-06T09:36:50Z</time>
      </trkpt>
      <trkpt lat="42.78893" lon="1.84008">
        <ele>1745</ele>
        <time>2015-07-06T09:37:14Z</time>
      </trkpt>
      <trkpt lat="42.78893" lon="1.83997">
        <ele>1746</ele>
        <time>2015-07-06T09:37:26Z</time>
      </trkpt>
      <trkpt lat="42.78891" lon="1.83988">
        <ele>1747</ele>
        <time>2015-07-06T09:37:37Z</time>
      </trkpt>
      <trkpt lat="42.7889" lon="1.8398">
        <ele>1748</ele>
        <time>2015-07-06T09:37:49Z</time>
      </trkpt>
      <trkpt lat="42.7889" lon="1.83971">
        <ele>1749</ele>
        <time>2015-07-06T09:38:00Z</time>
      </trkpt>
      <trkpt lat="42.78888" lon="1.83964">
        <ele>1750</ele>
        <time>2015-07-06T09:38:11Z</time>
      </trkpt>
      <trkpt lat="42.78894" lon="1.83959">
        <ele>1752</ele>
        <time>2015-07-06T09:38:22Z</time>
      </trkpt>
      <trkpt lat="42.78901" lon="1.83958">
        <ele>1754</ele>
        <time>2015-07-06T09:38:40Z</time>
      </trkpt>
      <trkpt lat="42.78905" lon="1.83959">
        <ele>1755</ele>
        <time>2015-07-06T09:38:57Z</time>
      </trkpt>
      <trkpt lat="42.78906" lon="1.83961">
        <ele>1756</ele>
        <time>2015-07-06T09:39:03Z</time>
      </trkpt>
      <trkpt lat="42.78907" lon="1.83957">
        <ele>1758</ele>
        <time>2015-07-06T09:39:20Z</time>
      </trkpt>
      <trkpt lat="42.78908" lon="1.83953">
        <ele>1758</ele>
        <time>2015-07-06T09:39:25Z</time>
      </trkpt>
      <trkpt lat="42.78912" lon="1.83947">
        <ele>1760</ele>
        <time>2015-07-06T09:39:37Z</time>
      </trkpt>
      <trkpt lat="42.78918" lon="1.83946">
        <ele>1762</ele>
        <time>2015-07-06T09:39:53Z</time>
      </trkpt>
      <trkpt lat="42.78919" lon="1.83945">
        <ele>1762</ele>
        <time>2015-07-06T09:40:10Z</time>
      </trkpt>
      <trkpt lat="42.78917" lon="1.83941">
        <ele>1764</ele>
        <time>2015-07-06T09:40:34Z</time>
      </trkpt>
      <trkpt lat="42.78922" lon="1.83938">
        <ele>1768</ele>
        <time>2015-07-06T09:42:51Z</time>
      </trkpt>
      <trkpt lat="42.78923" lon="1.83929">
        <ele>1769</ele>
        <time>2015-07-06T09:43:02Z</time>
      </trkpt>
      <trkpt lat="42.78927" lon="1.83922">
        <ele>1770</ele>
        <time>2015-07-06T09:43:13Z</time>
      </trkpt>
      <trkpt lat="42.78931" lon="1.83917">
        <ele>1771</ele>
        <time>2015-07-06T09:43:25Z</time>
      </trkpt>
      <trkpt lat="42.78933" lon="1.83913">
        <ele>1773</ele>
        <time>2015-07-06T09:43:42Z</time>
      </trkpt>
      <trkpt lat="42.78936" lon="1.83909">
        <ele>1775</ele>
        <time>2015-07-06T09:43:53Z</time>
      </trkpt>
      <trkpt lat="42.78939" lon="1.83902">
        <ele>1776</ele>
        <time>2015-07-06T09:44:04Z</time>
      </trkpt>
      <trkpt lat="42.78939" lon="1.83901">
        <ele>1777</ele>
        <time>2015-07-06T09:44:23Z</time>
      </trkpt>
      <trkpt lat="42.78939" lon="1.83896">
        <ele>1778</ele>
        <time>2015-07-06T09:44:29Z</time>
      </trkpt>
      <trkpt lat="42.78941" lon="1.83888">
        <ele>1779</ele>
        <time>2015-07-06T09:44:40Z</time>
      </trkpt>
      <trkpt lat="42.78945" lon="1.83884">
        <ele>1781</ele>
        <time>2015-07-06T09:44:52Z</time>
      </trkpt>
      <trkpt lat="42.78944" lon="1.83877">
        <ele>1782</ele>
        <time>2015-07-06T09:45:04Z</time>
      </trkpt>
      <trkpt lat="42.78945" lon="1.8387">
        <ele>1784</ele>
        <time>2015-07-06T09:45:16Z</time>
      </trkpt>
      <trkpt lat="42.78944" lon="1.83864">
        <ele>1785</ele>
        <time>2015-07-06T09:45:28Z</time>
      </trkpt>
      <trkpt lat="42.78943" lon="1.83857">
        <ele>1787</ele>
        <time>2015-07-06T09:45:52Z</time>
      </trkpt>
      <trkpt lat="42.7894" lon="1.83848">
        <ele>1789</ele>
        <time>2015-07-06T09:46:15Z</time>
      </trkpt>
      <trkpt lat="42.78938" lon="1.83842">
        <ele>1790</ele>
        <time>2015-07-06T09:46:33Z</time>
      </trkpt>
      <trkpt lat="42.78936" lon="1.8384">
        <ele>1791</ele>
        <time>2015-07-06T09:46:45Z</time>
      </trkpt>
      <trkpt lat="42.78935" lon="1.83836">
        <ele>1792</ele>
        <time>2015-07-06T09:46:56Z</time>
      </trkpt>
      <trkpt lat="42.78933" lon="1.83829">
        <ele>1792</ele>
        <time>2015-07-06T09:47:07Z</time>
      </trkpt>
      <trkpt lat="42.7893" lon="1.83824">
        <ele>1794</ele>
        <time>2015-07-06T09:47:24Z</time>
      </trkpt>
      <trkpt lat="42.78927" lon="1.83821">
        <ele>1795</ele>
        <time>2015-07-06T09:47:57Z</time>
      </trkpt>
      <trkpt lat="42.78927" lon="1.83821">
        <ele>1795</ele>
        <time>2015-07-06T09:48:44Z</time>
      </trkpt>
      <trkpt lat="42.78927" lon="1.83821">
        <ele>1795</ele>
        <time>2015-07-06T09:49:08Z</time>
      </trkpt>
      <trkpt lat="42.78929" lon="1.83813">
        <ele>1807</ele>
        <time>2015-07-06T09:49:20Z</time>
      </trkpt>
      <trkpt lat="42.7893" lon="1.83806">
        <ele>1807</ele>
        <time>2015-07-06T09:49:26Z</time>
      </trkpt>
      <trkpt lat="42.78934" lon="1.83794">
        <ele>1809</ele>
        <time>2015-07-06T09:49:38Z</time>
      </trkpt>
      <trkpt lat="42.78936" lon="1.83788">
        <ele>1810</ele>
        <time>2015-07-06T09:49:44Z</time>
      </trkpt>
      <trkpt lat="42.78938" lon="1.83782">
        <ele>1810</ele>
        <time>2015-07-06T09:49:50Z</time>
      </trkpt>
      <trkpt lat="42.78937" lon="1.83771">
        <ele>1811</ele>
        <time>2015-07-06T09:50:02Z</time>
      </trkpt>
      <trkpt lat="42.78935" lon="1.83762">
        <ele>1812</ele>
        <time>2015-07-06T09:50:14Z</time>
      </trkpt>
      <trkpt lat="42.7893" lon="1.83763">
        <ele>1813</ele>
        <time>2015-07-06T09:50:26Z</time>
      </trkpt>
      <trkpt lat="42.78928" lon="1.83758">
        <ele>1814</ele>
        <time>2015-07-06T09:50:44Z</time>
      </trkpt>
      <trkpt lat="42.78927" lon="1.83756">
        <ele>1814</ele>
        <time>2015-07-06T09:50:50Z</time>
      </trkpt>
      <trkpt lat="42.78923" lon="1.83745">
        <ele>1815</ele>
        <time>2015-07-06T09:51:14Z</time>
      </trkpt>
      <trkpt lat="42.78921" lon="1.8374">
        <ele>1816</ele>
        <time>2015-07-06T09:51:26Z</time>
      </trkpt>
      <trkpt lat="42.7892" lon="1.8374">
        <ele>1816</ele>
        <time>2015-07-06T09:51:44Z</time>
      </trkpt>
      <trkpt lat="42.78919" lon="1.8373">
        <ele>1818</ele>
        <time>2015-07-06T09:51:50Z</time>
      </trkpt>
      <trkpt lat="42.78914" lon="1.83722">
        <ele>1821</ele>
        <time>2015-07-06T09:52:24Z</time>
      </trkpt>
      <trkpt lat="42.78909" lon="1.83717">
        <ele>1821</ele>
        <time>2015-07-06T09:52:36Z</time>
      </trkpt>
      <trkpt lat="42.78908" lon="1.83713">
        <ele>1822</ele>
        <time>2015-07-06T09:52:54Z</time>
      </trkpt>
      <trkpt lat="42.78908" lon="1.83713">
        <ele>1822</ele>
        <time>2015-07-06T09:53:06Z</time>
      </trkpt>
      <trkpt lat="42.7891" lon="1.83709">
        <ele>1825</ele>
        <time>2015-07-06T09:53:18Z</time>
      </trkpt>
      <trkpt lat="42.78904" lon="1.83702">
        <ele>1826</ele>
        <time>2015-07-06T09:53:30Z</time>
      </trkpt>
      <trkpt lat="42.78899" lon="1.83699">
        <ele>1826</ele>
        <time>2015-07-06T09:53:36Z</time>
      </trkpt>
      <trkpt lat="42.78894" lon="1.83693">
        <ele>1827</ele>
        <time>2015-07-06T09:53:47Z</time>
      </trkpt>
      <trkpt lat="42.78891" lon="1.83685">
        <ele>1829</ele>
        <time>2015-07-06T09:53:58Z</time>
      </trkpt>
      <trkpt lat="42.78885" lon="1.8368">
        <ele>1833</ele>
        <time>2015-07-06T09:54:23Z</time>
      </trkpt>
      <trkpt lat="42.7888" lon="1.83678">
        <ele>1835</ele>
        <time>2015-07-06T09:54:40Z</time>
      </trkpt>
      <trkpt lat="42.78875" lon="1.83681">
        <ele>1836</ele>
        <time>2015-07-06T09:54:51Z</time>
      </trkpt>
      <trkpt lat="42.78869" lon="1.83675">
        <ele>1838</ele>
        <time>2015-07-06T09:55:09Z</time>
      </trkpt>
      <trkpt lat="42.78867" lon="1.83675">
        <ele>1839</ele>
        <time>2015-07-06T09:55:27Z</time>
      </trkpt>
      <trkpt lat="42.78865" lon="1.83668">
        <ele>1840</ele>
        <time>2015-07-06T09:55:32Z</time>
      </trkpt>
      <trkpt lat="42.78861" lon="1.83665">
        <ele>1842</ele>
        <time>2015-07-06T09:55:50Z</time>
      </trkpt>
      <trkpt lat="42.78859" lon="1.83669">
        <ele>1843</ele>
        <time>2015-07-06T09:55:55Z</time>
      </trkpt>
      <trkpt lat="42.78852" lon="1.83672">
        <ele>1845</ele>
        <time>2015-07-06T09:56:12Z</time>
      </trkpt>
      <trkpt lat="42.78847" lon="1.83676">
        <ele>1848</ele>
        <time>2015-07-06T09:56:34Z</time>
      </trkpt>
      <trkpt lat="42.78841" lon="1.83681">
        <ele>1850</ele>
        <time>2015-07-06T09:56:52Z</time>
      </trkpt>
      <trkpt lat="42.7884" lon="1.83682">
        <ele>1850</ele>
        <time>2015-07-06T09:57:22Z</time>
      </trkpt>
      <trkpt lat="42.7884" lon="1.83682">
        <ele>1850</ele>
        <time>2015-07-06T09:57:44Z</time>
      </trkpt>
      <trkpt lat="42.78835" lon="1.83681">
        <ele>1862</ele>
        <time>2015-07-06T10:05:16Z</time>
      </trkpt>
      <trkpt lat="42.78835" lon="1.83681">
        <ele>1862</ele>
        <time>2015-07-06T10:05:45Z</time>
      </trkpt>
      <trkpt lat="42.78835" lon="1.83681">
        <ele>1862</ele>
        <time>2015-07-06T10:06:08Z</time>
      </trkpt>
      <trkpt lat="42.78835" lon="1.83681">
        <ele>1862</ele>
        <time>2015-07-06T10:06:32Z</time>
      </trkpt>
      <trkpt lat="42.78835" lon="1.83681">
        <ele>1862</ele>
        <time>2015-07-06T10:06:56Z</time>
      </trkpt>
      <trkpt lat="42.78835" lon="1.83681">
        <ele>1862</ele>
        <time>2015-07-06T10:07:18Z</time>
      </trkpt>
      <trkpt lat="42.78835" lon="1.83681">
        <ele>1862</ele>
        <time>2015-07-06T10:07:42Z</time>
      </trkpt>
      <trkpt lat="42.78861" lon="1.83682">
        <ele>1862</ele>
        <time>2015-07-06T10:09:13Z</time>
      </trkpt>
      <trkpt lat="42.78867" lon="1.8368">
        <ele>1861</ele>
        <time>2015-07-06T10:09:24Z</time>
      </trkpt>
      <trkpt lat="42.78872" lon="1.83676">
        <ele>1859</ele>
        <time>2015-07-06T10:09:35Z</time>
      </trkpt>
      <trkpt lat="42.78877" lon="1.83681">
        <ele>1857</ele>
        <time>2015-07-06T10:09:46Z</time>
      </trkpt>
      <trkpt lat="42.78883" lon="1.83687">
        <ele>1854</ele>
        <time>2015-07-06T10:09:58Z</time>
      </trkpt>
      <trkpt lat="42.78888" lon="1.83686">
        <ele>1851</ele>
        <time>2015-07-06T10:10:22Z</time>
      </trkpt>
      <trkpt lat="42.78893" lon="1.83697">
        <ele>1850</ele>
        <time>2015-07-06T10:10:34Z</time>
      </trkpt>
      <trkpt lat="42.78895" lon="1.83703">
        <ele>1849</ele>
        <time>2015-07-06T10:10:40Z</time>
      </trkpt>
      <trkpt lat="42.78898" lon="1.83708">
        <ele>1848</ele>
        <time>2015-07-06T10:10:46Z</time>
      </trkpt>
      <trkpt lat="42.78902" lon="1.83712">
        <ele>1847</ele>
        <time>2015-07-06T10:10:52Z</time>
      </trkpt>
      <trkpt lat="42.78907" lon="1.83719">
        <ele>1845</ele>
        <time>2015-07-06T10:11:04Z</time>
      </trkpt>
      <trkpt lat="42.78911" lon="1.83728">
        <ele>1842</ele>
        <time>2015-07-06T10:11:15Z</time>
      </trkpt>
      <trkpt lat="42.78915" lon="1.83734">
        <ele>1840</ele>
        <time>2015-07-06T10:11:27Z</time>
      </trkpt>
      <trkpt lat="42.7892" lon="1.83742">
        <ele>1837</ele>
        <time>2015-07-06T10:11:39Z</time>
      </trkpt>
      <trkpt lat="42.7892" lon="1.83743">
        <ele>1836</ele>
        <time>2015-07-06T10:11:57Z</time>
      </trkpt>
      <trkpt lat="42.78922" lon="1.83748">
        <ele>1834</ele>
        <time>2015-07-06T10:12:03Z</time>
      </trkpt>
      <trkpt lat="42.78924" lon="1.83757">
        <ele>1832</ele>
        <time>2015-07-06T10:12:14Z</time>
      </trkpt>
      <trkpt lat="42.78926" lon="1.83764">
        <ele>1830</ele>
        <time>2015-07-06T10:12:25Z</time>
      </trkpt>
      <trkpt lat="42.78929" lon="1.83772">
        <ele>1827</ele>
        <time>2015-07-06T10:12:36Z</time>
      </trkpt>
      <trkpt lat="42.78932" lon="1.8378">
        <ele>1825</ele>
        <time>2015-07-06T10:12:47Z</time>
      </trkpt>
      <trkpt lat="42.78932" lon="1.83782">
        <ele>1824</ele>
        <time>2015-07-06T10:12:58Z</time>
      </trkpt>
      <trkpt lat="42.7893" lon="1.83788">
        <ele>1822</ele>
        <time>2015-07-06T10:13:10Z</time>
      </trkpt>
      <trkpt lat="42.7893" lon="1.83798">
        <ele>1821</ele>
        <time>2015-07-06T10:13:16Z</time>
      </trkpt>
      <trkpt lat="42.78927" lon="1.83805">
        <ele>1820</ele>
        <time>2015-07-06T10:13:21Z</time>
      </trkpt>
      <trkpt lat="42.78927" lon="1.83812">
        <ele>1820</ele>
        <time>2015-07-06T10:13:26Z</time>
      </trkpt>
      <trkpt lat="42.78927" lon="1.8382">
        <ele>1819</ele>
        <time>2015-07-06T10:13:32Z</time>
      </trkpt>
      <trkpt lat="42.78925" lon="1.83828">
        <ele>1818</ele>
        <time>2015-07-06T10:13:38Z</time>
      </trkpt>
      <trkpt lat="42.78929" lon="1.83833">
        <ele>1816</ele>
        <time>2015-07-06T10:14:03Z</time>
      </trkpt>
      <trkpt lat="42.78932" lon="1.8384">
        <ele>1814</ele>
        <time>2015-07-06T10:14:15Z</time>
      </trkpt>
      <trkpt lat="42.78936" lon="1.8385">
        <ele>1812</ele>
        <time>2015-07-06T10:14:27Z</time>
      </trkpt>
      <trkpt lat="42.78938" lon="1.83858">
        <ele>1810</ele>
        <time>2015-07-06T10:14:39Z</time>
      </trkpt>
      <trkpt lat="42.7894" lon="1.83863">
        <ele>1808</ele>
        <time>2015-07-06T10:14:50Z</time>
      </trkpt>
      <trkpt lat="42.78941" lon="1.83871">
        <ele>1805</ele>
        <time>2015-07-06T10:15:02Z</time>
      </trkpt>
      <trkpt lat="42.78941" lon="1.83881">
        <ele>1802</ele>
        <time>2015-07-06T10:15:14Z</time>
      </trkpt>
      <trkpt lat="42.78942" lon="1.83888">
        <ele>1799</ele>
        <time>2015-07-06T10:15:25Z</time>
      </trkpt>
      <trkpt lat="42.78938" lon="1.83894">
        <ele>1797</ele>
        <time>2015-07-06T10:15:36Z</time>
      </trkpt>
      <trkpt lat="42.78935" lon="1.83896">
        <ele>1794</ele>
        <time>2015-07-06T10:16:09Z</time>
      </trkpt>
      <trkpt lat="42.78931" lon="1.83903">
        <ele>1792</ele>
        <time>2015-07-06T10:16:16Z</time>
      </trkpt>
      <trkpt lat="42.78933" lon="1.8391">
        <ele>1789</ele>
        <time>2015-07-06T10:16:40Z</time>
      </trkpt>
      <trkpt lat="42.7893" lon="1.83919">
        <ele>1786</ele>
        <time>2015-07-06T10:16:58Z</time>
      </trkpt>
      <trkpt lat="42.78924" lon="1.83925">
        <ele>1784</ele>
        <time>2015-07-06T10:17:10Z</time>
      </trkpt>
      <trkpt lat="42.78924" lon="1.83934">
        <ele>1781</ele>
        <time>2015-07-06T10:17:22Z</time>
      </trkpt>
      <trkpt lat="42.78925" lon="1.83943">
        <ele>1778</ele>
        <time>2015-07-06T10:17:34Z</time>
      </trkpt>
      <trkpt lat="42.78929" lon="1.83953">
        <ele>1776</ele>
        <time>2015-07-06T10:17:44Z</time>
      </trkpt>
      <trkpt lat="42.78932" lon="1.83962">
        <ele>1773</ele>
        <time>2015-07-06T10:17:56Z</time>
      </trkpt>
      <trkpt lat="42.78936" lon="1.83967">
        <ele>1770</ele>
        <time>2015-07-06T10:18:09Z</time>
      </trkpt>
      <trkpt lat="42.78941" lon="1.8397">
        <ele>1768</ele>
        <time>2015-07-06T10:18:21Z</time>
      </trkpt>
      <trkpt lat="42.78946" lon="1.83972">
        <ele>1766</ele>
        <time>2015-07-06T10:18:32Z</time>
      </trkpt>
      <trkpt lat="42.78949" lon="1.83981">
        <ele>1763</ele>
        <time>2015-07-06T10:18:48Z</time>
      </trkpt>
      <trkpt lat="42.78947" lon="1.83991">
        <ele>1760</ele>
        <time>2015-07-06T10:19:00Z</time>
      </trkpt>
      <trkpt lat="42.78946" lon="1.83998">
        <ele>1758</ele>
        <time>2015-07-06T10:19:06Z</time>
      </trkpt>
      <trkpt lat="42.78945" lon="1.8401">
        <ele>1755</ele>
        <time>2015-07-06T10:19:18Z</time>
      </trkpt>
      <trkpt lat="42.78945" lon="1.84013">
        <ele>1754</ele>
        <time>2015-07-06T10:19:29Z</time>
      </trkpt>
      <trkpt lat="42.78938" lon="1.84018">
        <ele>1752</ele>
        <time>2015-07-06T10:19:45Z</time>
      </trkpt>
      <trkpt lat="42.7893" lon="1.84017">
        <ele>1751</ele>
        <time>2015-07-06T10:19:57Z</time>
      </trkpt>
      <trkpt lat="42.78922" lon="1.84018">
        <ele>1750</ele>
        <time>2015-07-06T10:20:08Z</time>
      </trkpt>
      <trkpt lat="42.78916" lon="1.84023">
        <ele>1749</ele>
        <time>2015-07-06T10:20:20Z</time>
      </trkpt>
      <trkpt lat="42.78915" lon="1.84031">
        <ele>1746</ele>
        <time>2015-07-06T10:20:38Z</time>
      </trkpt>
      <trkpt lat="42.7891" lon="1.8404">
        <ele>1745</ele>
        <time>2015-07-06T10:20:50Z</time>
      </trkpt>
      <trkpt lat="42.78912" lon="1.84047">
        <ele>1742</ele>
        <time>2015-07-06T10:21:02Z</time>
      </trkpt>
      <trkpt lat="42.78913" lon="1.84058">
        <ele>1740</ele>
        <time>2015-07-06T10:21:13Z</time>
      </trkpt>
      <trkpt lat="42.7891" lon="1.84062">
        <ele>1739</ele>
        <time>2015-07-06T10:21:18Z</time>
      </trkpt>
      <trkpt lat="42.78906" lon="1.84067">
        <ele>1738</ele>
        <time>2015-07-06T10:21:24Z</time>
      </trkpt>
      <trkpt lat="42.78902" lon="1.84076">
        <ele>1735</ele>
        <time>2015-07-06T10:21:36Z</time>
      </trkpt>
      <trkpt lat="42.789" lon="1.84084">
        <ele>1732</ele>
        <time>2015-07-06T10:21:48Z</time>
      </trkpt>
      <trkpt lat="42.78901" lon="1.84094">
        <ele>1729</ele>
        <time>2015-07-06T10:21:59Z</time>
      </trkpt>
      <trkpt lat="42.78904" lon="1.841">
        <ele>1728</ele>
        <time>2015-07-06T10:22:05Z</time>
      </trkpt>
      <trkpt lat="42.78907" lon="1.84105">
        <ele>1727</ele>
        <time>2015-07-06T10:22:11Z</time>
      </trkpt>
      <trkpt lat="42.78911" lon="1.84115">
        <ele>1724</ele>
        <time>2015-07-06T10:22:23Z</time>
      </trkpt>
      <trkpt lat="42.78917" lon="1.84124">
        <ele>1721</ele>
        <time>2015-07-06T10:22:34Z</time>
      </trkpt>
      <trkpt lat="42.78923" lon="1.84132">
        <ele>1719</ele>
        <time>2015-07-06T10:22:46Z</time>
      </trkpt>
      <trkpt lat="42.78925" lon="1.84141">
        <ele>1716</ele>
        <time>2015-07-06T10:22:57Z</time>
      </trkpt>
      <trkpt lat="42.78925" lon="1.84154">
        <ele>1713</ele>
        <time>2015-07-06T10:23:09Z</time>
      </trkpt>
      <trkpt lat="42.78924" lon="1.84162">
        <ele>1711</ele>
        <time>2015-07-06T10:23:15Z</time>
      </trkpt>
      <trkpt lat="42.78924" lon="1.84169">
        <ele>1710</ele>
        <time>2015-07-06T10:23:20Z</time>
      </trkpt>
      <trkpt lat="42.78924" lon="1.84175">
        <ele>1709</ele>
        <time>2015-07-06T10:23:26Z</time>
      </trkpt>
      <trkpt lat="42.78925" lon="1.84182">
        <ele>1708</ele>
        <time>2015-07-06T10:23:32Z</time>
      </trkpt>
      <trkpt lat="42.78927" lon="1.84189">
        <ele>1707</ele>
        <time>2015-07-06T10:23:38Z</time>
      </trkpt>
      <trkpt lat="42.78928" lon="1.84195">
        <ele>1706</ele>
        <time>2015-07-06T10:23:43Z</time>
      </trkpt>
      <trkpt lat="42.78929" lon="1.84203">
        <ele>1705</ele>
        <time>2015-07-06T10:23:49Z</time>
      </trkpt>
      <trkpt lat="42.78932" lon="1.8421">
        <ele>1704</ele>
        <time>2015-07-06T10:23:55Z</time>
      </trkpt>
      <trkpt lat="42.78939" lon="1.84218">
        <ele>1702</ele>
        <time>2015-07-06T10:24:06Z</time>
      </trkpt>
      <trkpt lat="42.78943" lon="1.84223">
        <ele>1701</ele>
        <time>2015-07-06T10:24:12Z</time>
      </trkpt>
      <trkpt lat="42.78945" lon="1.8423">
        <ele>1700</ele>
        <time>2015-07-06T10:24:18Z</time>
      </trkpt>
      <trkpt lat="42.78946" lon="1.84241">
        <ele>1699</ele>
        <time>2015-07-06T10:24:28Z</time>
      </trkpt>
      <trkpt lat="42.78948" lon="1.84247">
        <ele>1698</ele>
        <time>2015-07-06T10:24:34Z</time>
      </trkpt>
      <trkpt lat="42.78949" lon="1.8425">
        <ele>1697</ele>
        <time>2015-07-06T10:24:50Z</time>
      </trkpt>
      <trkpt lat="42.78949" lon="1.8425">
        <ele>1697</ele>
        <time>2015-07-06T10:25:13Z</time>
      </trkpt>
      <trkpt lat="42.78949" lon="1.8425">
        <ele>1697</ele>
        <time>2015-07-06T10:25:31Z</time>
      </trkpt>
      <trkpt lat="42.78949" lon="1.8425">
        <ele>1697</ele>
        <time>2015-07-06T10:25:43Z</time>
      </trkpt>
      <trkpt lat="42.78946" lon="1.84261">
        <ele>1699</ele>
        <time>2015-07-06T10:26:00Z</time>
      </trkpt>
      <trkpt lat="42.78947" lon="1.8427">
        <ele>1699</ele>
        <time>2015-07-06T10:26:06Z</time>
      </trkpt>
      <trkpt lat="42.78947" lon="1.84279">
        <ele>1700</ele>
        <time>2015-07-06T10:26:12Z</time>
      </trkpt>
      <trkpt lat="42.78947" lon="1.84287">
        <ele>1700</ele>
        <time>2015-07-06T10:26:18Z</time>
      </trkpt>
      <trkpt lat="42.78949" lon="1.84294">
        <ele>1700</ele>
        <time>2015-07-06T10:26:24Z</time>
      </trkpt>
      <trkpt lat="42.78951" lon="1.84301">
        <ele>1700</ele>
        <time>2015-07-06T10:26:30Z</time>
      </trkpt>
      <trkpt lat="42.78951" lon="1.84308">
        <ele>1700</ele>
        <time>2015-07-06T10:26:36Z</time>
      </trkpt>
      <trkpt lat="42.78955" lon="1.84313">
        <ele>1700</ele>
        <time>2015-07-06T10:26:42Z</time>
      </trkpt>
      <trkpt lat="42.78959" lon="1.84323">
        <ele>1700</ele>
        <time>2015-07-06T10:26:52Z</time>
      </trkpt>
      <trkpt lat="42.78963" lon="1.84333">
        <ele>1700</ele>
        <time>2015-07-06T10:27:03Z</time>
      </trkpt>
      <trkpt lat="42.78966" lon="1.84334">
        <ele>1701</ele>
        <time>2015-07-06T10:27:25Z</time>
      </trkpt>
      <trkpt lat="42.78966" lon="1.84334">
        <ele>1701</ele>
        <time>2015-07-06T10:27:42Z</time>
      </trkpt>
      <trkpt lat="42.78965" lon="1.8434">
        <ele>1702</ele>
        <time>2015-07-06T10:28:04Z</time>
      </trkpt>
      <trkpt lat="42.78968" lon="1.8434">
        <ele>1702</ele>
        <time>2015-07-06T10:28:32Z</time>
      </trkpt>
      <trkpt lat="42.78961" lon="1.84356">
        <ele>1700</ele>
        <time>2015-07-06T10:34:17Z</time>
      </trkpt>
      <trkpt lat="42.78959" lon="1.84364">
        <ele>1700</ele>
        <time>2015-07-06T10:34:28Z</time>
      </trkpt>
      <trkpt lat="42.78957" lon="1.84371">
        <ele>1700</ele>
        <time>2015-07-06T10:34:40Z</time>
      </trkpt>
      <trkpt lat="42.78949" lon="1.84369">
        <ele>1700</ele>
        <time>2015-07-06T10:34:52Z</time>
      </trkpt>
      <trkpt lat="42.78945" lon="1.84378">
        <ele>1699</ele>
        <time>2015-07-06T10:35:04Z</time>
      </trkpt>
      <trkpt lat="42.78941" lon="1.84383">
        <ele>1699</ele>
        <time>2015-07-06T10:35:16Z</time>
      </trkpt>
      <trkpt lat="42.78936" lon="1.84389">
        <ele>1698</ele>
        <time>2015-07-06T10:35:28Z</time>
      </trkpt>
      <trkpt lat="42.7893" lon="1.84389">
        <ele>1697</ele>
        <time>2015-07-06T10:35:41Z</time>
      </trkpt>
      <trkpt lat="42.78922" lon="1.84394">
        <ele>1696</ele>
        <time>2015-07-06T10:35:52Z</time>
      </trkpt>
      <trkpt lat="42.78917" lon="1.84394">
        <ele>1695</ele>
        <time>2015-07-06T10:35:58Z</time>
      </trkpt>
      <trkpt lat="42.78911" lon="1.84401">
        <ele>1694</ele>
        <time>2015-07-06T10:36:10Z</time>
      </trkpt>
      <trkpt lat="42.7891" lon="1.84409">
        <ele>1694</ele>
        <time>2015-07-06T10:36:16Z</time>
      </trkpt>
      <trkpt lat="42.78909" lon="1.84421">
        <ele>1693</ele>
        <time>2015-07-06T10:36:28Z</time>
      </trkpt>
      <trkpt lat="42.7891" lon="1.84427">
        <ele>1692</ele>
        <time>2015-07-06T10:36:34Z</time>
      </trkpt>
      <trkpt lat="42.78911" lon="1.84434">
        <ele>1691</ele>
        <time>2015-07-06T10:36:40Z</time>
      </trkpt>
      <trkpt lat="42.78911" lon="1.84441">
        <ele>1690</ele>
        <time>2015-07-06T10:36:50Z</time>
      </trkpt>
      <trkpt lat="42.7891" lon="1.84448">
        <ele>1689</ele>
        <time>2015-07-06T10:36:57Z</time>
      </trkpt>
      <trkpt lat="42.78909" lon="1.84459">
        <ele>1688</ele>
        <time>2015-07-06T10:37:07Z</time>
      </trkpt>
      <trkpt lat="42.78909" lon="1.84464">
        <ele>1687</ele>
        <time>2015-07-06T10:37:19Z</time>
      </trkpt>
      <trkpt lat="42.78909" lon="1.84464">
        <ele>1687</ele>
        <time>2015-07-06T10:37:42Z</time>
      </trkpt>
      <trkpt lat="42.78909" lon="1.84464">
        <ele>1687</ele>
        <time>2015-07-06T10:38:06Z</time>
      </trkpt>
      <trkpt lat="42.78909" lon="1.84464">
        <ele>1687</ele>
        <time>2015-07-06T10:38:30Z</time>
      </trkpt>
      <trkpt lat="42.78907" lon="1.84469">
        <ele>1684</ele>
        <time>2015-07-06T10:38:48Z</time>
      </trkpt>
      <trkpt lat="42.78906" lon="1.84483">
        <ele>1682</ele>
        <time>2015-07-06T10:39:15Z</time>
      </trkpt>
      <trkpt lat="42.78903" lon="1.84494">
        <ele>1681</ele>
        <time>2015-07-06T10:39:34Z</time>
      </trkpt>
      <trkpt lat="42.78906" lon="1.84501">
        <ele>1679</ele>
        <time>2015-07-06T10:39:45Z</time>
      </trkpt>
      <trkpt lat="42.7891" lon="1.84512">
        <ele>1677</ele>
        <time>2015-07-06T10:39:57Z</time>
      </trkpt>
      <trkpt lat="42.78912" lon="1.84521">
        <ele>1676</ele>
        <time>2015-07-06T10:40:08Z</time>
      </trkpt>
      <trkpt lat="42.7891" lon="1.8453">
        <ele>1675</ele>
        <time>2015-07-06T10:40:19Z</time>
      </trkpt>
      <trkpt lat="42.78909" lon="1.8454">
        <ele>1673</ele>
        <time>2015-07-06T10:40:30Z</time>
      </trkpt>
      <trkpt lat="42.78906" lon="1.8455">
        <ele>1672</ele>
        <time>2015-07-06T10:40:41Z</time>
      </trkpt>
      <trkpt lat="42.78907" lon="1.84556">
        <ele>1671</ele>
        <time>2015-07-06T10:40:46Z</time>
      </trkpt>
      <trkpt lat="42.78906" lon="1.8457">
        <ele>1670</ele>
        <time>2015-07-06T10:40:57Z</time>
      </trkpt>
      <trkpt lat="42.78906" lon="1.84577">
        <ele>1668</ele>
        <time>2015-07-06T10:41:03Z</time>
      </trkpt>
      <trkpt lat="42.78905" lon="1.84584">
        <ele>1668</ele>
        <time>2015-07-06T10:41:09Z</time>
      </trkpt>
      <trkpt lat="42.78902" lon="1.8459">
        <ele>1667</ele>
        <time>2015-07-06T10:41:15Z</time>
      </trkpt>
      <trkpt lat="42.78901" lon="1.84598">
        <ele>1665</ele>
        <time>2015-07-06T10:41:21Z</time>
      </trkpt>
      <trkpt lat="42.78898" lon="1.84605">
        <ele>1665</ele>
        <time>2015-07-06T10:41:27Z</time>
      </trkpt>
      <trkpt lat="42.78897" lon="1.84613">
        <ele>1664</ele>
        <time>2015-07-06T10:41:33Z</time>
      </trkpt>
      <trkpt lat="42.78896" lon="1.84621">
        <ele>1663</ele>
        <time>2015-07-06T10:41:39Z</time>
      </trkpt>
      <trkpt lat="42.78893" lon="1.84627">
        <ele>1662</ele>
        <time>2015-07-06T10:41:45Z</time>
      </trkpt>
      <trkpt lat="42.78894" lon="1.84634">
        <ele>1661</ele>
        <time>2015-07-06T10:41:51Z</time>
      </trkpt>
      <trkpt lat="42.78893" lon="1.84641">
        <ele>1660</ele>
        <time>2015-07-06T10:41:57Z</time>
      </trkpt>
      <trkpt lat="42.78893" lon="1.84649">
        <ele>1659</ele>
        <time>2015-07-06T10:42:03Z</time>
      </trkpt>
      <trkpt lat="42.78891" lon="1.84655">
        <ele>1658</ele>
        <time>2015-07-06T10:42:09Z</time>
      </trkpt>
      <trkpt lat="42.78892" lon="1.84662">
        <ele>1657</ele>
        <time>2015-07-06T10:42:14Z</time>
      </trkpt>
      <trkpt lat="42.78891" lon="1.8467">
        <ele>1657</ele>
        <time>2015-07-06T10:42:20Z</time>
      </trkpt>
      <trkpt lat="42.7889" lon="1.8468">
        <ele>1655</ele>
        <time>2015-07-06T10:42:31Z</time>
      </trkpt>
      <trkpt lat="42.78888" lon="1.8469">
        <ele>1654</ele>
        <time>2015-07-06T10:42:42Z</time>
      </trkpt>
      <trkpt lat="42.78884" lon="1.84698">
        <ele>1653</ele>
        <time>2015-07-06T10:42:54Z</time>
      </trkpt>
      <trkpt lat="42.78879" lon="1.84708">
        <ele>1652</ele>
        <time>2015-07-06T10:43:06Z</time>
      </trkpt>
      <trkpt lat="42.78881" lon="1.84714">
        <ele>1652</ele>
        <time>2015-07-06T10:43:11Z</time>
      </trkpt>
      <trkpt lat="42.7888" lon="1.84721">
        <ele>1652</ele>
        <time>2015-07-06T10:43:17Z</time>
      </trkpt>
      <trkpt lat="42.78882" lon="1.84735">
        <ele>1653</ele>
        <time>2015-07-06T10:43:44Z</time>
      </trkpt>
      <trkpt lat="42.78886" lon="1.8474">
        <ele>1653</ele>
        <time>2015-07-06T10:43:55Z</time>
      </trkpt>
      <trkpt lat="42.78886" lon="1.8474">
        <ele>1653</ele>
        <time>2015-07-06T10:44:11Z</time>
      </trkpt>
      <trkpt lat="42.78887" lon="1.84749">
        <ele>1653</ele>
        <time>2015-07-06T10:44:28Z</time>
      </trkpt>
      <trkpt lat="42.78891" lon="1.84755">
        <ele>1654</ele>
        <time>2015-07-06T10:44:34Z</time>
      </trkpt>
      <trkpt lat="42.78893" lon="1.84761">
        <ele>1654</ele>
        <time>2015-07-06T10:44:39Z</time>
      </trkpt>
      <trkpt lat="42.78898" lon="1.84768">
        <ele>1654</ele>
        <time>2015-07-06T10:44:51Z</time>
      </trkpt>
      <trkpt lat="42.78902" lon="1.84778">
        <ele>1655</ele>
        <time>2015-07-06T10:45:03Z</time>
      </trkpt>
      <trkpt lat="42.78904" lon="1.84784">
        <ele>1655</ele>
        <time>2015-07-06T10:45:08Z</time>
      </trkpt>
      <trkpt lat="42.78909" lon="1.84796">
        <ele>1655</ele>
        <time>2015-07-06T10:45:20Z</time>
      </trkpt>
      <trkpt lat="42.78912" lon="1.84803">
        <ele>1655</ele>
        <time>2015-07-06T10:45:26Z</time>
      </trkpt>
      <trkpt lat="42.78916" lon="1.84809">
        <ele>1655</ele>
        <time>2015-07-06T10:45:32Z</time>
      </trkpt>
      <trkpt lat="42.7892" lon="1.84814">
        <ele>1655</ele>
        <time>2015-07-06T10:45:38Z</time>
      </trkpt>
      <trkpt lat="42.78924" lon="1.8482">
        <ele>1655</ele>
        <time>2015-07-06T10:45:44Z</time>
      </trkpt>
      <trkpt lat="42.78928" lon="1.84825">
        <ele>1654</ele>
        <time>2015-07-06T10:45:50Z</time>
      </trkpt>
      <trkpt lat="42.78932" lon="1.84831">
        <ele>1654</ele>
        <time>2015-07-06T10:45:56Z</time>
      </trkpt>
      <trkpt lat="42.78934" lon="1.84839">
        <ele>1654</ele>
        <time>2015-07-06T10:46:02Z</time>
      </trkpt>
      <trkpt lat="42.78937" lon="1.84846">
        <ele>1654</ele>
        <time>2015-07-06T10:46:08Z</time>
      </trkpt>
      <trkpt lat="42.78941" lon="1.84851">
        <ele>1654</ele>
        <time>2015-07-06T10:46:13Z</time>
      </trkpt>
      <trkpt lat="42.78946" lon="1.84857">
        <ele>1654</ele>
        <time>2015-07-06T10:46:19Z</time>
      </trkpt>
      <trkpt lat="42.78949" lon="1.84863">
        <ele>1654</ele>
        <time>2015-07-06T10:46:25Z</time>
      </trkpt>
      <trkpt lat="42.78952" lon="1.84868">
        <ele>1653</ele>
        <time>2015-07-06T10:46:30Z</time>
      </trkpt>
      <trkpt lat="42.78955" lon="1.84875">
        <ele>1653</ele>
        <time>2015-07-06T10:46:36Z</time>
      </trkpt>
      <trkpt lat="42.78957" lon="1.84881">
        <ele>1653</ele>
        <time>2015-07-06T10:46:41Z</time>
      </trkpt>
      <trkpt lat="42.78959" lon="1.84888">
        <ele>1652</ele>
        <time>2015-07-06T10:46:47Z</time>
      </trkpt>
      <trkpt lat="42.78962" lon="1.84896">
        <ele>1652</ele>
        <time>2015-07-06T10:46:53Z</time>
      </trkpt>
      <trkpt lat="42.78966" lon="1.849">
        <ele>1652</ele>
        <time>2015-07-06T10:46:58Z</time>
      </trkpt>
      <trkpt lat="42.78968" lon="1.84906">
        <ele>1651</ele>
        <time>2015-07-06T10:47:04Z</time>
      </trkpt>
      <trkpt lat="42.78973" lon="1.84917">
        <ele>1651</ele>
        <time>2015-07-06T10:47:16Z</time>
      </trkpt>
      <trkpt lat="42.78977" lon="1.84923">
        <ele>1651</ele>
        <time>2015-07-06T10:47:22Z</time>
      </trkpt>
      <trkpt lat="42.78981" lon="1.84927">
        <ele>1651</ele>
        <time>2015-07-06T10:47:27Z</time>
      </trkpt>
      <trkpt lat="42.78989" lon="1.84926">
        <ele>1650</ele>
        <time>2015-07-06T10:47:38Z</time>
      </trkpt>
      <trkpt lat="42.78994" lon="1.84928">
        <ele>1650</ele>
        <time>2015-07-06T10:47:44Z</time>
      </trkpt>
      <trkpt lat="42.78999" lon="1.84932">
        <ele>1650</ele>
        <time>2015-07-06T10:47:50Z</time>
      </trkpt>
      <trkpt lat="42.79003" lon="1.84936">
        <ele>1650</ele>
        <time>2015-07-06T10:47:55Z</time>
      </trkpt>
      <trkpt lat="42.79007" lon="1.8494">
        <ele>1649</ele>
        <time>2015-07-06T10:48:00Z</time>
      </trkpt>
      <trkpt lat="42.79012" lon="1.84944">
        <ele>1649</ele>
        <time>2015-07-06T10:48:06Z</time>
      </trkpt>
      <trkpt lat="42.79019" lon="1.84954">
        <ele>1648</ele>
        <time>2015-07-06T10:48:17Z</time>
      </trkpt>
      <trkpt lat="42.79026" lon="1.84964">
        <ele>1647</ele>
        <time>2015-07-06T10:48:28Z</time>
      </trkpt>
      <trkpt lat="42.7903" lon="1.84969">
        <ele>1646</ele>
        <time>2015-07-06T10:48:56Z</time>
      </trkpt>
      <trkpt lat="42.7904" lon="1.84973">
        <ele>1646</ele>
        <time>2015-07-06T10:49:08Z</time>
      </trkpt>
      <trkpt lat="42.79045" lon="1.84977">
        <ele>1646</ele>
        <time>2015-07-06T10:49:14Z</time>
      </trkpt>
      <trkpt lat="42.79056" lon="1.84982">
        <ele>1645</ele>
        <time>2015-07-06T10:49:25Z</time>
      </trkpt>
      <trkpt lat="42.79062" lon="1.84985">
        <ele>1645</ele>
        <time>2015-07-06T10:49:31Z</time>
      </trkpt>
      <trkpt lat="42.79067" lon="1.84989">
        <ele>1645</ele>
        <time>2015-07-06T10:49:36Z</time>
      </trkpt>
      <trkpt lat="42.79073" lon="1.84994">
        <ele>1645</ele>
        <time>2015-07-06T10:49:42Z</time>
      </trkpt>
      <trkpt lat="42.79077" lon="1.84999">
        <ele>1645</ele>
        <time>2015-07-06T10:49:48Z</time>
      </trkpt>
      <trkpt lat="42.79081" lon="1.85003">
        <ele>1644</ele>
        <time>2015-07-06T10:49:53Z</time>
      </trkpt>
      <trkpt lat="42.79085" lon="1.85005">
        <ele>1644</ele>
        <time>2015-07-06T10:49:58Z</time>
      </trkpt>
      <trkpt lat="42.79089" lon="1.8501">
        <ele>1644</ele>
        <time>2015-07-06T10:50:04Z</time>
      </trkpt>
      <trkpt lat="42.79094" lon="1.85016">
        <ele>1644</ele>
        <time>2015-07-06T10:50:10Z</time>
      </trkpt>
      <trkpt lat="42.79098" lon="1.8502">
        <ele>1644</ele>
        <time>2015-07-06T10:50:16Z</time>
      </trkpt>
      <trkpt lat="42.79105" lon="1.85027">
        <ele>1643</ele>
        <time>2015-07-06T10:50:26Z</time>
      </trkpt>
      <trkpt lat="42.7911" lon="1.85031">
        <ele>1643</ele>
        <time>2015-07-06T10:50:32Z</time>
      </trkpt>
      <trkpt lat="42.79115" lon="1.85036">
        <ele>1643</ele>
        <time>2015-07-06T10:50:38Z</time>
      </trkpt>
      <trkpt lat="42.79123" lon="1.85045">
        <ele>1643</ele>
        <time>2015-07-06T10:50:49Z</time>
      </trkpt>
      <trkpt lat="42.79124" lon="1.85057">
        <ele>1642</ele>
        <time>2015-07-06T10:51:00Z</time>
      </trkpt>
      <trkpt lat="42.79126" lon="1.85062">
        <ele>1642</ele>
        <time>2015-07-06T10:51:06Z</time>
      </trkpt>
      <trkpt lat="42.79125" lon="1.85071">
        <ele>1641</ele>
        <time>2015-07-06T10:51:16Z</time>
      </trkpt>
      <trkpt lat="42.79124" lon="1.85077">
        <ele>1641</ele>
        <time>2015-07-06T10:51:22Z</time>
      </trkpt>
      <trkpt lat="42.79121" lon="1.85087">
        <ele>1640</ele>
        <time>2015-07-06T10:51:34Z</time>
      </trkpt>
      <trkpt lat="42.7912" lon="1.85098">
        <ele>1640</ele>
        <time>2015-07-06T10:51:45Z</time>
      </trkpt>
      <trkpt lat="42.79123" lon="1.85106">
        <ele>1640</ele>
        <time>2015-07-06T10:51:56Z</time>
      </trkpt>
      <trkpt lat="42.79121" lon="1.85108">
        <ele>1640</ele>
        <time>2015-07-06T10:52:12Z</time>
      </trkpt>
      <trkpt lat="42.79121" lon="1.85108">
        <ele>1640</ele>
        <time>2015-07-06T10:52:41Z</time>
      </trkpt>
      <trkpt lat="42.79118" lon="1.85106">
        <ele>1640</ele>
        <time>2015-07-06T10:52:52Z</time>
      </trkpt>
      <trkpt lat="42.79126" lon="1.85111">
        <ele>1637</ele>
        <time>2015-07-06T10:55:36Z</time>
      </trkpt>
      <trkpt lat="42.79126" lon="1.85111">
        <ele>1637</ele>
        <time>2015-07-06T10:56:03Z</time>
      </trkpt>
      <trkpt lat="42.79126" lon="1.85111">
        <ele>1637</ele>
        <time>2015-07-06T10:56:20Z</time>
      </trkpt>
      <trkpt lat="42.79126" lon="1.85111">
        <ele>1637</ele>
        <time>2015-07-06T10:56:47Z</time>
      </trkpt>
      <trkpt lat="42.79126" lon="1.85111">
        <ele>1637</ele>
        <time>2015-07-06T10:57:10Z</time>
      </trkpt>
      <trkpt lat="42.79126" lon="1.85111">
        <ele>1637</ele>
        <time>2015-07-06T10:57:28Z</time>
      </trkpt>
      <trkpt lat="42.79126" lon="1.85111">
        <ele>1637</ele>
        <time>2015-07-06T10:57:46Z</time>
      </trkpt>
      <trkpt lat="42.79126" lon="1.85111">
        <ele>1637</ele>
        <time>2015-07-06T10:57:58Z</time>
      </trkpt>
      <trkpt lat="42.79109" lon="1.85141">
        <ele>1643</ele>
        <time>2015-07-06T12:01:02Z</time>
      </trkpt>
      <trkpt lat="42.79109" lon="1.85148">
        <ele>1644</ele>
        <time>2015-07-06T12:01:08Z</time>
      </trkpt>
      <trkpt lat="42.79105" lon="1.85149">
        <ele>1643</ele>
        <time>2015-07-06T12:01:24Z</time>
      </trkpt>
      <trkpt lat="42.79101" lon="1.85153">
        <ele>1643</ele>
        <time>2015-07-06T12:01:30Z</time>
      </trkpt>
      <trkpt lat="42.79096" lon="1.85156">
        <ele>1643</ele>
        <time>2015-07-06T12:01:42Z</time>
      </trkpt>
      <trkpt lat="42.79088" lon="1.85163">
        <ele>1642</ele>
        <time>2015-07-06T12:01:54Z</time>
      </trkpt>
      <trkpt lat="42.79084" lon="1.85171">
        <ele>1642</ele>
        <time>2015-07-06T12:02:00Z</time>
      </trkpt>
      <trkpt lat="42.79078" lon="1.85174">
        <ele>1641</ele>
        <time>2015-07-06T12:02:06Z</time>
      </trkpt>
      <trkpt lat="42.79073" lon="1.85177">
        <ele>1641</ele>
        <time>2015-07-06T12:02:12Z</time>
      </trkpt>
      <trkpt lat="42.79065" lon="1.85177">
        <ele>1641</ele>
        <time>2015-07-06T12:02:18Z</time>
      </trkpt>
      <trkpt lat="42.79059" lon="1.85179">
        <ele>1641</ele>
        <time>2015-07-06T12:02:24Z</time>
      </trkpt>
      <trkpt lat="42.79054" lon="1.85184">
        <ele>1641</ele>
        <time>2015-07-06T12:02:30Z</time>
      </trkpt>
      <trkpt lat="42.7905" lon="1.85191">
        <ele>1641</ele>
        <time>2015-07-06T12:02:36Z</time>
      </trkpt>
      <trkpt lat="42.79047" lon="1.85199">
        <ele>1640</ele>
        <time>2015-07-06T12:02:42Z</time>
      </trkpt>
      <trkpt lat="42.79045" lon="1.85207">
        <ele>1639</ele>
        <time>2015-07-06T12:02:48Z</time>
      </trkpt>
      <trkpt lat="42.79043" lon="1.85214">
        <ele>1638</ele>
        <time>2015-07-06T12:02:54Z</time>
      </trkpt>
      <trkpt lat="42.79039" lon="1.85219">
        <ele>1637</ele>
        <time>2015-07-06T12:03:00Z</time>
      </trkpt>
      <trkpt lat="42.79038" lon="1.85226">
        <ele>1637</ele>
        <time>2015-07-06T12:03:06Z</time>
      </trkpt>
      <trkpt lat="42.79036" lon="1.85234">
        <ele>1636</ele>
        <time>2015-07-06T12:03:12Z</time>
      </trkpt>
      <trkpt lat="42.79034" lon="1.85241">
        <ele>1636</ele>
        <time>2015-07-06T12:03:18Z</time>
      </trkpt>
      <trkpt lat="42.79031" lon="1.85247">
        <ele>1635</ele>
        <time>2015-07-06T12:03:24Z</time>
      </trkpt>
      <trkpt lat="42.79031" lon="1.85255">
        <ele>1635</ele>
        <time>2015-07-06T12:03:30Z</time>
      </trkpt>
      <trkpt lat="42.79031" lon="1.85264">
        <ele>1634</ele>
        <time>2015-07-06T12:03:36Z</time>
      </trkpt>
      <trkpt lat="42.79028" lon="1.85272">
        <ele>1633</ele>
        <time>2015-07-06T12:03:42Z</time>
      </trkpt>
      <trkpt lat="42.79026" lon="1.8528">
        <ele>1633</ele>
        <time>2015-07-06T12:03:48Z</time>
      </trkpt>
      <trkpt lat="42.79024" lon="1.85286">
        <ele>1632</ele>
        <time>2015-07-06T12:03:54Z</time>
      </trkpt>
      <trkpt lat="42.79022" lon="1.85292">
        <ele>1632</ele>
        <time>2015-07-06T12:04:00Z</time>
      </trkpt>
      <trkpt lat="42.79017" lon="1.85299">
        <ele>1631</ele>
        <time>2015-07-06T12:04:06Z</time>
      </trkpt>
      <trkpt lat="42.79013" lon="1.85305">
        <ele>1631</ele>
        <time>2015-07-06T12:04:12Z</time>
      </trkpt>
      <trkpt lat="42.79009" lon="1.85311">
        <ele>1630</ele>
        <time>2015-07-06T12:04:18Z</time>
      </trkpt>
      <trkpt lat="42.79003" lon="1.85316">
        <ele>1630</ele>
        <time>2015-07-06T12:04:24Z</time>
      </trkpt>
      <trkpt lat="42.78999" lon="1.85321">
        <ele>1630</ele>
        <time>2015-07-06T12:04:30Z</time>
      </trkpt>
      <trkpt lat="42.78994" lon="1.85325">
        <ele>1630</ele>
        <time>2015-07-06T12:04:36Z</time>
      </trkpt>
      <trkpt lat="42.78986" lon="1.85335">
        <ele>1629</ele>
        <time>2015-07-06T12:04:48Z</time>
      </trkpt>
      <trkpt lat="42.78984" lon="1.85341">
        <ele>1628</ele>
        <time>2015-07-06T12:04:54Z</time>
      </trkpt>
      <trkpt lat="42.78978" lon="1.85353">
        <ele>1628</ele>
        <time>2015-07-06T12:05:06Z</time>
      </trkpt>
      <trkpt lat="42.78976" lon="1.8536">
        <ele>1627</ele>
        <time>2015-07-06T12:05:12Z</time>
      </trkpt>
      <trkpt lat="42.78971" lon="1.85372">
        <ele>1627</ele>
        <time>2015-07-06T12:05:24Z</time>
      </trkpt>
      <trkpt lat="42.78967" lon="1.85378">
        <ele>1628</ele>
        <time>2015-07-06T12:05:30Z</time>
      </trkpt>
      <trkpt lat="42.78963" lon="1.85382">
        <ele>1628</ele>
        <time>2015-07-06T12:05:36Z</time>
      </trkpt>
      <trkpt lat="42.78959" lon="1.85386">
        <ele>1628</ele>
        <time>2015-07-06T12:05:42Z</time>
      </trkpt>
      <trkpt lat="42.78954" lon="1.85389">
        <ele>1629</ele>
        <time>2015-07-06T12:05:48Z</time>
      </trkpt>
      <trkpt lat="42.78949" lon="1.85396">
        <ele>1629</ele>
        <time>2015-07-06T12:05:54Z</time>
      </trkpt>
      <trkpt lat="42.78943" lon="1.85403">
        <ele>1629</ele>
        <time>2015-07-06T12:06:00Z</time>
      </trkpt>
      <trkpt lat="42.7894" lon="1.85408">
        <ele>1629</ele>
        <time>2015-07-06T12:06:06Z</time>
      </trkpt>
      <trkpt lat="42.78935" lon="1.85415">
        <ele>1630</ele>
        <time>2015-07-06T12:06:16Z</time>
      </trkpt>
      <trkpt lat="42.78932" lon="1.85421">
        <ele>1631</ele>
        <time>2015-07-06T12:06:27Z</time>
      </trkpt>
      <trkpt lat="42.78928" lon="1.8543">
        <ele>1632</ele>
        <time>2015-07-06T12:06:38Z</time>
      </trkpt>
      <trkpt lat="42.78924" lon="1.85436">
        <ele>1632</ele>
        <time>2015-07-06T12:06:43Z</time>
      </trkpt>
      <trkpt lat="42.7892" lon="1.85443">
        <ele>1633</ele>
        <time>2015-07-06T12:06:49Z</time>
      </trkpt>
      <trkpt lat="42.78917" lon="1.85449">
        <ele>1633</ele>
        <time>2015-07-06T12:06:55Z</time>
      </trkpt>
      <trkpt lat="42.78911" lon="1.85457">
        <ele>1634</ele>
        <time>2015-07-06T12:07:06Z</time>
      </trkpt>
      <trkpt lat="42.78904" lon="1.85464">
        <ele>1634</ele>
        <time>2015-07-06T12:07:15Z</time>
      </trkpt>
      <trkpt lat="42.78899" lon="1.85469">
        <ele>1634</ele>
        <time>2015-07-06T12:07:22Z</time>
      </trkpt>
      <trkpt lat="42.78894" lon="1.85474">
        <ele>1635</ele>
        <time>2015-07-06T12:07:28Z</time>
      </trkpt>
      <trkpt lat="42.78893" lon="1.85474">
        <ele>1635</ele>
        <time>2015-07-06T12:07:50Z</time>
      </trkpt>
      <trkpt lat="42.78893" lon="1.85474">
        <ele>1635</ele>
        <time>2015-07-06T12:08:14Z</time>
      </trkpt>
      <trkpt lat="42.78893" lon="1.85474">
        <ele>1635</ele>
        <time>2015-07-06T12:08:41Z</time>
      </trkpt>
      <trkpt lat="42.78893" lon="1.85474">
        <ele>1635</ele>
        <time>2015-07-06T12:08:58Z</time>
      </trkpt>
      <trkpt lat="42.78893" lon="1.85474">
        <ele>1635</ele>
        <time>2015-07-06T12:09:21Z</time>
      </trkpt>
      <trkpt lat="42.78875" lon="1.85489">
        <ele>1637</ele>
        <time>2015-07-06T12:10:33Z</time>
      </trkpt>
      <trkpt lat="42.78869" lon="1.85496">
        <ele>1637</ele>
        <time>2015-07-06T12:10:39Z</time>
      </trkpt>
      <trkpt lat="42.78863" lon="1.855">
        <ele>1637</ele>
        <time>2015-07-06T12:10:45Z</time>
      </trkpt>
      <trkpt lat="42.78856" lon="1.85504">
        <ele>1637</ele>
        <time>2015-07-06T12:10:51Z</time>
      </trkpt>
      <trkpt lat="42.78851" lon="1.85508">
        <ele>1638</ele>
        <time>2015-07-06T12:10:56Z</time>
      </trkpt>
      <trkpt lat="42.78846" lon="1.85512">
        <ele>1638</ele>
        <time>2015-07-06T12:11:02Z</time>
      </trkpt>
      <trkpt lat="42.78839" lon="1.85517">
        <ele>1638</ele>
        <time>2015-07-06T12:11:08Z</time>
      </trkpt>
      <trkpt lat="42.78832" lon="1.8552">
        <ele>1639</ele>
        <time>2015-07-06T12:11:14Z</time>
      </trkpt>
      <trkpt lat="42.78825" lon="1.85519">
        <ele>1639</ele>
        <time>2015-07-06T12:11:20Z</time>
      </trkpt>
      <trkpt lat="42.78818" lon="1.85521">
        <ele>1640</ele>
        <time>2015-07-06T12:11:27Z</time>
      </trkpt>
      <trkpt lat="42.78813" lon="1.85519">
        <ele>1640</ele>
        <time>2015-07-06T12:11:33Z</time>
      </trkpt>
      <trkpt lat="42.78806" lon="1.85518">
        <ele>1641</ele>
        <time>2015-07-06T12:11:39Z</time>
      </trkpt>
      <trkpt lat="42.788" lon="1.85518">
        <ele>1641</ele>
        <time>2015-07-06T12:11:45Z</time>
      </trkpt>
      <trkpt lat="42.78795" lon="1.85519">
        <ele>1641</ele>
        <time>2015-07-06T12:11:51Z</time>
      </trkpt>
      <trkpt lat="42.78788" lon="1.8552">
        <ele>1641</ele>
        <time>2015-07-06T12:11:57Z</time>
      </trkpt>
      <trkpt lat="42.78782" lon="1.85521">
        <ele>1641</ele>
        <time>2015-07-06T12:12:03Z</time>
      </trkpt>
      <trkpt lat="42.78777" lon="1.8552">
        <ele>1641</ele>
        <time>2015-07-06T12:12:08Z</time>
      </trkpt>
      <trkpt lat="42.78767" lon="1.8552">
        <ele>1641</ele>
        <time>2015-07-06T12:12:14Z</time>
      </trkpt>
      <trkpt lat="42.78762" lon="1.85525">
        <ele>1642</ele>
        <time>2015-07-06T12:12:26Z</time>
      </trkpt>
      <trkpt lat="42.78757" lon="1.85529">
        <ele>1642</ele>
        <time>2015-07-06T12:12:32Z</time>
      </trkpt>
      <trkpt lat="42.78751" lon="1.85534">
        <ele>1642</ele>
        <time>2015-07-06T12:12:44Z</time>
      </trkpt>
      <trkpt lat="42.78744" lon="1.85541">
        <ele>1643</ele>
        <time>2015-07-06T12:13:08Z</time>
      </trkpt>
      <trkpt lat="42.78743" lon="1.85542">
        <ele>1643</ele>
        <time>2015-07-06T12:13:20Z</time>
      </trkpt>
      <trkpt lat="42.78743" lon="1.85542">
        <ele>1643</ele>
        <time>2015-07-06T12:13:38Z</time>
      </trkpt>
      <trkpt lat="42.78743" lon="1.85542">
        <ele>1643</ele>
        <time>2015-07-06T12:13:54Z</time>
      </trkpt>
      <trkpt lat="42.78743" lon="1.85542">
        <ele>1643</ele>
        <time>2015-07-06T12:14:16Z</time>
      </trkpt>
      <trkpt lat="42.78743" lon="1.85542">
        <ele>1643</ele>
        <time>2015-07-06T12:14:28Z</time>
      </trkpt>
      <trkpt lat="42.78734" lon="1.85558">
        <ele>1646</ele>
        <time>2015-07-06T12:18:12Z</time>
      </trkpt>
      <trkpt lat="42.78729" lon="1.85559">
        <ele>1646</ele>
        <time>2015-07-06T12:18:18Z</time>
      </trkpt>
      <trkpt lat="42.78724" lon="1.85564">
        <ele>1646</ele>
        <time>2015-07-06T12:18:30Z</time>
      </trkpt>
      <trkpt lat="42.78724" lon="1.85564">
        <ele>1646</ele>
        <time>2015-07-06T12:19:00Z</time>
      </trkpt>
      <trkpt lat="42.78724" lon="1.85564">
        <ele>1646</ele>
        <time>2015-07-06T12:19:23Z</time>
      </trkpt>
      <trkpt lat="42.78724" lon="1.85564">
        <ele>1646</ele>
        <time>2015-07-06T12:19:40Z</time>
      </trkpt>
      <trkpt lat="42.78724" lon="1.85564">
        <ele>1646</ele>
        <time>2015-07-06T12:20:02Z</time>
      </trkpt>
      <trkpt lat="42.78705" lon="1.85564">
        <ele>1642</ele>
        <time>2015-07-06T12:20:48Z</time>
      </trkpt>
      <trkpt lat="42.787" lon="1.85563">
        <ele>1642</ele>
        <time>2015-07-06T12:20:54Z</time>
      </trkpt>
      <trkpt lat="42.78691" lon="1.85561">
        <ele>1642</ele>
        <time>2015-07-06T12:21:04Z</time>
      </trkpt>
      <trkpt lat="42.78686" lon="1.85562">
        <ele>1642</ele>
        <time>2015-07-06T12:21:10Z</time>
      </trkpt>
      <trkpt lat="42.78681" lon="1.85561">
        <ele>1642</ele>
        <time>2015-07-06T12:21:16Z</time>
      </trkpt>
      <trkpt lat="42.78676" lon="1.85558">
        <ele>1642</ele>
        <time>2015-07-06T12:21:21Z</time>
      </trkpt>
      <trkpt lat="42.78666" lon="1.85554">
        <ele>1642</ele>
        <time>2015-07-06T12:21:32Z</time>
      </trkpt>
      <trkpt lat="42.78661" lon="1.85553">
        <ele>1642</ele>
        <time>2015-07-06T12:21:38Z</time>
      </trkpt>
      <trkpt lat="42.78656" lon="1.85548">
        <ele>1643</ele>
        <time>2015-07-06T12:21:44Z</time>
      </trkpt>
      <trkpt lat="42.78651" lon="1.85545">
        <ele>1643</ele>
        <time>2015-07-06T12:21:50Z</time>
      </trkpt>
      <trkpt lat="42.78647" lon="1.85541">
        <ele>1643</ele>
        <time>2015-07-06T12:21:56Z</time>
      </trkpt>
      <trkpt lat="42.78643" lon="1.85538">
        <ele>1643</ele>
        <time>2015-07-06T12:22:02Z</time>
      </trkpt>
      <trkpt lat="42.78637" lon="1.85532">
        <ele>1643</ele>
        <time>2015-07-06T12:22:08Z</time>
      </trkpt>
      <trkpt lat="42.7863" lon="1.85531">
        <ele>1643</ele>
        <time>2015-07-06T12:22:14Z</time>
      </trkpt>
      <trkpt lat="42.78625" lon="1.85532">
        <ele>1643</ele>
        <time>2015-07-06T12:22:20Z</time>
      </trkpt>
      <trkpt lat="42.78613" lon="1.85538">
        <ele>1643</ele>
        <time>2015-07-06T12:22:32Z</time>
      </trkpt>
      <trkpt lat="42.78606" lon="1.85547">
        <ele>1643</ele>
        <time>2015-07-06T12:22:38Z</time>
      </trkpt>
      <trkpt lat="42.78604" lon="1.85555">
        <ele>1642</ele>
        <time>2015-07-06T12:22:44Z</time>
      </trkpt>
      <trkpt lat="42.78603" lon="1.85563">
        <ele>1642</ele>
        <time>2015-07-06T12:22:50Z</time>
      </trkpt>
      <trkpt lat="42.78601" lon="1.85571">
        <ele>1642</ele>
        <time>2015-07-06T12:22:56Z</time>
      </trkpt>
      <trkpt lat="42.78597" lon="1.85577">
        <ele>1642</ele>
        <time>2015-07-06T12:23:01Z</time>
      </trkpt>
      <trkpt lat="42.78595" lon="1.85582">
        <ele>1642</ele>
        <time>2015-07-06T12:23:07Z</time>
      </trkpt>
      <trkpt lat="42.78594" lon="1.85591">
        <ele>1641</ele>
        <time>2015-07-06T12:23:13Z</time>
      </trkpt>
      <trkpt lat="42.78593" lon="1.85602">
        <ele>1641</ele>
        <time>2015-07-06T12:23:25Z</time>
      </trkpt>
      <trkpt lat="42.78591" lon="1.85608">
        <ele>1641</ele>
        <time>2015-07-06T12:23:30Z</time>
      </trkpt>
      <trkpt lat="42.78586" lon="1.85619">
        <ele>1640</ele>
        <time>2015-07-06T12:23:41Z</time>
      </trkpt>
      <trkpt lat="42.78583" lon="1.85624">
        <ele>1639</ele>
        <time>2015-07-06T12:23:46Z</time>
      </trkpt>
      <trkpt lat="42.78576" lon="1.85633">
        <ele>1639</ele>
        <time>2015-07-06T12:23:57Z</time>
      </trkpt>
      <trkpt lat="42.78572" lon="1.8564">
        <ele>1638</ele>
        <time>2015-07-06T12:24:02Z</time>
      </trkpt>
      <trkpt lat="42.78569" lon="1.85644">
        <ele>1638</ele>
        <time>2015-07-06T12:24:07Z</time>
      </trkpt>
      <trkpt lat="42.78566" lon="1.85651">
        <ele>1637</ele>
        <time>2015-07-06T12:24:13Z</time>
      </trkpt>
      <trkpt lat="42.78564" lon="1.85657">
        <ele>1637</ele>
        <time>2015-07-06T12:24:18Z</time>
      </trkpt>
      <trkpt lat="42.78561" lon="1.85664">
        <ele>1637</ele>
        <time>2015-07-06T12:24:24Z</time>
      </trkpt>
      <trkpt lat="42.78556" lon="1.85673">
        <ele>1636</ele>
        <time>2015-07-06T12:24:30Z</time>
      </trkpt>
      <trkpt lat="42.78554" lon="1.85681">
        <ele>1636</ele>
        <time>2015-07-06T12:24:36Z</time>
      </trkpt>
      <trkpt lat="42.78555" lon="1.85689">
        <ele>1635</ele>
        <time>2015-07-06T12:24:42Z</time>
      </trkpt>
      <trkpt lat="42.78556" lon="1.85697">
        <ele>1634</ele>
        <time>2015-07-06T12:24:48Z</time>
      </trkpt>
      <trkpt lat="42.78556" lon="1.85705">
        <ele>1633</ele>
        <time>2015-07-06T12:24:54Z</time>
      </trkpt>
      <trkpt lat="42.78556" lon="1.85713">
        <ele>1632</ele>
        <time>2015-07-06T12:25:00Z</time>
      </trkpt>
      <trkpt lat="42.78559" lon="1.8572">
        <ele>1632</ele>
        <time>2015-07-06T12:25:06Z</time>
      </trkpt>
      <trkpt lat="42.78552" lon="1.85724">
        <ele>1631</ele>
        <time>2015-07-06T12:25:18Z</time>
      </trkpt>
      <trkpt lat="42.78547" lon="1.85725">
        <ele>1630</ele>
        <time>2015-07-06T12:25:24Z</time>
      </trkpt>
      <trkpt lat="42.78542" lon="1.85723">
        <ele>1630</ele>
        <time>2015-07-06T12:25:29Z</time>
      </trkpt>
      <trkpt lat="42.78534" lon="1.85717">
        <ele>1629</ele>
        <time>2015-07-06T12:25:40Z</time>
      </trkpt>
      <trkpt lat="42.78529" lon="1.85713">
        <ele>1629</ele>
        <time>2015-07-06T12:25:46Z</time>
      </trkpt>
      <trkpt lat="42.78525" lon="1.85709">
        <ele>1628</ele>
        <time>2015-07-06T12:25:52Z</time>
      </trkpt>
      <trkpt lat="42.7852" lon="1.85705">
        <ele>1628</ele>
        <time>2015-07-06T12:25:58Z</time>
      </trkpt>
      <trkpt lat="42.78515" lon="1.857">
        <ele>1627</ele>
        <time>2015-07-06T12:26:04Z</time>
      </trkpt>
      <trkpt lat="42.7851" lon="1.85694">
        <ele>1626</ele>
        <time>2015-07-06T12:26:10Z</time>
      </trkpt>
      <trkpt lat="42.78505" lon="1.85688">
        <ele>1626</ele>
        <time>2015-07-06T12:26:16Z</time>
      </trkpt>
      <trkpt lat="42.785" lon="1.85684">
        <ele>1625</ele>
        <time>2015-07-06T12:26:22Z</time>
      </trkpt>
      <trkpt lat="42.78495" lon="1.85678">
        <ele>1624</ele>
        <time>2015-07-06T12:26:28Z</time>
      </trkpt>
      <trkpt lat="42.78491" lon="1.85675">
        <ele>1624</ele>
        <time>2015-07-06T12:26:34Z</time>
      </trkpt>
      <trkpt lat="42.78487" lon="1.8567">
        <ele>1623</ele>
        <time>2015-07-06T12:26:40Z</time>
      </trkpt>
      <trkpt lat="42.78483" lon="1.85666">
        <ele>1622</ele>
        <time>2015-07-06T12:26:46Z</time>
      </trkpt>
      <trkpt lat="42.78479" lon="1.85664">
        <ele>1622</ele>
        <time>2015-07-06T12:26:52Z</time>
      </trkpt>
      <trkpt lat="42.78473" lon="1.85661">
        <ele>1621</ele>
        <time>2015-07-06T12:26:58Z</time>
      </trkpt>
      <trkpt lat="42.78466" lon="1.85657">
        <ele>1620</ele>
        <time>2015-07-06T12:27:04Z</time>
      </trkpt>
      <trkpt lat="42.7846" lon="1.85654">
        <ele>1619</ele>
        <time>2015-07-06T12:27:09Z</time>
      </trkpt>
      <trkpt lat="42.78454" lon="1.85655">
        <ele>1619</ele>
        <time>2015-07-06T12:27:14Z</time>
      </trkpt>
      <trkpt lat="42.78447" lon="1.85657">
        <ele>1618</ele>
        <time>2015-07-06T12:27:20Z</time>
      </trkpt>
      <trkpt lat="42.78441" lon="1.85657">
        <ele>1618</ele>
        <time>2015-07-06T12:27:26Z</time>
      </trkpt>
      <trkpt lat="42.78437" lon="1.85656">
        <ele>1617</ele>
        <time>2015-07-06T12:27:31Z</time>
      </trkpt>
      <trkpt lat="42.78432" lon="1.85654">
        <ele>1616</ele>
        <time>2015-07-06T12:27:37Z</time>
      </trkpt>
      <trkpt lat="42.78427" lon="1.85655">
        <ele>1616</ele>
        <time>2015-07-06T12:27:42Z</time>
      </trkpt>
      <trkpt lat="42.78421" lon="1.85655">
        <ele>1616</ele>
        <time>2015-07-06T12:27:47Z</time>
      </trkpt>
      <trkpt lat="42.78415" lon="1.8565">
        <ele>1614</ele>
        <time>2015-07-06T12:27:58Z</time>
      </trkpt>
      <trkpt lat="42.7841" lon="1.85647">
        <ele>1614</ele>
        <time>2015-07-06T12:28:03Z</time>
      </trkpt>
      <trkpt lat="42.78404" lon="1.85647">
        <ele>1613</ele>
        <time>2015-07-06T12:28:09Z</time>
      </trkpt>
      <trkpt lat="42.78399" lon="1.85645">
        <ele>1612</ele>
        <time>2015-07-06T12:28:15Z</time>
      </trkpt>
      <trkpt lat="42.78392" lon="1.85645">
        <ele>1612</ele>
        <time>2015-07-06T12:28:21Z</time>
      </trkpt>
      <trkpt lat="42.78384" lon="1.85638">
        <ele>1611</ele>
        <time>2015-07-06T12:28:27Z</time>
      </trkpt>
      <trkpt lat="42.78378" lon="1.85635">
        <ele>1610</ele>
        <time>2015-07-06T12:28:32Z</time>
      </trkpt>
      <trkpt lat="42.78373" lon="1.85633">
        <ele>1610</ele>
        <time>2015-07-06T12:28:37Z</time>
      </trkpt>
      <trkpt lat="42.78368" lon="1.85629">
        <ele>1609</ele>
        <time>2015-07-06T12:28:43Z</time>
      </trkpt>
      <trkpt lat="42.78361" lon="1.85629">
        <ele>1608</ele>
        <time>2015-07-06T12:28:49Z</time>
      </trkpt>
      <trkpt lat="42.78354" lon="1.85626">
        <ele>1608</ele>
        <time>2015-07-06T12:28:55Z</time>
      </trkpt>
      <trkpt lat="42.78349" lon="1.85625">
        <ele>1607</ele>
        <time>2015-07-06T12:29:00Z</time>
      </trkpt>
      <trkpt lat="42.78342" lon="1.85625">
        <ele>1607</ele>
        <time>2015-07-06T12:29:06Z</time>
      </trkpt>
      <trkpt lat="42.78336" lon="1.85626">
        <ele>1607</ele>
        <time>2015-07-06T12:29:12Z</time>
      </trkpt>
      <trkpt lat="42.7833" lon="1.85626">
        <ele>1606</ele>
        <time>2015-07-06T12:29:18Z</time>
      </trkpt>
      <trkpt lat="42.78326" lon="1.85625">
        <ele>1606</ele>
        <time>2015-07-06T12:29:23Z</time>
      </trkpt>
      <trkpt lat="42.78321" lon="1.85622">
        <ele>1606</ele>
        <time>2015-07-06T12:29:28Z</time>
      </trkpt>
      <trkpt lat="42.78316" lon="1.85617">
        <ele>1606</ele>
        <time>2015-07-06T12:29:34Z</time>
      </trkpt>
      <trkpt lat="42.78313" lon="1.8561">
        <ele>1605</ele>
        <time>2015-07-06T12:29:40Z</time>
      </trkpt>
      <trkpt lat="42.7831" lon="1.85604">
        <ele>1605</ele>
        <time>2015-07-06T12:29:46Z</time>
      </trkpt>
      <trkpt lat="42.78306" lon="1.85599">
        <ele>1604</ele>
        <time>2015-07-06T12:29:52Z</time>
      </trkpt>
      <trkpt lat="42.78299" lon="1.8559">
        <ele>1603</ele>
        <time>2015-07-06T12:30:03Z</time>
      </trkpt>
      <trkpt lat="42.78292" lon="1.85581">
        <ele>1602</ele>
        <time>2015-07-06T12:30:14Z</time>
      </trkpt>
      <trkpt lat="42.78288" lon="1.85574">
        <ele>1601</ele>
        <time>2015-07-06T12:30:20Z</time>
      </trkpt>
      <trkpt lat="42.78281" lon="1.85566">
        <ele>1601</ele>
        <time>2015-07-06T12:30:26Z</time>
      </trkpt>
      <trkpt lat="42.78276" lon="1.85561">
        <ele>1600</ele>
        <time>2015-07-06T12:30:32Z</time>
      </trkpt>
      <trkpt lat="42.7827" lon="1.85561">
        <ele>1600</ele>
        <time>2015-07-06T12:30:38Z</time>
      </trkpt>
      <trkpt lat="42.78264" lon="1.85561">
        <ele>1599</ele>
        <time>2015-07-06T12:30:44Z</time>
      </trkpt>
      <trkpt lat="42.78258" lon="1.85562">
        <ele>1599</ele>
        <time>2015-07-06T12:30:50Z</time>
      </trkpt>
      <trkpt lat="42.78252" lon="1.85563">
        <ele>1599</ele>
        <time>2015-07-06T12:30:56Z</time>
      </trkpt>
      <trkpt lat="42.78246" lon="1.85563">
        <ele>1598</ele>
        <time>2015-07-06T12:31:02Z</time>
      </trkpt>
      <trkpt lat="42.78239" lon="1.85561">
        <ele>1598</ele>
        <time>2015-07-06T12:31:08Z</time>
      </trkpt>
      <trkpt lat="42.78234" lon="1.85559">
        <ele>1597</ele>
        <time>2015-07-06T12:31:14Z</time>
      </trkpt>
      <trkpt lat="42.7823" lon="1.85558">
        <ele>1597</ele>
        <time>2015-07-06T12:31:19Z</time>
      </trkpt>
      <trkpt lat="42.78223" lon="1.85556">
        <ele>1596</ele>
        <time>2015-07-06T12:31:25Z</time>
      </trkpt>
      <trkpt lat="42.78217" lon="1.85556">
        <ele>1595</ele>
        <time>2015-07-06T12:31:30Z</time>
      </trkpt>
      <trkpt lat="42.78212" lon="1.85556">
        <ele>1595</ele>
        <time>2015-07-06T12:31:36Z</time>
      </trkpt>
      <trkpt lat="42.78207" lon="1.85554">
        <ele>1594</ele>
        <time>2015-07-06T12:31:41Z</time>
      </trkpt>
      <trkpt lat="42.78202" lon="1.85551">
        <ele>1594</ele>
        <time>2015-07-06T12:31:46Z</time>
      </trkpt>
      <trkpt lat="42.78197" lon="1.85548">
        <ele>1594</ele>
        <time>2015-07-06T12:31:52Z</time>
      </trkpt>
      <trkpt lat="42.78192" lon="1.85548">
        <ele>1593</ele>
        <time>2015-07-06T12:31:58Z</time>
      </trkpt>
      <trkpt lat="42.78187" lon="1.85544">
        <ele>1594</ele>
        <time>2015-07-06T12:32:16Z</time>
      </trkpt>
      <trkpt lat="42.78181" lon="1.85542">
        <ele>1594</ele>
        <time>2015-07-06T12:32:22Z</time>
      </trkpt>
      <trkpt lat="42.78176" lon="1.85543">
        <ele>1594</ele>
        <time>2015-07-06T12:32:28Z</time>
      </trkpt>
      <trkpt lat="42.7817" lon="1.85547">
        <ele>1595</ele>
        <time>2015-07-06T12:32:34Z</time>
      </trkpt>
      <trkpt lat="42.78165" lon="1.85553">
        <ele>1594</ele>
        <time>2015-07-06T12:32:40Z</time>
      </trkpt>
      <trkpt lat="42.78162" lon="1.85558">
        <ele>1594</ele>
        <time>2015-07-06T12:32:46Z</time>
      </trkpt>
      <trkpt lat="42.78156" lon="1.85567">
        <ele>1594</ele>
        <time>2015-07-06T12:32:58Z</time>
      </trkpt>
      <trkpt lat="42.78151" lon="1.85573">
        <ele>1593</ele>
        <time>2015-07-06T12:33:04Z</time>
      </trkpt>
      <trkpt lat="42.78147" lon="1.85579">
        <ele>1593</ele>
        <time>2015-07-06T12:33:10Z</time>
      </trkpt>
      <trkpt lat="42.78141" lon="1.85587">
        <ele>1593</ele>
        <time>2015-07-06T12:33:22Z</time>
      </trkpt>
      <trkpt lat="42.78138" lon="1.85594">
        <ele>1593</ele>
        <time>2015-07-06T12:33:28Z</time>
      </trkpt>
      <trkpt lat="42.78133" lon="1.85604">
        <ele>1593</ele>
        <time>2015-07-06T12:33:39Z</time>
      </trkpt>
      <trkpt lat="42.78129" lon="1.85609">
        <ele>1593</ele>
        <time>2015-07-06T12:33:45Z</time>
      </trkpt>
      <trkpt lat="42.78125" lon="1.85617">
        <ele>1594</ele>
        <time>2015-07-06T12:33:56Z</time>
      </trkpt>
      <trkpt lat="42.78119" lon="1.85625">
        <ele>1594</ele>
        <time>2015-07-06T12:34:08Z</time>
      </trkpt>
      <trkpt lat="42.78114" lon="1.85631">
        <ele>1595</ele>
        <time>2015-07-06T12:34:20Z</time>
      </trkpt>
      <trkpt lat="42.78111" lon="1.85637">
        <ele>1596</ele>
        <time>2015-07-06T12:34:26Z</time>
      </trkpt>
      <trkpt lat="42.78109" lon="1.85645">
        <ele>1597</ele>
        <time>2015-07-06T12:34:38Z</time>
      </trkpt>
      <trkpt lat="42.781" lon="1.85646">
        <ele>1598</ele>
        <time>2015-07-06T12:34:50Z</time>
      </trkpt>
      <trkpt lat="42.78095" lon="1.85646">
        <ele>1598</ele>
        <time>2015-07-06T12:34:56Z</time>
      </trkpt>
      <trkpt lat="42.78087" lon="1.85645">
        <ele>1600</ele>
        <time>2015-07-06T12:35:08Z</time>
      </trkpt>
      <trkpt lat="42.78082" lon="1.85645">
        <ele>1600</ele>
        <time>2015-07-06T12:35:14Z</time>
      </trkpt>
      <trkpt lat="42.78077" lon="1.85645">
        <ele>1601</ele>
        <time>2015-07-06T12:35:20Z</time>
      </trkpt>
      <trkpt lat="42.78071" lon="1.85643">
        <ele>1602</ele>
        <time>2015-07-06T12:35:32Z</time>
      </trkpt>
      <trkpt lat="42.78065" lon="1.85638">
        <ele>1603</ele>
        <time>2015-07-06T12:35:44Z</time>
      </trkpt>
      <trkpt lat="42.78063" lon="1.85634">
        <ele>1604</ele>
        <time>2015-07-06T12:36:06Z</time>
      </trkpt>
      <trkpt lat="42.78063" lon="1.85634">
        <ele>1604</ele>
        <time>2015-07-06T12:36:34Z</time>
      </trkpt>
      <trkpt lat="42.78063" lon="1.85634">
        <ele>1604</ele>
        <time>2015-07-06T12:36:58Z</time>
      </trkpt>
      <trkpt lat="42.78067" lon="1.85611">
        <ele>1610</ele>
        <time>2015-07-06T12:55:08Z</time>
      </trkpt>
      <trkpt lat="42.78066" lon="1.85603">
        <ele>1610</ele>
        <time>2015-07-06T12:55:14Z</time>
      </trkpt>
      <trkpt lat="42.78064" lon="1.85595">
        <ele>1610</ele>
        <time>2015-07-06T12:55:20Z</time>
      </trkpt>
      <trkpt lat="42.78066" lon="1.85589">
        <ele>1610</ele>
        <time>2015-07-06T12:55:25Z</time>
      </trkpt>
      <trkpt lat="42.78069" lon="1.85583">
        <ele>1610</ele>
        <time>2015-07-06T12:55:31Z</time>
      </trkpt>
      <trkpt lat="42.78074" lon="1.85583">
        <ele>1609</ele>
        <time>2015-07-06T12:55:36Z</time>
      </trkpt>
      <trkpt lat="42.78078" lon="1.85577">
        <ele>1608</ele>
        <time>2015-07-06T12:55:44Z</time>
      </trkpt>
      <trkpt lat="42.78083" lon="1.85573">
        <ele>1607</ele>
        <time>2015-07-06T12:55:50Z</time>
      </trkpt>
      <trkpt lat="42.78087" lon="1.85569">
        <ele>1607</ele>
        <time>2015-07-06T12:55:56Z</time>
      </trkpt>
      <trkpt lat="42.78091" lon="1.85566">
        <ele>1606</ele>
        <time>2015-07-06T12:56:02Z</time>
      </trkpt>
      <trkpt lat="42.78094" lon="1.85561">
        <ele>1606</ele>
        <time>2015-07-06T12:56:08Z</time>
      </trkpt>
      <trkpt lat="42.78098" lon="1.85555">
        <ele>1605</ele>
        <time>2015-07-06T12:56:14Z</time>
      </trkpt>
      <trkpt lat="42.78101" lon="1.85548">
        <ele>1605</ele>
        <time>2015-07-06T12:56:20Z</time>
      </trkpt>
      <trkpt lat="42.78104" lon="1.85544">
        <ele>1604</ele>
        <time>2015-07-06T12:56:26Z</time>
      </trkpt>
      <trkpt lat="42.78109" lon="1.8554">
        <ele>1603</ele>
        <time>2015-07-06T12:56:32Z</time>
      </trkpt>
      <trkpt lat="42.7811" lon="1.85533">
        <ele>1603</ele>
        <time>2015-07-06T12:56:38Z</time>
      </trkpt>
      <trkpt lat="42.78105" lon="1.85525">
        <ele>1602</ele>
        <time>2015-07-06T12:56:49Z</time>
      </trkpt>
      <trkpt lat="42.78102" lon="1.85516">
        <ele>1601</ele>
        <time>2015-07-06T12:57:00Z</time>
      </trkpt>
      <trkpt lat="42.78099" lon="1.85512">
        <ele>1600</ele>
        <time>2015-07-06T12:57:06Z</time>
      </trkpt>
      <trkpt lat="42.78093" lon="1.85508">
        <ele>1598</ele>
        <time>2015-07-06T12:57:17Z</time>
      </trkpt>
      <trkpt lat="42.78088" lon="1.85505">
        <ele>1597</ele>
        <time>2015-07-06T12:57:27Z</time>
      </trkpt>
      <trkpt lat="42.78085" lon="1.855">
        <ele>1597</ele>
        <time>2015-07-06T12:57:33Z</time>
      </trkpt>
      <trkpt lat="42.78083" lon="1.85494">
        <ele>1596</ele>
        <time>2015-07-06T12:57:39Z</time>
      </trkpt>
      <trkpt lat="42.78079" lon="1.85489">
        <ele>1596</ele>
        <time>2015-07-06T12:57:45Z</time>
      </trkpt>
      <trkpt lat="42.78072" lon="1.85482">
        <ele>1595</ele>
        <time>2015-07-06T12:57:57Z</time>
      </trkpt>
      <trkpt lat="42.78069" lon="1.85472">
        <ele>1594</ele>
        <time>2015-07-06T12:58:09Z</time>
      </trkpt>
      <trkpt lat="42.78067" lon="1.85466">
        <ele>1593</ele>
        <time>2015-07-06T12:58:14Z</time>
      </trkpt>
      <trkpt lat="42.78064" lon="1.8546">
        <ele>1592</ele>
        <time>2015-07-06T12:58:26Z</time>
      </trkpt>
      <trkpt lat="42.78058" lon="1.85456">
        <ele>1593</ele>
        <time>2015-07-06T12:58:44Z</time>
      </trkpt>
      <trkpt lat="42.78054" lon="1.85453">
        <ele>1593</ele>
        <time>2015-07-06T12:58:49Z</time>
      </trkpt>
      <trkpt lat="42.7805" lon="1.85449">
        <ele>1593</ele>
        <time>2015-07-06T12:58:55Z</time>
      </trkpt>
      <trkpt lat="42.78045" lon="1.85444">
        <ele>1592</ele>
        <time>2015-07-06T12:59:01Z</time>
      </trkpt>
      <trkpt lat="42.7804" lon="1.85441">
        <ele>1592</ele>
        <time>2015-07-06T12:59:07Z</time>
      </trkpt>
      <trkpt lat="42.78035" lon="1.85437">
        <ele>1592</ele>
        <time>2015-07-06T12:59:13Z</time>
      </trkpt>
      <trkpt lat="42.7803" lon="1.85434">
        <ele>1592</ele>
        <time>2015-07-06T12:59:19Z</time>
      </trkpt>
      <trkpt lat="42.78026" lon="1.85431">
        <ele>1592</ele>
        <time>2015-07-06T12:59:25Z</time>
      </trkpt>
      <trkpt lat="42.78021" lon="1.85424">
        <ele>1592</ele>
        <time>2015-07-06T12:59:31Z</time>
      </trkpt>
      <trkpt lat="42.78014" lon="1.85416">
        <ele>1591</ele>
        <time>2015-07-06T12:59:42Z</time>
      </trkpt>
      <trkpt lat="42.78011" lon="1.85413">
        <ele>1591</ele>
        <time>2015-07-06T12:59:48Z</time>
      </trkpt>
      <trkpt lat="42.78006" lon="1.85408">
        <ele>1591</ele>
        <time>2015-07-06T12:59:54Z</time>
      </trkpt>
      <trkpt lat="42.78001" lon="1.85405">
        <ele>1590</ele>
        <time>2015-07-06T12:59:59Z</time>
      </trkpt>
      <trkpt lat="42.77996" lon="1.85405">
        <ele>1590</ele>
        <time>2015-07-06T13:00:05Z</time>
      </trkpt>
      <trkpt lat="42.77988" lon="1.85404">
        <ele>1589</ele>
        <time>2015-07-06T13:00:16Z</time>
      </trkpt>
      <trkpt lat="42.77982" lon="1.854">
        <ele>1589</ele>
        <time>2015-07-06T13:00:22Z</time>
      </trkpt>
      <trkpt lat="42.77977" lon="1.85399">
        <ele>1588</ele>
        <time>2015-07-06T13:00:28Z</time>
      </trkpt>
      <trkpt lat="42.77976" lon="1.85398">
        <ele>1587</ele>
        <time>2015-07-06T13:00:40Z</time>
      </trkpt>
      <trkpt lat="42.77968" lon="1.85397">
        <ele>1586</ele>
        <time>2015-07-06T13:00:58Z</time>
      </trkpt>
      <trkpt lat="42.77961" lon="1.85395">
        <ele>1586</ele>
        <time>2015-07-06T13:01:04Z</time>
      </trkpt>
      <trkpt lat="42.77956" lon="1.85387">
        <ele>1585</ele>
        <time>2015-07-06T13:01:16Z</time>
      </trkpt>
      <trkpt lat="42.77951" lon="1.85382">
        <ele>1584</ele>
        <time>2015-07-06T13:01:22Z</time>
      </trkpt>
      <trkpt lat="42.77946" lon="1.8538">
        <ele>1583</ele>
        <time>2015-07-06T13:01:28Z</time>
      </trkpt>
      <trkpt lat="42.7794" lon="1.85381">
        <ele>1583</ele>
        <time>2015-07-06T13:01:34Z</time>
      </trkpt>
      <trkpt lat="42.77934" lon="1.8538">
        <ele>1582</ele>
        <time>2015-07-06T13:01:40Z</time>
      </trkpt>
      <trkpt lat="42.77929" lon="1.85376">
        <ele>1582</ele>
        <time>2015-07-06T13:01:46Z</time>
      </trkpt>
      <trkpt lat="42.77923" lon="1.85373">
        <ele>1581</ele>
        <time>2015-07-06T13:01:52Z</time>
      </trkpt>
      <trkpt lat="42.77917" lon="1.85368">
        <ele>1580</ele>
        <time>2015-07-06T13:01:58Z</time>
      </trkpt>
      <trkpt lat="42.77911" lon="1.85364">
        <ele>1579</ele>
        <time>2015-07-06T13:02:04Z</time>
      </trkpt>
      <trkpt lat="42.77907" lon="1.85369">
        <ele>1577</ele>
        <time>2015-07-06T13:02:09Z</time>
      </trkpt>
      <trkpt lat="42.77902" lon="1.85366">
        <ele>1575</ele>
        <time>2015-07-06T13:02:15Z</time>
      </trkpt>
      <trkpt lat="42.77898" lon="1.85366">
        <ele>1572</ele>
        <time>2015-07-06T13:02:37Z</time>
      </trkpt>
      <trkpt lat="42.77898" lon="1.85366">
        <ele>1572</ele>
        <time>2015-07-06T13:03:01Z</time>
      </trkpt>
      <trkpt lat="42.77897" lon="1.85363">
        <ele>1567</ele>
        <time>2015-07-06T13:03:12Z</time>
      </trkpt>
      <trkpt lat="42.77892" lon="1.8536">
        <ele>1566</ele>
        <time>2015-07-06T13:03:18Z</time>
      </trkpt>
      <trkpt lat="42.77886" lon="1.85357">
        <ele>1565</ele>
        <time>2015-07-06T13:03:24Z</time>
      </trkpt>
      <trkpt lat="42.77881" lon="1.85353">
        <ele>1565</ele>
        <time>2015-07-06T13:03:30Z</time>
      </trkpt>
      <trkpt lat="42.77875" lon="1.85353">
        <ele>1564</ele>
        <time>2015-07-06T13:03:36Z</time>
      </trkpt>
      <trkpt lat="42.77866" lon="1.85351">
        <ele>1563</ele>
        <time>2015-07-06T13:03:48Z</time>
      </trkpt>
      <trkpt lat="42.77863" lon="1.85346">
        <ele>1562</ele>
        <time>2015-07-06T13:03:53Z</time>
      </trkpt>
      <trkpt lat="42.77856" lon="1.85342">
        <ele>1561</ele>
        <time>2015-07-06T13:04:04Z</time>
      </trkpt>
      <trkpt lat="42.77853" lon="1.85338">
        <ele>1560</ele>
        <time>2015-07-06T13:04:10Z</time>
      </trkpt>
      <trkpt lat="42.7785" lon="1.85331">
        <ele>1560</ele>
        <time>2015-07-06T13:04:16Z</time>
      </trkpt>
      <trkpt lat="42.77847" lon="1.85325">
        <ele>1560</ele>
        <time>2015-07-06T13:04:22Z</time>
      </trkpt>
      <trkpt lat="42.77838" lon="1.85323">
        <ele>1559</ele>
        <time>2015-07-06T13:04:33Z</time>
      </trkpt>
      <trkpt lat="42.77832" lon="1.85326">
        <ele>1558</ele>
        <time>2015-07-06T13:04:39Z</time>
      </trkpt>
      <trkpt lat="42.77826" lon="1.85329">
        <ele>1558</ele>
        <time>2015-07-06T13:04:45Z</time>
      </trkpt>
      <trkpt lat="42.7782" lon="1.85332">
        <ele>1557</ele>
        <time>2015-07-06T13:04:51Z</time>
      </trkpt>
      <trkpt lat="42.77815" lon="1.85331">
        <ele>1557</ele>
        <time>2015-07-06T13:04:57Z</time>
      </trkpt>
      <trkpt lat="42.7781" lon="1.85331">
        <ele>1556</ele>
        <time>2015-07-06T13:05:03Z</time>
      </trkpt>
      <trkpt lat="42.77803" lon="1.85331">
        <ele>1555</ele>
        <time>2015-07-06T13:05:09Z</time>
      </trkpt>
      <trkpt lat="42.77797" lon="1.8533">
        <ele>1555</ele>
        <time>2015-07-06T13:05:15Z</time>
      </trkpt>
      <trkpt lat="42.77791" lon="1.85332">
        <ele>1555</ele>
        <time>2015-07-06T13:05:21Z</time>
      </trkpt>
      <trkpt lat="42.77786" lon="1.85333">
        <ele>1554</ele>
        <time>2015-07-06T13:05:27Z</time>
      </trkpt>
      <trkpt lat="42.77783" lon="1.85333">
        <ele>1554</ele>
        <time>2015-07-06T13:05:57Z</time>
      </trkpt>
      <trkpt lat="42.77783" lon="1.85333">
        <ele>1554</ele>
        <time>2015-07-06T13:06:20Z</time>
      </trkpt>
      <trkpt lat="42.77783" lon="1.85333">
        <ele>1554</ele>
        <time>2015-07-06T13:06:43Z</time>
      </trkpt>
      <trkpt lat="42.77783" lon="1.85333">
        <ele>1554</ele>
        <time>2015-07-06T13:07:06Z</time>
      </trkpt>
      <trkpt lat="42.77783" lon="1.85333">
        <ele>1554</ele>
        <time>2015-07-06T13:07:24Z</time>
      </trkpt>
      <trkpt lat="42.77762" lon="1.8534">
        <ele>1551</ele>
        <time>2015-07-06T13:09:21Z</time>
      </trkpt>
      <trkpt lat="42.77758" lon="1.8534">
        <ele>1551</ele>
        <time>2015-07-06T13:09:27Z</time>
      </trkpt>
      <trkpt lat="42.77748" lon="1.85345">
        <ele>1549</ele>
        <time>2015-07-06T13:09:38Z</time>
      </trkpt>
      <trkpt lat="42.77743" lon="1.85346">
        <ele>1548</ele>
        <time>2015-07-06T13:09:43Z</time>
      </trkpt>
      <trkpt lat="42.77737" lon="1.85348">
        <ele>1547</ele>
        <time>2015-07-06T13:09:49Z</time>
      </trkpt>
      <trkpt lat="42.77731" lon="1.85349">
        <ele>1546</ele>
        <time>2015-07-06T13:09:55Z</time>
      </trkpt>
      <trkpt lat="42.77727" lon="1.85351">
        <ele>1545</ele>
        <time>2015-07-06T13:10:00Z</time>
      </trkpt>
      <trkpt lat="42.77721" lon="1.85358">
        <ele>1544</ele>
        <time>2015-07-06T13:10:06Z</time>
      </trkpt>
      <trkpt lat="42.77716" lon="1.85362">
        <ele>1543</ele>
        <time>2015-07-06T13:10:11Z</time>
      </trkpt>
      <trkpt lat="42.77712" lon="1.85364">
        <ele>1542</ele>
        <time>2015-07-06T13:10:16Z</time>
      </trkpt>
      <trkpt lat="42.77707" lon="1.85368">
        <ele>1541</ele>
        <time>2015-07-06T13:10:22Z</time>
      </trkpt>
      <trkpt lat="42.777" lon="1.85369">
        <ele>1540</ele>
        <time>2015-07-06T13:10:28Z</time>
      </trkpt>
      <trkpt lat="42.77694" lon="1.85373">
        <ele>1539</ele>
        <time>2015-07-06T13:10:34Z</time>
      </trkpt>
      <trkpt lat="42.77688" lon="1.85377">
        <ele>1538</ele>
        <time>2015-07-06T13:10:40Z</time>
      </trkpt>
      <trkpt lat="42.77679" lon="1.85374">
        <ele>1535</ele>
        <time>2015-07-06T13:10:57Z</time>
      </trkpt>
      <trkpt lat="42.77674" lon="1.85376">
        <ele>1534</ele>
        <time>2015-07-06T13:11:03Z</time>
      </trkpt>
      <trkpt lat="42.77669" lon="1.85376">
        <ele>1533</ele>
        <time>2015-07-06T13:11:09Z</time>
      </trkpt>
      <trkpt lat="42.77663" lon="1.85377">
        <ele>1532</ele>
        <time>2015-07-06T13:11:15Z</time>
      </trkpt>
      <trkpt lat="42.77659" lon="1.85377">
        <ele>1531</ele>
        <time>2015-07-06T13:11:20Z</time>
      </trkpt>
      <trkpt lat="42.77657" lon="1.85378">
        <ele>1530</ele>
        <time>2015-07-06T13:11:54Z</time>
      </trkpt>
      <trkpt lat="42.77657" lon="1.85378">
        <ele>1530</ele>
        <time>2015-07-06T13:12:16Z</time>
      </trkpt>
      <trkpt lat="42.77657" lon="1.85378">
        <ele>1530</ele>
        <time>2015-07-06T13:12:32Z</time>
      </trkpt>
      <trkpt lat="42.77657" lon="1.85378">
        <ele>1530</ele>
        <time>2015-07-06T13:12:56Z</time>
      </trkpt>
      <trkpt lat="42.77637" lon="1.85386">
        <ele>1526</ele>
        <time>2015-07-06T13:13:30Z</time>
      </trkpt>
      <trkpt lat="42.77632" lon="1.85385">
        <ele>1526</ele>
        <time>2015-07-06T13:13:35Z</time>
      </trkpt>
      <trkpt lat="42.77625" lon="1.85384">
        <ele>1525</ele>
        <time>2015-07-06T13:13:46Z</time>
      </trkpt>
      <trkpt lat="42.77619" lon="1.85386">
        <ele>1524</ele>
        <time>2015-07-06T13:13:52Z</time>
      </trkpt>
      <trkpt lat="42.77613" lon="1.8538">
        <ele>1523</ele>
        <time>2015-07-06T13:14:04Z</time>
      </trkpt>
      <trkpt lat="42.77609" lon="1.85375">
        <ele>1523</ele>
        <time>2015-07-06T13:14:10Z</time>
      </trkpt>
      <trkpt lat="42.77603" lon="1.85371">
        <ele>1521</ele>
        <time>2015-07-06T13:14:16Z</time>
      </trkpt>
      <trkpt lat="42.77598" lon="1.8537">
        <ele>1520</ele>
        <time>2015-07-06T13:14:22Z</time>
      </trkpt>
      <trkpt lat="42.77593" lon="1.8537">
        <ele>1518</ele>
        <time>2015-07-06T13:14:28Z</time>
      </trkpt>
      <trkpt lat="42.77586" lon="1.85369">
        <ele>1517</ele>
        <time>2015-07-06T13:14:34Z</time>
      </trkpt>
      <trkpt lat="42.7758" lon="1.85369">
        <ele>1515</ele>
        <time>2015-07-06T13:14:40Z</time>
      </trkpt>
      <trkpt lat="42.77574" lon="1.8537">
        <ele>1514</ele>
        <time>2015-07-06T13:14:46Z</time>
      </trkpt>
      <trkpt lat="42.77565" lon="1.85371">
        <ele>1511</ele>
        <time>2015-07-06T13:14:58Z</time>
      </trkpt>
      <trkpt lat="42.77559" lon="1.85373">
        <ele>1509</ele>
        <time>2015-07-06T13:15:04Z</time>
      </trkpt>
      <trkpt lat="42.77554" lon="1.85372">
        <ele>1508</ele>
        <time>2015-07-06T13:15:10Z</time>
      </trkpt>
      <trkpt lat="42.77552" lon="1.85363">
        <ele>1506</ele>
        <time>2015-07-06T13:15:21Z</time>
      </trkpt>
      <trkpt lat="42.77546" lon="1.85365">
        <ele>1503</ele>
        <time>2015-07-06T13:15:33Z</time>
      </trkpt>
      <trkpt lat="42.7754" lon="1.85366">
        <ele>1501</ele>
        <time>2015-07-06T13:15:39Z</time>
      </trkpt>
      <trkpt lat="42.77535" lon="1.85368">
        <ele>1500</ele>
        <time>2015-07-06T13:15:45Z</time>
      </trkpt>
      <trkpt lat="42.77528" lon="1.85369">
        <ele>1498</ele>
        <time>2015-07-06T13:15:51Z</time>
      </trkpt>
      <trkpt lat="42.77523" lon="1.85364">
        <ele>1496</ele>
        <time>2015-07-06T13:16:02Z</time>
      </trkpt>
      <trkpt lat="42.7752" lon="1.85353">
        <ele>1494</ele>
        <time>2015-07-06T13:16:13Z</time>
      </trkpt>
      <trkpt lat="42.77515" lon="1.85352">
        <ele>1491</ele>
        <time>2015-07-06T13:16:20Z</time>
      </trkpt>
      <trkpt lat="42.77511" lon="1.85353">
        <ele>1490</ele>
        <time>2015-07-06T13:16:39Z</time>
      </trkpt>
      <trkpt lat="42.77511" lon="1.85353">
        <ele>1490</ele>
        <time>2015-07-06T13:17:00Z</time>
      </trkpt>
      <trkpt lat="42.77511" lon="1.85353">
        <ele>1490</ele>
        <time>2015-07-06T13:17:27Z</time>
      </trkpt>
      <trkpt lat="42.77511" lon="1.85353">
        <ele>1490</ele>
        <time>2015-07-06T13:17:45Z</time>
      </trkpt>
      <trkpt lat="42.77499" lon="1.85348">
        <ele>1482</ele>
        <time>2015-07-06T13:18:31Z</time>
      </trkpt>
      <trkpt lat="42.77494" lon="1.85348">
        <ele>1481</ele>
        <time>2015-07-06T13:18:37Z</time>
      </trkpt>
      <trkpt lat="42.77489" lon="1.85345">
        <ele>1480</ele>
        <time>2015-07-06T13:18:43Z</time>
      </trkpt>
      <trkpt lat="42.77483" lon="1.85345">
        <ele>1479</ele>
        <time>2015-07-06T13:18:49Z</time>
      </trkpt>
      <trkpt lat="42.77477" lon="1.85347">
        <ele>1478</ele>
        <time>2015-07-06T13:18:55Z</time>
      </trkpt>
      <trkpt lat="42.77468" lon="1.85349">
        <ele>1476</ele>
        <time>2015-07-06T13:19:06Z</time>
      </trkpt>
      <trkpt lat="42.77463" lon="1.85353">
        <ele>1476</ele>
        <time>2015-07-06T13:19:11Z</time>
      </trkpt>
      <trkpt lat="42.77453" lon="1.85356">
        <ele>1474</ele>
        <time>2015-07-06T13:19:21Z</time>
      </trkpt>
      <trkpt lat="42.77447" lon="1.85356">
        <ele>1474</ele>
        <time>2015-07-06T13:19:27Z</time>
      </trkpt>
      <trkpt lat="42.77441" lon="1.85358">
        <ele>1473</ele>
        <time>2015-07-06T13:19:33Z</time>
      </trkpt>
      <trkpt lat="42.77434" lon="1.8536">
        <ele>1472</ele>
        <time>2015-07-06T13:19:50Z</time>
      </trkpt>
      <trkpt lat="42.7743" lon="1.85367">
        <ele>1472</ele>
        <time>2015-07-06T13:19:59Z</time>
      </trkpt>
      <trkpt lat="42.77427" lon="1.85373">
        <ele>1471</ele>
        <time>2015-07-06T13:20:06Z</time>
      </trkpt>
      <trkpt lat="42.77421" lon="1.85373">
        <ele>1471</ele>
        <time>2015-07-06T13:20:12Z</time>
      </trkpt>
      <trkpt lat="42.77415" lon="1.85373">
        <ele>1470</ele>
        <time>2015-07-06T13:20:18Z</time>
      </trkpt>
      <trkpt lat="42.77408" lon="1.85374">
        <ele>1469</ele>
        <time>2015-07-06T13:20:24Z</time>
      </trkpt>
      <trkpt lat="42.77399" lon="1.85375">
        <ele>1468</ele>
        <time>2015-07-06T13:20:30Z</time>
      </trkpt>
      <trkpt lat="42.77393" lon="1.85375">
        <ele>1467</ele>
        <time>2015-07-06T13:20:35Z</time>
      </trkpt>
      <trkpt lat="42.77387" lon="1.85375">
        <ele>1467</ele>
        <time>2015-07-06T13:20:40Z</time>
      </trkpt>
      <trkpt lat="42.7738" lon="1.85376">
        <ele>1466</ele>
        <time>2015-07-06T13:20:46Z</time>
      </trkpt>
      <trkpt lat="42.77374" lon="1.85377">
        <ele>1465</ele>
        <time>2015-07-06T13:20:52Z</time>
      </trkpt>
      <trkpt lat="42.77364" lon="1.85378">
        <ele>1464</ele>
        <time>2015-07-06T13:21:00Z</time>
      </trkpt>
      <trkpt lat="42.77357" lon="1.85378">
        <ele>1464</ele>
        <time>2015-07-06T13:21:06Z</time>
      </trkpt>
      <trkpt lat="42.77351" lon="1.85377">
        <ele>1463</ele>
        <time>2015-07-06T13:21:12Z</time>
      </trkpt>
      <trkpt lat="42.77347" lon="1.85377">
        <ele>1463</ele>
        <time>2015-07-06T13:21:24Z</time>
      </trkpt>
      <trkpt lat="42.77346" lon="1.85378">
        <ele>1463</ele>
        <time>2015-07-06T13:21:30Z</time>
      </trkpt>
      <trkpt lat="42.77341" lon="1.85378">
        <ele>1463</ele>
        <time>2015-07-06T13:21:46Z</time>
      </trkpt>
      <trkpt lat="42.77337" lon="1.8538">
        <ele>1463</ele>
        <time>2015-07-06T13:21:52Z</time>
      </trkpt>
      <trkpt lat="42.77333" lon="1.85383">
        <ele>1463</ele>
        <time>2015-07-06T13:22:04Z</time>
      </trkpt>
      <trkpt lat="42.77325" lon="1.85389">
        <ele>1462</ele>
        <time>2015-07-06T13:22:16Z</time>
      </trkpt>
      <trkpt lat="42.77321" lon="1.85394">
        <ele>1462</ele>
        <time>2015-07-06T13:22:22Z</time>
      </trkpt>
      <trkpt lat="42.77316" lon="1.85399">
        <ele>1462</ele>
        <time>2015-07-06T13:22:28Z</time>
      </trkpt>
      <trkpt lat="42.77311" lon="1.85401">
        <ele>1461</ele>
        <time>2015-07-06T13:22:34Z</time>
      </trkpt>
      <trkpt lat="42.77306" lon="1.85405">
        <ele>1461</ele>
        <time>2015-07-06T13:22:40Z</time>
      </trkpt>
      <trkpt lat="42.77301" lon="1.85403">
        <ele>1461</ele>
        <time>2015-07-06T13:22:46Z</time>
      </trkpt>
      <trkpt lat="42.77295" lon="1.854">
        <ele>1461</ele>
        <time>2015-07-06T13:22:52Z</time>
      </trkpt>
      <trkpt lat="42.7729" lon="1.85398">
        <ele>1461</ele>
        <time>2015-07-06T13:22:58Z</time>
      </trkpt>
      <trkpt lat="42.7729" lon="1.85396">
        <ele>1461</ele>
        <time>2015-07-06T13:23:22Z</time>
      </trkpt>
      <trkpt lat="42.77287" lon="1.85402">
        <ele>1462</ele>
        <time>2015-07-06T13:23:46Z</time>
      </trkpt>
      <trkpt lat="42.77281" lon="1.85412">
        <ele>1462</ele>
        <time>2015-07-06T13:23:57Z</time>
      </trkpt>
      <trkpt lat="42.77277" lon="1.85416">
        <ele>1462</ele>
        <time>2015-07-06T13:24:03Z</time>
      </trkpt>
      <trkpt lat="42.77272" lon="1.85419">
        <ele>1462</ele>
        <time>2015-07-06T13:24:14Z</time>
      </trkpt>
      <trkpt lat="42.77272" lon="1.85418">
        <ele>1462</ele>
        <time>2015-07-06T13:24:31Z</time>
      </trkpt>
      <trkpt lat="42.77272" lon="1.85418">
        <ele>1462</ele>
        <time>2015-07-06T13:24:54Z</time>
      </trkpt>
      <trkpt lat="42.77272" lon="1.85418">
        <ele>1462</ele>
        <time>2015-07-06T13:25:16Z</time>
      </trkpt>
      <trkpt lat="42.77272" lon="1.85432">
        <ele>1460</ele>
        <time>2015-07-06T13:25:33Z</time>
      </trkpt>
      <trkpt lat="42.77272" lon="1.85432">
        <ele>1460</ele>
        <time>2015-07-06T13:26:02Z</time>
      </trkpt>
      <trkpt lat="42.77293" lon="1.85392">
        <ele>1461</ele>
        <time>2015-07-06T13:32:10Z</time>
      </trkpt>
      <trkpt lat="42.77295" lon="1.85385">
        <ele>1461</ele>
        <time>2015-07-06T13:32:16Z</time>
      </trkpt>
      <trkpt lat="42.77294" lon="1.85377">
        <ele>1461</ele>
        <time>2015-07-06T13:32:22Z</time>
      </trkpt>
      <trkpt lat="42.77292" lon="1.85368">
        <ele>1461</ele>
        <time>2015-07-06T13:32:39Z</time>
      </trkpt>
      <trkpt lat="42.77287" lon="1.85362">
        <ele>1461</ele>
        <time>2015-07-06T13:32:45Z</time>
      </trkpt>
      <trkpt lat="42.77283" lon="1.85355">
        <ele>1461</ele>
        <time>2015-07-06T13:32:51Z</time>
      </trkpt>
      <trkpt lat="42.7728" lon="1.85349">
        <ele>1461</ele>
        <time>2015-07-06T13:32:57Z</time>
      </trkpt>
      <trkpt lat="42.77277" lon="1.85343">
        <ele>1460</ele>
        <time>2015-07-06T13:33:03Z</time>
      </trkpt>
      <trkpt lat="42.77276" lon="1.85337">
        <ele>1460</ele>
        <time>2015-07-06T13:33:09Z</time>
      </trkpt>
      <trkpt lat="42.77276" lon="1.8533">
        <ele>1461</ele>
        <time>2015-07-06T13:33:14Z</time>
      </trkpt>
      <trkpt lat="42.77273" lon="1.8532">
        <ele>1460</ele>
        <time>2015-07-06T13:33:20Z</time>
      </trkpt>
      <trkpt lat="42.77273" lon="1.85313">
        <ele>1461</ele>
        <time>2015-07-06T13:33:25Z</time>
      </trkpt>
      <trkpt lat="42.77272" lon="1.85303">
        <ele>1461</ele>
        <time>2015-07-06T13:33:31Z</time>
      </trkpt>
      <trkpt lat="42.7727" lon="1.85295">
        <ele>1460</ele>
        <time>2015-07-06T13:33:37Z</time>
      </trkpt>
      <trkpt lat="42.77268" lon="1.85286">
        <ele>1460</ele>
        <time>2015-07-06T13:33:43Z</time>
      </trkpt>
      <trkpt lat="42.77265" lon="1.85278">
        <ele>1460</ele>
        <time>2015-07-06T13:33:48Z</time>
      </trkpt>
      <trkpt lat="42.77264" lon="1.85268">
        <ele>1460</ele>
        <time>2015-07-06T13:33:54Z</time>
      </trkpt>
      <trkpt lat="42.77262" lon="1.85259">
        <ele>1460</ele>
        <time>2015-07-06T13:34:00Z</time>
      </trkpt>
      <trkpt lat="42.77261" lon="1.8525">
        <ele>1460</ele>
        <time>2015-07-06T13:34:06Z</time>
      </trkpt>
      <trkpt lat="42.77259" lon="1.85242">
        <ele>1460</ele>
        <time>2015-07-06T13:34:12Z</time>
      </trkpt>
      <trkpt lat="42.77258" lon="1.85234">
        <ele>1459</ele>
        <time>2015-07-06T13:34:18Z</time>
      </trkpt>
      <trkpt lat="42.77257" lon="1.85227">
        <ele>1459</ele>
        <time>2015-07-06T13:34:23Z</time>
      </trkpt>
      <trkpt lat="42.77255" lon="1.85217">
        <ele>1459</ele>
        <time>2015-07-06T13:34:34Z</time>
      </trkpt>
      <trkpt lat="42.77253" lon="1.85208">
        <ele>1459</ele>
        <time>2015-07-06T13:34:40Z</time>
      </trkpt>
      <trkpt lat="42.7725" lon="1.85197">
        <ele>1458</ele>
        <time>2015-07-06T13:34:46Z</time>
      </trkpt>
      <trkpt lat="42.77247" lon="1.85187">
        <ele>1458</ele>
        <time>2015-07-06T13:34:52Z</time>
      </trkpt>
      <trkpt lat="42.77243" lon="1.85177">
        <ele>1457</ele>
        <time>2015-07-06T13:34:58Z</time>
      </trkpt>
      <trkpt lat="42.77239" lon="1.85168">
        <ele>1457</ele>
        <time>2015-07-06T13:35:04Z</time>
      </trkpt>
      <trkpt lat="42.77236" lon="1.85159">
        <ele>1456</ele>
        <time>2015-07-06T13:35:10Z</time>
      </trkpt>
      <trkpt lat="42.77235" lon="1.85151">
        <ele>1456</ele>
        <time>2015-07-06T13:35:16Z</time>
      </trkpt>
      <trkpt lat="42.77232" lon="1.85141">
        <ele>1455</ele>
        <time>2015-07-06T13:35:22Z</time>
      </trkpt>
      <trkpt lat="42.77231" lon="1.85133">
        <ele>1455</ele>
        <time>2015-07-06T13:35:28Z</time>
      </trkpt>
      <trkpt lat="42.77228" lon="1.85124">
        <ele>1455</ele>
        <time>2015-07-06T13:35:34Z</time>
      </trkpt>
      <trkpt lat="42.77227" lon="1.85113">
        <ele>1455</ele>
        <time>2015-07-06T13:35:40Z</time>
      </trkpt>
      <trkpt lat="42.77225" lon="1.85103">
        <ele>1454</ele>
        <time>2015-07-06T13:35:46Z</time>
      </trkpt>
      <trkpt lat="42.77224" lon="1.85094">
        <ele>1454</ele>
        <time>2015-07-06T13:35:52Z</time>
      </trkpt>
      <trkpt lat="42.77223" lon="1.85084">
        <ele>1453</ele>
        <time>2015-07-06T13:35:58Z</time>
      </trkpt>
      <trkpt lat="42.77222" lon="1.85075">
        <ele>1452</ele>
        <time>2015-07-06T13:36:04Z</time>
      </trkpt>
      <trkpt lat="42.77221" lon="1.85067">
        <ele>1451</ele>
        <time>2015-07-06T13:36:10Z</time>
      </trkpt>
      <trkpt lat="42.77219" lon="1.85059">
        <ele>1451</ele>
        <time>2015-07-06T13:36:16Z</time>
      </trkpt>
      <trkpt lat="42.77217" lon="1.8505">
        <ele>1450</ele>
        <time>2015-07-06T13:36:22Z</time>
      </trkpt>
      <trkpt lat="42.77216" lon="1.85042">
        <ele>1449</ele>
        <time>2015-07-06T13:36:28Z</time>
      </trkpt>
      <trkpt lat="42.77215" lon="1.85034">
        <ele>1449</ele>
        <time>2015-07-06T13:36:34Z</time>
      </trkpt>
      <trkpt lat="42.77215" lon="1.85027">
        <ele>1448</ele>
        <time>2015-07-06T13:36:40Z</time>
      </trkpt>
      <trkpt lat="42.77216" lon="1.85018">
        <ele>1447</ele>
        <time>2015-07-06T13:36:46Z</time>
      </trkpt>
      <trkpt lat="42.77215" lon="1.85011">
        <ele>1447</ele>
        <time>2015-07-06T13:36:52Z</time>
      </trkpt>
      <trkpt lat="42.77215" lon="1.85002">
        <ele>1446</ele>
        <time>2015-07-06T13:36:58Z</time>
      </trkpt>
      <trkpt lat="42.77216" lon="1.84993">
        <ele>1446</ele>
        <time>2015-07-06T13:37:04Z</time>
      </trkpt>
      <trkpt lat="42.77215" lon="1.84985">
        <ele>1445</ele>
        <time>2015-07-06T13:37:10Z</time>
      </trkpt>
      <trkpt lat="42.77211" lon="1.84973">
        <ele>1445</ele>
        <time>2015-07-06T13:37:17Z</time>
      </trkpt>
      <trkpt lat="42.77208" lon="1.84967">
        <ele>1444</ele>
        <time>2015-07-06T13:37:22Z</time>
      </trkpt>
      <trkpt lat="42.77205" lon="1.8496">
        <ele>1444</ele>
        <time>2015-07-06T13:37:28Z</time>
      </trkpt>
      <trkpt lat="42.77202" lon="1.84952">
        <ele>1443</ele>
        <time>2015-07-06T13:37:34Z</time>
      </trkpt>
      <trkpt lat="42.77196" lon="1.84945">
        <ele>1443</ele>
        <time>2015-07-06T13:37:40Z</time>
      </trkpt>
      <trkpt lat="42.7719" lon="1.84939">
        <ele>1443</ele>
        <time>2015-07-06T13:37:46Z</time>
      </trkpt>
      <trkpt lat="42.77183" lon="1.84939">
        <ele>1442</ele>
        <time>2015-07-06T13:37:58Z</time>
      </trkpt>
      <trkpt lat="42.77175" lon="1.84931">
        <ele>1442</ele>
        <time>2015-07-06T13:38:10Z</time>
      </trkpt>
      <trkpt lat="42.77167" lon="1.84923">
        <ele>1441</ele>
        <time>2015-07-06T13:38:16Z</time>
      </trkpt>
      <trkpt lat="42.77162" lon="1.84916">
        <ele>1440</ele>
        <time>2015-07-06T13:38:22Z</time>
      </trkpt>
      <trkpt lat="42.77158" lon="1.8491">
        <ele>1440</ele>
        <time>2015-07-06T13:38:28Z</time>
      </trkpt>
      <trkpt lat="42.77153" lon="1.84908">
        <ele>1440</ele>
        <time>2015-07-06T13:38:34Z</time>
      </trkpt>
      <trkpt lat="42.77148" lon="1.84906">
        <ele>1439</ele>
        <time>2015-07-06T13:38:40Z</time>
      </trkpt>
      <trkpt lat="42.77144" lon="1.84903">
        <ele>1439</ele>
        <time>2015-07-06T13:38:46Z</time>
      </trkpt>
      <trkpt lat="42.77139" lon="1.84903">
        <ele>1439</ele>
        <time>2015-07-06T13:38:51Z</time>
      </trkpt>
      <trkpt lat="42.77133" lon="1.84896">
        <ele>1438</ele>
        <time>2015-07-06T13:38:57Z</time>
      </trkpt>
      <trkpt lat="42.77128" lon="1.84891">
        <ele>1438</ele>
        <time>2015-07-06T13:39:02Z</time>
      </trkpt>
      <trkpt lat="42.77124" lon="1.84881">
        <ele>1438</ele>
        <time>2015-07-06T13:39:07Z</time>
      </trkpt>
      <trkpt lat="42.77117" lon="1.84876">
        <ele>1437</ele>
        <time>2015-07-06T13:39:18Z</time>
      </trkpt>
      <trkpt lat="42.77113" lon="1.84871">
        <ele>1437</ele>
        <time>2015-07-06T13:39:24Z</time>
      </trkpt>
      <trkpt lat="42.7711" lon="1.84865">
        <ele>1437</ele>
        <time>2015-07-06T13:39:30Z</time>
      </trkpt>
      <trkpt lat="42.77105" lon="1.84865">
        <ele>1437</ele>
        <time>2015-07-06T13:39:36Z</time>
      </trkpt>
      <trkpt lat="42.771" lon="1.84864">
        <ele>1437</ele>
        <time>2015-07-06T13:39:42Z</time>
      </trkpt>
      <trkpt lat="42.77095" lon="1.84864">
        <ele>1437</ele>
        <time>2015-07-06T13:39:47Z</time>
      </trkpt>
      <trkpt lat="42.77088" lon="1.84866">
        <ele>1438</ele>
        <time>2015-07-06T13:39:52Z</time>
      </trkpt>
      <trkpt lat="42.77081" lon="1.84868">
        <ele>1437</ele>
        <time>2015-07-06T13:39:58Z</time>
      </trkpt>
      <trkpt lat="42.77074" lon="1.84868">
        <ele>1437</ele>
        <time>2015-07-06T13:40:04Z</time>
      </trkpt>
      <trkpt lat="42.77067" lon="1.84866">
        <ele>1437</ele>
        <time>2015-07-06T13:40:10Z</time>
      </trkpt>
      <trkpt lat="42.7706" lon="1.84867">
        <ele>1437</ele>
        <time>2015-07-06T13:40:16Z</time>
      </trkpt>
      <trkpt lat="42.77047" lon="1.84868">
        <ele>1437</ele>
        <time>2015-07-06T13:40:27Z</time>
      </trkpt>
      <trkpt lat="42.77038" lon="1.84867">
        <ele>1437</ele>
        <time>2015-07-06T13:40:33Z</time>
      </trkpt>
      <trkpt lat="42.77032" lon="1.84867">
        <ele>1437</ele>
        <time>2015-07-06T13:40:39Z</time>
      </trkpt>
      <trkpt lat="42.77023" lon="1.84866">
        <ele>1437</ele>
        <time>2015-07-06T13:40:44Z</time>
      </trkpt>
      <trkpt lat="42.77018" lon="1.84863">
        <ele>1438</ele>
        <time>2015-07-06T13:40:50Z</time>
      </trkpt>
      <trkpt lat="42.77014" lon="1.84867">
        <ele>1438</ele>
        <time>2015-07-06T13:41:02Z</time>
      </trkpt>
      <trkpt lat="42.77008" lon="1.84868">
        <ele>1438</ele>
        <time>2015-07-06T13:41:13Z</time>
      </trkpt>
      <trkpt lat="42.76997" lon="1.84867">
        <ele>1438</ele>
        <time>2015-07-06T13:41:30Z</time>
      </trkpt>
      <trkpt lat="42.7699" lon="1.84866">
        <ele>1439</ele>
        <time>2015-07-06T13:41:36Z</time>
      </trkpt>
      <trkpt lat="42.76986" lon="1.84863">
        <ele>1439</ele>
        <time>2015-07-06T13:41:48Z</time>
      </trkpt>
      <trkpt lat="42.76975" lon="1.84856">
        <ele>1439</ele>
        <time>2015-07-06T13:42:12Z</time>
      </trkpt>
      <trkpt lat="42.76964" lon="1.84859">
        <ele>1440</ele>
        <time>2015-07-06T13:42:29Z</time>
      </trkpt>
      <trkpt lat="42.76955" lon="1.84856">
        <ele>1440</ele>
        <time>2015-07-06T13:42:40Z</time>
      </trkpt>
      <trkpt lat="42.76949" lon="1.84852">
        <ele>1440</ele>
        <time>2015-07-06T13:42:46Z</time>
      </trkpt>
      <trkpt lat="42.76939" lon="1.84849">
        <ele>1440</ele>
        <time>2015-07-06T13:43:03Z</time>
      </trkpt>
      <trkpt lat="42.76934" lon="1.84846">
        <ele>1441</ele>
        <time>2015-07-06T13:43:14Z</time>
      </trkpt>
      <trkpt lat="42.76934" lon="1.84846">
        <ele>1441</ele>
        <time>2015-07-06T13:43:31Z</time>
      </trkpt>
      <trkpt lat="42.76923" lon="1.84845">
        <ele>1442</ele>
        <time>2015-07-06T13:43:37Z</time>
      </trkpt>
      <trkpt lat="42.76922" lon="1.84841">
        <ele>1442</ele>
        <time>2015-07-06T13:43:54Z</time>
      </trkpt>
      <trkpt lat="42.76912" lon="1.84836">
        <ele>1444</ele>
        <time>2015-07-06T13:44:12Z</time>
      </trkpt>
      <trkpt lat="42.76907" lon="1.84836">
        <ele>1444</ele>
        <time>2015-07-06T13:44:24Z</time>
      </trkpt>
      <trkpt lat="42.76897" lon="1.84838">
        <ele>1443</ele>
        <time>2015-07-06T13:44:34Z</time>
      </trkpt>
      <trkpt lat="42.76891" lon="1.84838">
        <ele>1443</ele>
        <time>2015-07-06T13:44:40Z</time>
      </trkpt>
      <trkpt lat="42.76887" lon="1.84841">
        <ele>1443</ele>
        <time>2015-07-06T13:44:46Z</time>
      </trkpt>
      <trkpt lat="42.76884" lon="1.84848">
        <ele>1442</ele>
        <time>2015-07-06T13:44:58Z</time>
      </trkpt>
      <trkpt lat="42.76875" lon="1.8485">
        <ele>1442</ele>
        <time>2015-07-06T13:45:08Z</time>
      </trkpt>
      <trkpt lat="42.76871" lon="1.8485">
        <ele>1442</ele>
        <time>2015-07-06T13:45:26Z</time>
      </trkpt>
      <trkpt lat="42.76876" lon="1.84859">
        <ele>1443</ele>
        <time>2015-07-06T13:45:49Z</time>
      </trkpt>
      <trkpt lat="42.76868" lon="1.84866">
        <ele>1443</ele>
        <time>2015-07-06T13:46:17Z</time>
      </trkpt>
      <trkpt lat="42.76868" lon="1.84866">
        <ele>1443</ele>
        <time>2015-07-06T13:46:39Z</time>
      </trkpt>
      <trkpt lat="42.76863" lon="1.84837">
        <ele>1438</ele>
        <time>2015-07-06T13:48:52Z</time>
      </trkpt>
      <trkpt lat="42.76871" lon="1.84844">
        <ele>1438</ele>
        <time>2015-07-06T13:49:09Z</time>
      </trkpt>
      <trkpt lat="42.76871" lon="1.84844">
        <ele>1438</ele>
        <time>2015-07-06T13:49:37Z</time>
      </trkpt>
      <trkpt lat="42.76866" lon="1.84856">
        <ele>1439</ele>
        <time>2015-07-06T13:49:53Z</time>
      </trkpt>
      <trkpt lat="42.76856" lon="1.84858">
        <ele>1439</ele>
        <time>2015-07-06T13:50:04Z</time>
      </trkpt>
      <trkpt lat="42.76851" lon="1.8486">
        <ele>1439</ele>
        <time>2015-07-06T13:50:10Z</time>
      </trkpt>
      <trkpt lat="42.76846" lon="1.84863">
        <ele>1439</ele>
        <time>2015-07-06T13:50:16Z</time>
      </trkpt>
      <trkpt lat="42.76843" lon="1.84868">
        <ele>1439</ele>
        <time>2015-07-06T13:50:22Z</time>
      </trkpt>
      <trkpt lat="42.76836" lon="1.8487">
        <ele>1439</ele>
        <time>2015-07-06T13:50:28Z</time>
      </trkpt>
      <trkpt lat="42.76828" lon="1.84872">
        <ele>1439</ele>
        <time>2015-07-06T13:50:34Z</time>
      </trkpt>
      <trkpt lat="42.76823" lon="1.84873">
        <ele>1439</ele>
        <time>2015-07-06T13:50:39Z</time>
      </trkpt>
      <trkpt lat="42.76816" lon="1.84875">
        <ele>1439</ele>
        <time>2015-07-06T13:50:45Z</time>
      </trkpt>
      <trkpt lat="42.76811" lon="1.84875">
        <ele>1438</ele>
        <time>2015-07-06T13:50:50Z</time>
      </trkpt>
      <trkpt lat="42.76806" lon="1.84878">
        <ele>1437</ele>
        <time>2015-07-06T13:50:56Z</time>
      </trkpt>
      <trkpt lat="42.76799" lon="1.8488">
        <ele>1435</ele>
        <time>2015-07-06T13:51:07Z</time>
      </trkpt>
      <trkpt lat="42.76795" lon="1.84884">
        <ele>1432</ele>
        <time>2015-07-06T13:51:12Z</time>
      </trkpt>
      <trkpt lat="42.76791" lon="1.8489">
        <ele>1430</ele>
        <time>2015-07-06T13:51:18Z</time>
      </trkpt>
      <trkpt lat="42.76788" lon="1.84896">
        <ele>1429</ele>
        <time>2015-07-06T13:51:23Z</time>
      </trkpt>
      <trkpt lat="42.76783" lon="1.84907">
        <ele>1426</ele>
        <time>2015-07-06T13:51:34Z</time>
      </trkpt>
      <trkpt lat="42.76775" lon="1.84911">
        <ele>1424</ele>
        <time>2015-07-06T13:51:40Z</time>
      </trkpt>
      <trkpt lat="42.7677" lon="1.84916">
        <ele>1423</ele>
        <time>2015-07-06T13:51:46Z</time>
      </trkpt>
      <trkpt lat="42.76765" lon="1.8492">
        <ele>1421</ele>
        <time>2015-07-06T13:51:51Z</time>
      </trkpt>
      <trkpt lat="42.76757" lon="1.84928">
        <ele>1420</ele>
        <time>2015-07-06T13:51:57Z</time>
      </trkpt>
      <trkpt lat="42.76749" lon="1.84936">
        <ele>1418</ele>
        <time>2015-07-06T13:52:02Z</time>
      </trkpt>
      <trkpt lat="42.76743" lon="1.84944">
        <ele>1416</ele>
        <time>2015-07-06T13:52:08Z</time>
      </trkpt>
      <trkpt lat="42.7674" lon="1.84955">
        <ele>1413</ele>
        <time>2015-07-06T13:52:19Z</time>
      </trkpt>
      <trkpt lat="42.76736" lon="1.8496">
        <ele>1412</ele>
        <time>2015-07-06T13:52:25Z</time>
      </trkpt>
      <trkpt lat="42.76733" lon="1.84967">
        <ele>1410</ele>
        <time>2015-07-06T13:52:31Z</time>
      </trkpt>
      <trkpt lat="42.76728" lon="1.84973">
        <ele>1409</ele>
        <time>2015-07-06T13:52:42Z</time>
      </trkpt>
      <trkpt lat="42.76719" lon="1.84976">
        <ele>1408</ele>
        <time>2015-07-06T13:52:54Z</time>
      </trkpt>
      <trkpt lat="42.76714" lon="1.84984">
        <ele>1407</ele>
        <time>2015-07-06T13:53:05Z</time>
      </trkpt>
      <trkpt lat="42.7671" lon="1.8499">
        <ele>1406</ele>
        <time>2015-07-06T13:53:10Z</time>
      </trkpt>
      <trkpt lat="42.76705" lon="1.84997">
        <ele>1405</ele>
        <time>2015-07-06T13:53:16Z</time>
      </trkpt>
      <trkpt lat="42.76695" lon="1.85">
        <ele>1403</ele>
        <time>2015-07-06T13:53:22Z</time>
      </trkpt>
      <trkpt lat="42.76675" lon="1.85002">
        <ele>1400</ele>
        <time>2015-07-06T13:53:28Z</time>
      </trkpt>
      <trkpt lat="42.76667" lon="1.85009">
        <ele>1399</ele>
        <time>2015-07-06T13:53:34Z</time>
      </trkpt>
      <trkpt lat="42.76658" lon="1.85019">
        <ele>1395</ele>
        <time>2015-07-06T13:53:40Z</time>
      </trkpt>
      <trkpt lat="42.76653" lon="1.85025">
        <ele>1392</ele>
        <time>2015-07-06T13:53:45Z</time>
      </trkpt>
      <trkpt lat="42.76649" lon="1.85033">
        <ele>1390</ele>
        <time>2015-07-06T13:53:51Z</time>
      </trkpt>
      <trkpt lat="42.76645" lon="1.85039">
        <ele>1388</ele>
        <time>2015-07-06T13:53:56Z</time>
      </trkpt>
      <trkpt lat="42.76643" lon="1.85047">
        <ele>1386</ele>
        <time>2015-07-06T13:54:02Z</time>
      </trkpt>
      <trkpt lat="42.7664" lon="1.85052">
        <ele>1384</ele>
        <time>2015-07-06T13:54:07Z</time>
      </trkpt>
      <trkpt lat="42.76637" lon="1.85056">
        <ele>1382</ele>
        <time>2015-07-06T13:54:24Z</time>
      </trkpt>
    </trkseg>
  </trk>
</gpx>